<?xml version='1.0' encoding='UTF-8'?><gpx version="1.1" creator="JPX - https://github.com/jenetics/jpx" xmlns="http://www.topografix.com/GPX/1/1"><trk><trkseg><trkpt lat="44.1182363" lon="9.8028286"><ele>36.166666666666664</ele><time>2026-03-31T12:42:09.778Z</time></trkpt><trkpt lat="44.1181768" lon="9.8027708"><ele>36.333333333333336</ele><time>2026-03-31T12:42:14.777Z</time></trkpt><trkpt lat="44.1180853" lon="9.8028106"><ele>36.5</ele><time>2026-03-31T12:42:17.777Z</time></trkpt><trkpt lat="44.1180076" lon="9.8028441"><ele>36.66666666666667</ele><time>2026-03-31T12:42:19.778Z</time></trkpt><trkpt lat="44.1179367" lon="9.8028783"><ele>36.833333333333336</ele><time>2026-03-31T12:42:21.778Z</time></trkpt><trkpt lat="44.1178667" lon="9.802925"><ele>37.0</ele><time>2026-03-31T12:42:24.778Z</time></trkpt><trkpt lat="44.117795" lon="9.8029417"><ele>37.0</ele><time>2026-03-31T12:42:27.777Z</time></trkpt><trkpt lat="44.1177317" lon="9.8030133"><ele>37.0</ele><time>2026-03-31T12:42:30.777Z</time></trkpt><trkpt lat="44.1176733" lon="9.80306"><ele>37.0</ele><time>2026-03-31T12:42:32.777Z</time></trkpt><trkpt lat="44.1176033" lon="9.8031183"><ele>37.0</ele><time>2026-03-31T12:42:35.778Z</time></trkpt><trkpt lat="44.117545" lon="9.8031783"><ele>37.0</ele><time>2026-03-31T12:42:37.772Z</time></trkpt><trkpt lat="44.1174833" lon="9.8032317"><ele>37.0</ele><time>2026-03-31T12:42:39.777Z</time></trkpt><trkpt lat="44.1174267" lon="9.8032833"><ele>37.0</ele><time>2026-03-31T12:42:41.777Z</time></trkpt><trkpt lat="44.11737" lon="9.8033383"><ele>36.5</ele><time>2026-03-31T12:42:43.778Z</time></trkpt><trkpt lat="44.117325" lon="9.8034083"><ele>36.0</ele><time>2026-03-31T12:42:45.778Z</time></trkpt><trkpt lat="44.1172667" lon="9.80348"><ele>35.5</ele><time>2026-03-31T12:42:47.777Z</time></trkpt><trkpt lat="44.1172167" lon="9.8035467"><ele>35.0</ele><time>2026-03-31T12:42:49.777Z</time></trkpt><trkpt lat="44.117145" lon="9.80363"><ele>34.5</ele><time>2026-03-31T12:42:52.777Z</time></trkpt><trkpt lat="44.1171267" lon="9.8037367"><ele>34.0</ele><time>2026-03-31T12:42:55.778Z</time></trkpt><trkpt lat="44.117105" lon="9.8038217"><ele>34.0</ele><time>2026-03-31T12:42:59.778Z</time></trkpt><trkpt lat="44.1170367" lon="9.803865"><ele>34.0</ele><time>2026-03-31T12:43:03.778Z</time></trkpt><trkpt lat="44.1169583" lon="9.803875"><ele>34.0</ele><time>2026-03-31T12:43:07.777Z</time></trkpt><trkpt lat="44.116885" lon="9.80386"><ele>34.0</ele><time>2026-03-31T12:43:09.778Z</time></trkpt><trkpt lat="44.1167933" lon="9.8038567"><ele>34.0</ele><time>2026-03-31T12:43:11.777Z</time></trkpt><trkpt lat="44.1166983" lon="9.8038483"><ele>34.0</ele><time>2026-03-31T12:43:13.778Z</time></trkpt><trkpt lat="44.1166" lon="9.8038267"><ele>33.0</ele><time>2026-03-31T12:43:15.778Z</time></trkpt><trkpt lat="44.1164983" lon="9.8037817"><ele>32.0</ele><time>2026-03-31T12:43:17.778Z</time></trkpt><trkpt lat="44.1163917" lon="9.8037633"><ele>31.0</ele><time>2026-03-31T12:43:19.777Z</time></trkpt><trkpt lat="44.116295" lon="9.80377"><ele>30.0</ele><time>2026-03-31T12:43:21.778Z</time></trkpt><trkpt lat="44.1161933" lon="9.8037883"><ele>29.0</ele><time>2026-03-31T12:43:23.778Z</time></trkpt><trkpt lat="44.1160917" lon="9.8038117"><ele>28.999999999999996</ele><time>2026-03-31T12:43:25.777Z</time></trkpt><trkpt lat="44.116015" lon="9.803815"><ele>29.0</ele><time>2026-03-31T12:43:27.777Z</time></trkpt><trkpt lat="44.1159417" lon="9.8038233"><ele>29.0</ele><time>2026-03-31T12:43:29.777Z</time></trkpt><trkpt lat="44.115835" lon="9.8038233"><ele>29.0</ele><time>2026-03-31T12:43:31.778Z</time></trkpt><trkpt lat="44.11572" lon="9.8037717"><ele>28.999999999999996</ele><time>2026-03-31T12:43:33.777Z</time></trkpt><trkpt lat="44.1156567" lon="9.8037383"><ele>29.0</ele><time>2026-03-31T12:43:34.777Z</time></trkpt><trkpt lat="44.115585" lon="9.8036883"><ele>28.666666666666664</ele><time>2026-03-31T12:43:35.778Z</time></trkpt><trkpt lat="44.1155067" lon="9.8036283"><ele>28.333333333333332</ele><time>2026-03-31T12:43:36.778Z</time></trkpt><trkpt lat="44.1154317" lon="9.803575"><ele>28.0</ele><time>2026-03-31T12:43:37.777Z</time></trkpt><trkpt lat="44.115355" lon="9.8035283"><ele>27.666666666666664</ele><time>2026-03-31T12:43:38.778Z</time></trkpt><trkpt lat="44.1152867" lon="9.8034917"><ele>27.333333333333332</ele><time>2026-03-31T12:43:39.778Z</time></trkpt><trkpt lat="44.1152167" lon="9.803455"><ele>27.0</ele><time>2026-03-31T12:43:40.778Z</time></trkpt><trkpt lat="44.11515" lon="9.8034167"><ele>27.0</ele><time>2026-03-31T12:43:41.778Z</time></trkpt><trkpt lat="44.115085" lon="9.8033783"><ele>27.0</ele><time>2026-03-31T12:43:42.778Z</time></trkpt><trkpt lat="44.1150067" lon="9.8033333"><ele>27.0</ele><time>2026-03-31T12:43:43.777Z</time></trkpt><trkpt lat="44.11494" lon="9.8032983"><ele>27.0</ele><time>2026-03-31T12:43:44.777Z</time></trkpt><trkpt lat="44.1148717" lon="9.8032633"><ele>27.0</ele><time>2026-03-31T12:43:45.778Z</time></trkpt><trkpt lat="44.114805" lon="9.80323"><ele>27.0</ele><time>2026-03-31T12:43:46.778Z</time></trkpt><trkpt lat="44.11474" lon="9.8031933"><ele>27.0</ele><time>2026-03-31T12:43:47.778Z</time></trkpt><trkpt lat="44.1146733" lon="9.80316"><ele>26.714285714285715</ele><time>2026-03-31T12:43:48.777Z</time></trkpt><trkpt lat="44.11461" lon="9.8031283"><ele>26.428571428571427</ele><time>2026-03-31T12:43:49.777Z</time></trkpt><trkpt lat="44.1145367" lon="9.8031"><ele>26.142857142857146</ele><time>2026-03-31T12:43:50.777Z</time></trkpt><trkpt lat="44.11447" lon="9.8030717"><ele>25.857142857142858</ele><time>2026-03-31T12:43:51.777Z</time></trkpt><trkpt lat="44.114405" lon="9.8030467"><ele>25.571428571428573</ele><time>2026-03-31T12:43:52.778Z</time></trkpt><trkpt lat="44.1143433" lon="9.803025"><ele>25.28571428571429</ele><time>2026-03-31T12:43:53.778Z</time></trkpt><trkpt lat="44.11428" lon="9.8030017"><ele>25.0</ele><time>2026-03-31T12:43:54.777Z</time></trkpt><trkpt lat="44.11416" lon="9.8029733"><ele>25.0</ele><time>2026-03-31T12:43:56.778Z</time></trkpt><trkpt lat="44.1140467" lon="9.80296"><ele>25.0</ele><time>2026-03-31T12:43:58.778Z</time></trkpt><trkpt lat="44.113935" lon="9.802945"><ele>25.0</ele><time>2026-03-31T12:44:00.778Z</time></trkpt><trkpt lat="44.113825" lon="9.802925"><ele>25.0</ele><time>2026-03-31T12:44:02.778Z</time></trkpt><trkpt lat="44.11372" lon="9.802915"><ele>25.0</ele><time>2026-03-31T12:44:04.777Z</time></trkpt><trkpt lat="44.11361" lon="9.8029033"><ele>25.0</ele><time>2026-03-31T12:44:06.778Z</time></trkpt><trkpt lat="44.1135117" lon="9.802885"><ele>25.0</ele><time>2026-03-31T12:44:08.777Z</time></trkpt><trkpt lat="44.11341" lon="9.80287"><ele>25.0</ele><time>2026-03-31T12:44:10.778Z</time></trkpt><trkpt lat="44.1133183" lon="9.802865"><ele>25.0</ele><time>2026-03-31T12:44:12.778Z</time></trkpt><trkpt lat="44.11322" lon="9.8028533"><ele>25.0</ele><time>2026-03-31T12:44:14.778Z</time></trkpt><trkpt lat="44.1131167" lon="9.8028333"><ele>25.0</ele><time>2026-03-31T12:44:16.777Z</time></trkpt><trkpt lat="44.1130033" lon="9.8028083"><ele>25.0</ele><time>2026-03-31T12:44:18.778Z</time></trkpt><trkpt lat="44.1129417" lon="9.802785"><ele>25.0</ele><time>2026-03-31T12:44:19.777Z</time></trkpt><trkpt lat="44.1128233" lon="9.802735"><ele>25.0</ele><time>2026-03-31T12:44:21.777Z</time></trkpt><trkpt lat="44.1127083" lon="9.8026783"><ele>25.0</ele><time>2026-03-31T12:44:23.777Z</time></trkpt><trkpt lat="44.11265" lon="9.8026433"><ele>25.000000000000004</ele><time>2026-03-31T12:44:24.777Z</time></trkpt><trkpt lat="44.1125883" lon="9.8026117"><ele>25.0</ele><time>2026-03-31T12:44:25.777Z</time></trkpt><trkpt lat="44.1125267" lon="9.8025817"><ele>25.0</ele><time>2026-03-31T12:44:26.778Z</time></trkpt><trkpt lat="44.112465" lon="9.80255"><ele>25.0</ele><time>2026-03-31T12:44:27.778Z</time></trkpt><trkpt lat="44.1124" lon="9.80252"><ele>25.0</ele><time>2026-03-31T12:44:28.778Z</time></trkpt><trkpt lat="44.1123333" lon="9.80249"><ele>25.000000000000004</ele><time>2026-03-31T12:44:29.777Z</time></trkpt><trkpt lat="44.11227" lon="9.8024633"><ele>25.0</ele><time>2026-03-31T12:44:30.778Z</time></trkpt><trkpt lat="44.1121567" lon="9.80239"><ele>24.28571428571429</ele><time>2026-03-31T12:44:32.778Z</time></trkpt><trkpt lat="44.1120917" lon="9.8023533"><ele>23.571428571428573</ele><time>2026-03-31T12:44:33.778Z</time></trkpt><trkpt lat="44.1120283" lon="9.8023133"><ele>22.857142857142858</ele><time>2026-03-31T12:44:34.778Z</time></trkpt><trkpt lat="44.111965" lon="9.802275"><ele>22.142857142857146</ele><time>2026-03-31T12:44:35.778Z</time></trkpt><trkpt lat="44.1119" lon="9.8022317"><ele>21.42857142857143</ele><time>2026-03-31T12:44:36.778Z</time></trkpt><trkpt lat="44.1118333" lon="9.8021883"><ele>20.714285714285715</ele><time>2026-03-31T12:44:37.778Z</time></trkpt><trkpt lat="44.1117667" lon="9.8021433"><ele>20.0</ele><time>2026-03-31T12:44:38.778Z</time></trkpt><trkpt lat="44.1117" lon="9.8021"><ele>20.0</ele><time>2026-03-31T12:44:39.777Z</time></trkpt><trkpt lat="44.111635" lon="9.8020633"><ele>20.0</ele><time>2026-03-31T12:44:40.777Z</time></trkpt><trkpt lat="44.1115683" lon="9.80203"><ele>20.0</ele><time>2026-03-31T12:44:41.777Z</time></trkpt><trkpt lat="44.1115" lon="9.802005"><ele>20.0</ele><time>2026-03-31T12:44:42.777Z</time></trkpt><trkpt lat="44.11143" lon="9.80199"><ele>20.0</ele><time>2026-03-31T12:44:43.778Z</time></trkpt><trkpt lat="44.1113617" lon="9.801985"><ele>20.0</ele><time>2026-03-31T12:44:44.778Z</time></trkpt><trkpt lat="44.1112933" lon="9.8019867"><ele>20.0</ele><time>2026-03-31T12:44:45.777Z</time></trkpt><trkpt lat="44.1112183" lon="9.801995"><ele>19.666666666666668</ele><time>2026-03-31T12:44:46.778Z</time></trkpt><trkpt lat="44.1111417" lon="9.8020117"><ele>19.333333333333336</ele><time>2026-03-31T12:44:47.777Z</time></trkpt><trkpt lat="44.1110617" lon="9.80204"><ele>19.0</ele><time>2026-03-31T12:44:48.777Z</time></trkpt><trkpt lat="44.1109917" lon="9.80208"><ele>18.666666666666668</ele><time>2026-03-31T12:44:49.777Z</time></trkpt><trkpt lat="44.110925" lon="9.8021367"><ele>18.333333333333332</ele><time>2026-03-31T12:44:50.778Z</time></trkpt><trkpt lat="44.1108633" lon="9.8022067"><ele>18.0</ele><time>2026-03-31T12:44:51.777Z</time></trkpt><trkpt lat="44.1108067" lon="9.8022783"><ele>18.0</ele><time>2026-03-31T12:44:52.777Z</time></trkpt><trkpt lat="44.1107533" lon="9.8023633"><ele>18.0</ele><time>2026-03-31T12:44:53.777Z</time></trkpt><trkpt lat="44.110705" lon="9.8024517"><ele>18.0</ele><time>2026-03-31T12:44:54.778Z</time></trkpt><trkpt lat="44.1106517" lon="9.8025467"><ele>18.0</ele><time>2026-03-31T12:44:55.778Z</time></trkpt><trkpt lat="44.1105983" lon="9.8026383"><ele>18.0</ele><time>2026-03-31T12:44:56.777Z</time></trkpt><trkpt lat="44.110545" lon="9.8027317"><ele>18.0</ele><time>2026-03-31T12:44:57.777Z</time></trkpt><trkpt lat="44.110495" lon="9.8028233"><ele>17.333333333333332</ele><time>2026-03-31T12:44:58.778Z</time></trkpt><trkpt lat="44.1104467" lon="9.8029117"><ele>16.666666666666668</ele><time>2026-03-31T12:44:59.778Z</time></trkpt><trkpt lat="44.1103983" lon="9.8029967"><ele>16.0</ele><time>2026-03-31T12:45:00.778Z</time></trkpt><trkpt lat="44.1103483" lon="9.803075"><ele>15.333333333333334</ele><time>2026-03-31T12:45:01.778Z</time></trkpt><trkpt lat="44.110305" lon="9.8031633"><ele>14.666666666666668</ele><time>2026-03-31T12:45:02.778Z</time></trkpt><trkpt lat="44.1102533" lon="9.8032517"><ele>14.0</ele><time>2026-03-31T12:45:03.778Z</time></trkpt><trkpt lat="44.1101983" lon="9.8033383"><ele>14.000000000000002</ele><time>2026-03-31T12:45:04.777Z</time></trkpt><trkpt lat="44.1101483" lon="9.8034267"><ele>14.0</ele><time>2026-03-31T12:45:05.778Z</time></trkpt><trkpt lat="44.1100983" lon="9.803515"><ele>14.0</ele><time>2026-03-31T12:45:06.778Z</time></trkpt><trkpt lat="44.1100517" lon="9.8036"><ele>14.0</ele><time>2026-03-31T12:45:07.778Z</time></trkpt><trkpt lat="44.1100033" lon="9.803685"><ele>14.000000000000002</ele><time>2026-03-31T12:45:08.778Z</time></trkpt><trkpt lat="44.10996" lon="9.803775"><ele>14.0</ele><time>2026-03-31T12:45:09.777Z</time></trkpt><trkpt lat="44.1099217" lon="9.8038633"><ele>14.2</ele><time>2026-03-31T12:45:10.778Z</time></trkpt><trkpt lat="44.10988" lon="9.803945"><ele>14.399999999999999</ele><time>2026-03-31T12:45:11.778Z</time></trkpt><trkpt lat="44.1098383" lon="9.804025"><ele>14.6</ele><time>2026-03-31T12:45:12.778Z</time></trkpt><trkpt lat="44.1097917" lon="9.8040983"><ele>14.8</ele><time>2026-03-31T12:45:13.778Z</time></trkpt><trkpt lat="44.1097083" lon="9.804215"><ele>15.0</ele><time>2026-03-31T12:45:15.778Z</time></trkpt><trkpt lat="44.10963" lon="9.8043383"><ele>15.0</ele><time>2026-03-31T12:45:17.777Z</time></trkpt><trkpt lat="44.1095883" lon="9.804405"><ele>15.0</ele><time>2026-03-31T12:45:18.778Z</time></trkpt><trkpt lat="44.1095433" lon="9.8044683"><ele>15.0</ele><time>2026-03-31T12:45:19.778Z</time></trkpt><trkpt lat="44.1094517" lon="9.8045767"><ele>15.0</ele><time>2026-03-31T12:45:21.777Z</time></trkpt><trkpt lat="44.1093617" lon="9.8046683"><ele>15.0</ele><time>2026-03-31T12:45:23.777Z</time></trkpt><trkpt lat="44.1092833" lon="9.8047717"><ele>15.0</ele><time>2026-03-31T12:45:25.778Z</time></trkpt><trkpt lat="44.109215" lon="9.8048883"><ele>15.0</ele><time>2026-03-31T12:45:27.777Z</time></trkpt><trkpt lat="44.1091533" lon="9.8050033"><ele>15.0</ele><time>2026-03-31T12:45:29.777Z</time></trkpt><trkpt lat="44.1090917" lon="9.8051183"><ele>15.0</ele><time>2026-03-31T12:45:31.777Z</time></trkpt><trkpt lat="44.1090333" lon="9.8052283"><ele>15.0</ele><time>2026-03-31T12:45:33.778Z</time></trkpt><trkpt lat="44.10897" lon="9.8053333"><ele>15.166666666666666</ele><time>2026-03-31T12:45:35.778Z</time></trkpt><trkpt lat="44.1089017" lon="9.8054167"><ele>15.333333333333332</ele><time>2026-03-31T12:45:37.778Z</time></trkpt><trkpt lat="44.10882" lon="9.80543"><ele>15.5</ele><time>2026-03-31T12:45:39.777Z</time></trkpt><trkpt lat="44.108745" lon="9.8054183"><ele>15.666666666666666</ele><time>2026-03-31T12:45:41.777Z</time></trkpt><trkpt lat="44.10868" lon="9.8053867"><ele>15.833333333333332</ele><time>2026-03-31T12:45:43.778Z</time></trkpt><trkpt lat="44.1086033" lon="9.8053383"><ele>16.0</ele><time>2026-03-31T12:45:45.777Z</time></trkpt><trkpt lat="44.1085333" lon="9.80527"><ele>16.0</ele><time>2026-03-31T12:45:47.777Z</time></trkpt><trkpt lat="44.108465" lon="9.8051783"><ele>16.0</ele><time>2026-03-31T12:45:49.777Z</time></trkpt><trkpt lat="44.1083983" lon="9.805105"><ele>16.0</ele><time>2026-03-31T12:45:51.778Z</time></trkpt><trkpt lat="44.1083367" lon="9.8050317"><ele>16.0</ele><time>2026-03-31T12:45:53.777Z</time></trkpt><trkpt lat="44.1082617" lon="9.80495"><ele>16.0</ele><time>2026-03-31T12:45:55.778Z</time></trkpt><trkpt lat="44.108195" lon="9.804855"><ele>16.400000000000002</ele><time>2026-03-31T12:45:57.777Z</time></trkpt><trkpt lat="44.1081233" lon="9.8047767"><ele>16.8</ele><time>2026-03-31T12:45:59.778Z</time></trkpt><trkpt lat="44.1080517" lon="9.8046917"><ele>17.200000000000003</ele><time>2026-03-31T12:46:01.778Z</time></trkpt><trkpt lat="44.1079817" lon="9.8046033"><ele>17.6</ele><time>2026-03-31T12:46:03.778Z</time></trkpt><trkpt lat="44.1079133" lon="9.80452"><ele>18.0</ele><time>2026-03-31T12:46:05.778Z</time></trkpt><trkpt lat="44.1078433" lon="9.8044417"><ele>18.0</ele><time>2026-03-31T12:46:07.777Z</time></trkpt><trkpt lat="44.1077833" lon="9.80437"><ele>18.0</ele><time>2026-03-31T12:46:09.777Z</time></trkpt><trkpt lat="44.10771" lon="9.8043"><ele>18.0</ele><time>2026-03-31T12:46:11.778Z</time></trkpt><trkpt lat="44.1076533" lon="9.8042233"><ele>18.0</ele><time>2026-03-31T12:46:13.777Z</time></trkpt><trkpt lat="44.1075867" lon="9.804155"><ele>18.0</ele><time>2026-03-31T12:46:15.778Z</time></trkpt><trkpt lat="44.107505" lon="9.8040733"><ele>18.0</ele><time>2026-03-31T12:46:17.777Z</time></trkpt><trkpt lat="44.1074317" lon="9.8040117"><ele>18.4</ele><time>2026-03-31T12:46:19.778Z</time></trkpt><trkpt lat="44.1073583" lon="9.8039533"><ele>18.8</ele><time>2026-03-31T12:46:21.778Z</time></trkpt><trkpt lat="44.1072767" lon="9.803885"><ele>19.2</ele><time>2026-03-31T12:46:23.777Z</time></trkpt><trkpt lat="44.107185" lon="9.8038317"><ele>19.6</ele><time>2026-03-31T12:46:25.778Z</time></trkpt><trkpt lat="44.1070933" lon="9.8037833"><ele>20.0</ele><time>2026-03-31T12:46:27.778Z</time></trkpt><trkpt lat="44.1070017" lon="9.8037467"><ele>20.0</ele><time>2026-03-31T12:46:29.778Z</time></trkpt><trkpt lat="44.10691" lon="9.8037033"><ele>20.0</ele><time>2026-03-31T12:46:31.778Z</time></trkpt><trkpt lat="44.1068167" lon="9.80366"><ele>20.0</ele><time>2026-03-31T12:46:33.778Z</time></trkpt><trkpt lat="44.10674" lon="9.803625"><ele>20.0</ele><time>2026-03-31T12:46:35.777Z</time></trkpt><trkpt lat="44.1066517" lon="9.8035983"><ele>20.0</ele><time>2026-03-31T12:46:37.777Z</time></trkpt><trkpt lat="44.1065667" lon="9.803585"><ele>19.666666666666668</ele><time>2026-03-31T12:46:39.777Z</time></trkpt><trkpt lat="44.1064767" lon="9.8035683"><ele>19.333333333333336</ele><time>2026-03-31T12:46:41.777Z</time></trkpt><trkpt lat="44.1063817" lon="9.8035583"><ele>19.0</ele><time>2026-03-31T12:46:43.777Z</time></trkpt><trkpt lat="44.1062933" lon="9.80356"><ele>18.666666666666668</ele><time>2026-03-31T12:46:45.778Z</time></trkpt><trkpt lat="44.1062083" lon="9.80357"><ele>18.333333333333332</ele><time>2026-03-31T12:46:47.777Z</time></trkpt><trkpt lat="44.1061283" lon="9.8035883"><ele>18.0</ele><time>2026-03-31T12:46:49.777Z</time></trkpt><trkpt lat="44.1060533" lon="9.8036033"><ele>18.0</ele><time>2026-03-31T12:46:51.778Z</time></trkpt><trkpt lat="44.10597" lon="9.8036167"><ele>18.0</ele><time>2026-03-31T12:46:53.778Z</time></trkpt><trkpt lat="44.105885" lon="9.803655"><ele>18.0</ele><time>2026-03-31T12:46:56.776Z</time></trkpt><trkpt lat="44.1058167" lon="9.8036817"><ele>18.0</ele><time>2026-03-31T12:46:58.776Z</time></trkpt><trkpt lat="44.1057333" lon="9.8037083"><ele>18.0</ele><time>2026-03-31T12:47:01.777Z</time></trkpt><trkpt lat="44.1056583" lon="9.8037567"><ele>18.0</ele><time>2026-03-31T12:47:04.777Z</time></trkpt><trkpt lat="44.1055967" lon="9.803795"><ele>18.0</ele><time>2026-03-31T12:47:06.777Z</time></trkpt><trkpt lat="44.10553" lon="9.803825"><ele>18.0</ele><time>2026-03-31T12:47:08.777Z</time></trkpt><trkpt lat="44.1054567" lon="9.8038517"><ele>18.0</ele><time>2026-03-31T12:47:10.776Z</time></trkpt><trkpt lat="44.1053683" lon="9.8038817"><ele>18.0</ele><time>2026-03-31T12:47:12.777Z</time></trkpt><trkpt lat="44.1052867" lon="9.803925"><ele>18.0</ele><time>2026-03-31T12:47:14.776Z</time></trkpt><trkpt lat="44.1052017" lon="9.8039683"><ele>18.0</ele><time>2026-03-31T12:47:16.777Z</time></trkpt><trkpt lat="44.1051183" lon="9.8040283"><ele>18.0</ele><time>2026-03-31T12:47:18.776Z</time></trkpt><trkpt lat="44.1050383" lon="9.804085"><ele>18.0</ele><time>2026-03-31T12:47:20.776Z</time></trkpt><trkpt lat="44.1049517" lon="9.8041467"><ele>18.0</ele><time>2026-03-31T12:47:22.777Z</time></trkpt><trkpt lat="44.1048617" lon="9.80421"><ele>18.0</ele><time>2026-03-31T12:47:24.777Z</time></trkpt><trkpt lat="44.1047983" lon="9.80429"><ele>18.0</ele><time>2026-03-31T12:47:26.777Z</time></trkpt><trkpt lat="44.1047433" lon="9.80436"><ele>18.0</ele><time>2026-03-31T12:47:29.776Z</time></trkpt><trkpt lat="44.1047617" lon="9.8044583"><ele>18.333333333333332</ele><time>2026-03-31T12:47:32.777Z</time></trkpt><trkpt lat="44.1047933" lon="9.804555"><ele>18.666666666666668</ele><time>2026-03-31T12:47:34.777Z</time></trkpt><trkpt lat="44.1047933" lon="9.8046817"><ele>19.0</ele><time>2026-03-31T12:47:36.777Z</time></trkpt><trkpt lat="44.1047367" lon="9.8047983"><ele>19.333333333333336</ele><time>2026-03-31T12:47:38.777Z</time></trkpt><trkpt lat="44.104675" lon="9.8048967"><ele>19.666666666666668</ele><time>2026-03-31T12:47:40.777Z</time></trkpt><trkpt lat="44.1046267" lon="9.8049917"><ele>20.0</ele><time>2026-03-31T12:47:42.777Z</time></trkpt><trkpt lat="44.1045767" lon="9.8051067"><ele>18.8</ele><time>2026-03-31T12:47:44.777Z</time></trkpt><trkpt lat="44.10452" lon="9.8052283"><ele>17.6</ele><time>2026-03-31T12:47:46.777Z</time></trkpt><trkpt lat="44.1044517" lon="9.8053417"><ele>16.4</ele><time>2026-03-31T12:47:48.776Z</time></trkpt><trkpt lat="44.10438" lon="9.8054583"><ele>15.2</ele><time>2026-03-31T12:47:50.776Z</time></trkpt><trkpt lat="44.1043117" lon="9.80557"><ele>14.0</ele><time>2026-03-31T12:47:52.777Z</time></trkpt><trkpt lat="44.1042417" lon="9.8056633"><ele>14.0</ele><time>2026-03-31T12:47:54.776Z</time></trkpt><trkpt lat="44.1041567" lon="9.805735"><ele>13.999999999999998</ele><time>2026-03-31T12:47:56.777Z</time></trkpt><trkpt lat="44.1040767" lon="9.805825"><ele>13.999999999999998</ele><time>2026-03-31T12:47:58.777Z</time></trkpt><trkpt lat="44.1039883" lon="9.8059167"><ele>14.0</ele><time>2026-03-31T12:48:00.777Z</time></trkpt><trkpt lat="44.10389" lon="9.8060117"><ele>14.0</ele><time>2026-03-31T12:48:02.776Z</time></trkpt><trkpt lat="44.1038367" lon="9.8060633"><ele>13.714285714285714</ele><time>2026-03-31T12:48:03.776Z</time></trkpt><trkpt lat="44.1037833" lon="9.806115"><ele>13.428571428571429</ele><time>2026-03-31T12:48:04.776Z</time></trkpt><trkpt lat="44.1037333" lon="9.80617"><ele>13.142857142857142</ele><time>2026-03-31T12:48:05.777Z</time></trkpt><trkpt lat="44.1036417" lon="9.8062717"><ele>12.857142857142858</ele><time>2026-03-31T12:48:07.777Z</time></trkpt><trkpt lat="44.1035917" lon="9.8063267"><ele>12.571428571428571</ele><time>2026-03-31T12:48:08.776Z</time></trkpt><trkpt lat="44.1035367" lon="9.806385"><ele>12.285714285714285</ele><time>2026-03-31T12:48:09.776Z</time></trkpt><trkpt lat="44.1034883" lon="9.8064467"><ele>12.0</ele><time>2026-03-31T12:48:10.777Z</time></trkpt><trkpt lat="44.1034367" lon="9.806505"><ele>12.0</ele><time>2026-03-31T12:48:11.777Z</time></trkpt><trkpt lat="44.1033483" lon="9.8066083"><ele>12.0</ele><time>2026-03-31T12:48:13.776Z</time></trkpt><trkpt lat="44.1032717" lon="9.806715"><ele>12.0</ele><time>2026-03-31T12:48:15.777Z</time></trkpt><trkpt lat="44.10319" lon="9.8068317"><ele>12.0</ele><time>2026-03-31T12:48:17.776Z</time></trkpt><trkpt lat="44.103095" lon="9.8069467"><ele>11.285714285714285</ele><time>2026-03-31T12:48:19.777Z</time></trkpt><trkpt lat="44.1030433" lon="9.8070067"><ele>10.571428571428571</ele><time>2026-03-31T12:48:20.777Z</time></trkpt><trkpt lat="44.1029883" lon="9.8070667"><ele>9.857142857142858</ele><time>2026-03-31T12:48:21.777Z</time></trkpt><trkpt lat="44.1029333" lon="9.8071267"><ele>9.142857142857142</ele><time>2026-03-31T12:48:22.777Z</time></trkpt><trkpt lat="44.1028817" lon="9.8071817"><ele>8.428571428571429</ele><time>2026-03-31T12:48:23.776Z</time></trkpt><trkpt lat="44.10283" lon="9.807235"><ele>7.714285714285714</ele><time>2026-03-31T12:48:24.776Z</time></trkpt><trkpt lat="44.1027783" lon="9.8072867"><ele>7.0</ele><time>2026-03-31T12:48:25.776Z</time></trkpt><trkpt lat="44.1027217" lon="9.8073333"><ele>7.000000000000001</ele><time>2026-03-31T12:48:26.777Z</time></trkpt><trkpt lat="44.1026633" lon="9.8073783"><ele>7.0</ele><time>2026-03-31T12:48:27.776Z</time></trkpt><trkpt lat="44.1026017" lon="9.8074183"><ele>7.0</ele><time>2026-03-31T12:48:28.777Z</time></trkpt><trkpt lat="44.1025417" lon="9.807455"><ele>7.0</ele><time>2026-03-31T12:48:29.776Z</time></trkpt><trkpt lat="44.1024817" lon="9.807495"><ele>7.000000000000001</ele><time>2026-03-31T12:48:30.777Z</time></trkpt><trkpt lat="44.10242" lon="9.8075283"><ele>7.0</ele><time>2026-03-31T12:48:31.777Z</time></trkpt><trkpt lat="44.1023033" lon="9.8075717"><ele>7.000000000000001</ele><time>2026-03-31T12:48:33.777Z</time></trkpt><trkpt lat="44.1021767" lon="9.8075933"><ele>7.0</ele><time>2026-03-31T12:48:35.777Z</time></trkpt><trkpt lat="44.1021133" lon="9.8076033"><ele>7.0</ele><time>2026-03-31T12:48:36.777Z</time></trkpt><trkpt lat="44.10205" lon="9.8076067"><ele>7.0</ele><time>2026-03-31T12:48:37.776Z</time></trkpt><trkpt lat="44.1019867" lon="9.8076067"><ele>7.000000000000001</ele><time>2026-03-31T12:48:38.777Z</time></trkpt><trkpt lat="44.101875" lon="9.8076067"><ele>7.0</ele><time>2026-03-31T12:48:40.777Z</time></trkpt><trkpt lat="44.10178" lon="9.80761"><ele>7.0</ele><time>2026-03-31T12:48:42.776Z</time></trkpt><trkpt lat="44.1016617" lon="9.8076133"><ele>7.0</ele><time>2026-03-31T12:48:44.777Z</time></trkpt><trkpt lat="44.1015433" lon="9.8076167"><ele>7.0</ele><time>2026-03-31T12:48:46.776Z</time></trkpt><trkpt lat="44.10143" lon="9.8076217"><ele>7.0</ele><time>2026-03-31T12:48:48.776Z</time></trkpt><trkpt lat="44.10133" lon="9.8076433"><ele>6.0</ele><time>2026-03-31T12:48:50.776Z</time></trkpt><trkpt lat="44.1012267" lon="9.807695"><ele>4.999999999999999</ele><time>2026-03-31T12:48:52.777Z</time></trkpt><trkpt lat="44.1011317" lon="9.807775"><ele>4.0</ele><time>2026-03-31T12:48:54.777Z</time></trkpt><trkpt lat="44.10105" lon="9.8078817"><ele>3.0</ele><time>2026-03-31T12:48:56.776Z</time></trkpt><trkpt lat="44.1009767" lon="9.80799"><ele>2.0</ele><time>2026-03-31T12:48:58.776Z</time></trkpt><trkpt lat="44.1008717" lon="9.8080383"><ele>2.0</ele><time>2026-03-31T12:49:00.776Z</time></trkpt><trkpt lat="44.1007717" lon="9.8079917"><ele>2.0</ele><time>2026-03-31T12:49:02.776Z</time></trkpt><trkpt lat="44.1006733" lon="9.8079517"><ele>2.0</ele><time>2026-03-31T12:49:04.776Z</time></trkpt><trkpt lat="44.1005833" lon="9.8079367"><ele>2.0</ele><time>2026-03-31T12:49:06.776Z</time></trkpt><trkpt lat="44.1004883" lon="9.8079433"><ele>2.0</ele><time>2026-03-31T12:49:08.776Z</time></trkpt><trkpt lat="44.100395" lon="9.8079617"><ele>3.8000000000000003</ele><time>2026-03-31T12:49:10.777Z</time></trkpt><trkpt lat="44.1003033" lon="9.8080117"><ele>5.6000000000000005</ele><time>2026-03-31T12:49:12.777Z</time></trkpt><trkpt lat="44.1002217" lon="9.8080817"><ele>7.4</ele><time>2026-03-31T12:49:14.776Z</time></trkpt><trkpt lat="44.1001517" lon="9.8081667"><ele>9.200000000000001</ele><time>2026-03-31T12:49:16.777Z</time></trkpt><trkpt lat="44.1000883" lon="9.8082617"><ele>11.0</ele><time>2026-03-31T12:49:18.776Z</time></trkpt><trkpt lat="44.1000217" lon="9.8083567"><ele>11.0</ele><time>2026-03-31T12:49:20.777Z</time></trkpt><trkpt lat="44.09996" lon="9.8084617"><ele>11.0</ele><time>2026-03-31T12:49:22.777Z</time></trkpt><trkpt lat="44.0998933" lon="9.8085717"><ele>11.0</ele><time>2026-03-31T12:49:24.777Z</time></trkpt><trkpt lat="44.0998217" lon="9.80869"><ele>11.0</ele><time>2026-03-31T12:49:26.776Z</time></trkpt><trkpt lat="44.0997567" lon="9.808805"><ele>11.0</ele><time>2026-03-31T12:49:28.776Z</time></trkpt><trkpt lat="44.0996933" lon="9.8089267"><ele>13.0</ele><time>2026-03-31T12:49:30.777Z</time></trkpt><trkpt lat="44.0996217" lon="9.8090483"><ele>15.0</ele><time>2026-03-31T12:49:32.776Z</time></trkpt><trkpt lat="44.0995483" lon="9.80917"><ele>17.0</ele><time>2026-03-31T12:49:34.777Z</time></trkpt><trkpt lat="44.0994767" lon="9.809295"><ele>19.0</ele><time>2026-03-31T12:49:36.777Z</time></trkpt><trkpt lat="44.0994067" lon="9.8094133"><ele>16.8</ele><time>2026-03-31T12:49:38.777Z</time></trkpt><trkpt lat="44.099335" lon="9.8095317"><ele>14.599999999999998</ele><time>2026-03-31T12:49:40.776Z</time></trkpt><trkpt lat="44.09927" lon="9.8096483"><ele>12.4</ele><time>2026-03-31T12:49:42.777Z</time></trkpt><trkpt lat="44.099205" lon="9.80976"><ele>10.2</ele><time>2026-03-31T12:49:44.776Z</time></trkpt><trkpt lat="44.09914" lon="9.8098683"><ele>8.0</ele><time>2026-03-31T12:49:46.776Z</time></trkpt><trkpt lat="44.0990733" lon="9.8099783"><ele>8.0</ele><time>2026-03-31T12:49:48.777Z</time></trkpt><trkpt lat="44.0990117" lon="9.8100917"><ele>8.0</ele><time>2026-03-31T12:49:50.777Z</time></trkpt><trkpt lat="44.098945" lon="9.8102067"><ele>8.0</ele><time>2026-03-31T12:49:52.776Z</time></trkpt><trkpt lat="44.09888" lon="9.810315"><ele>8.0</ele><time>2026-03-31T12:49:54.777Z</time></trkpt><trkpt lat="44.098815" lon="9.8104233"><ele>8.0</ele><time>2026-03-31T12:49:56.777Z</time></trkpt><trkpt lat="44.098745" lon="9.8105367"><ele>7.666666666666666</ele><time>2026-03-31T12:49:58.777Z</time></trkpt><trkpt lat="44.0986817" lon="9.8106383"><ele>7.333333333333333</ele><time>2026-03-31T12:50:00.777Z</time></trkpt><trkpt lat="44.0986233" lon="9.81073"><ele>7.0</ele><time>2026-03-31T12:50:02.777Z</time></trkpt><trkpt lat="44.0985633" lon="9.8108233"><ele>6.666666666666666</ele><time>2026-03-31T12:50:04.776Z</time></trkpt><trkpt lat="44.0985167" lon="9.8109117"><ele>6.333333333333333</ele><time>2026-03-31T12:50:06.777Z</time></trkpt><trkpt lat="44.09847" lon="9.8109983"><ele>6.0</ele><time>2026-03-31T12:50:08.777Z</time></trkpt><trkpt lat="44.0984217" lon="9.8110783"><ele>5.7142857142857135</ele><time>2026-03-31T12:50:10.776Z</time></trkpt><trkpt lat="44.0983767" lon="9.8111617"><ele>5.428571428571429</ele><time>2026-03-31T12:50:12.777Z</time></trkpt><trkpt lat="44.0983333" lon="9.8112467"><ele>5.142857142857142</ele><time>2026-03-31T12:50:14.777Z</time></trkpt><trkpt lat="44.0982867" lon="9.81133"><ele>4.857142857142857</ele><time>2026-03-31T12:50:16.777Z</time></trkpt><trkpt lat="44.0982333" lon="9.81141"><ele>4.571428571428571</ele><time>2026-03-31T12:50:18.777Z</time></trkpt><trkpt lat="44.0981883" lon="9.8114917"><ele>4.285714285714286</ele><time>2026-03-31T12:50:20.777Z</time></trkpt><trkpt lat="44.0981417" lon="9.8115667"><ele>4.0</ele><time>2026-03-31T12:50:22.776Z</time></trkpt><trkpt lat="44.098095" lon="9.811645"><ele>5.142857142857142</ele><time>2026-03-31T12:50:24.777Z</time></trkpt><trkpt lat="44.098045" lon="9.81172"><ele>6.285714285714285</ele><time>2026-03-31T12:50:26.777Z</time></trkpt><trkpt lat="44.0979967" lon="9.8117917"><ele>7.428571428571428</ele><time>2026-03-31T12:50:28.777Z</time></trkpt><trkpt lat="44.0979533" lon="9.811865"><ele>8.571428571428571</ele><time>2026-03-31T12:50:30.777Z</time></trkpt><trkpt lat="44.0979083" lon="9.8119467"><ele>9.714285714285714</ele><time>2026-03-31T12:50:32.777Z</time></trkpt><trkpt lat="44.0978667" lon="9.8120267"><ele>10.857142857142856</ele><time>2026-03-31T12:50:34.777Z</time></trkpt><trkpt lat="44.0978233" lon="9.8121017"><ele>12.0</ele><time>2026-03-31T12:50:36.777Z</time></trkpt><trkpt lat="44.0977783" lon="9.8121783"><ele>11.999999999999998</ele><time>2026-03-31T12:50:38.776Z</time></trkpt><trkpt lat="44.09773" lon="9.8122467"><ele>12.0</ele><time>2026-03-31T12:50:40.777Z</time></trkpt><trkpt lat="44.097675" lon="9.81231"><ele>12.0</ele><time>2026-03-31T12:50:42.777Z</time></trkpt><trkpt lat="44.0976183" lon="9.8123717"><ele>12.0</ele><time>2026-03-31T12:50:44.777Z</time></trkpt><trkpt lat="44.0975517" lon="9.812425"><ele>12.0</ele><time>2026-03-31T12:50:46.777Z</time></trkpt><trkpt lat="44.0974817" lon="9.81248"><ele>11.999999999999998</ele><time>2026-03-31T12:50:48.777Z</time></trkpt><trkpt lat="44.0974217" lon="9.8125317"><ele>12.0</ele><time>2026-03-31T12:50:50.776Z</time></trkpt><trkpt lat="44.0973617" lon="9.81259"><ele>13.166666666666666</ele><time>2026-03-31T12:50:52.776Z</time></trkpt><trkpt lat="44.0973017" lon="9.8126483"><ele>14.333333333333332</ele><time>2026-03-31T12:50:54.777Z</time></trkpt><trkpt lat="44.0972383" lon="9.8127083"><ele>15.5</ele><time>2026-03-31T12:50:56.776Z</time></trkpt><trkpt lat="44.0971767" lon="9.812775"><ele>16.666666666666664</ele><time>2026-03-31T12:50:58.777Z</time></trkpt><trkpt lat="44.0971183" lon="9.8128417"><ele>17.833333333333332</ele><time>2026-03-31T12:51:00.777Z</time></trkpt><trkpt lat="44.0970667" lon="9.8129183"><ele>19.0</ele><time>2026-03-31T12:51:02.776Z</time></trkpt><trkpt lat="44.0970133" lon="9.813"><ele>19.0</ele><time>2026-03-31T12:51:04.777Z</time></trkpt><trkpt lat="44.0969617" lon="9.8130783"><ele>19.0</ele><time>2026-03-31T12:51:06.777Z</time></trkpt><trkpt lat="44.096915" lon="9.8131583"><ele>19.0</ele><time>2026-03-31T12:51:08.776Z</time></trkpt><trkpt lat="44.0968683" lon="9.813235"><ele>19.0</ele><time>2026-03-31T12:51:10.777Z</time></trkpt><trkpt lat="44.09682" lon="9.813315"><ele>19.0</ele><time>2026-03-31T12:51:12.776Z</time></trkpt><trkpt lat="44.09677" lon="9.813395"><ele>19.0</ele><time>2026-03-31T12:51:14.777Z</time></trkpt><trkpt lat="44.0967233" lon="9.8134733"><ele>19.0</ele><time>2026-03-31T12:51:16.777Z</time></trkpt><trkpt lat="44.0966633" lon="9.813535"><ele>19.5</ele><time>2026-03-31T12:51:18.776Z</time></trkpt><trkpt lat="44.0965983" lon="9.81358"><ele>20.0</ele><time>2026-03-31T12:51:20.776Z</time></trkpt><trkpt lat="44.0965267" lon="9.8136317"><ele>20.5</ele><time>2026-03-31T12:51:22.777Z</time></trkpt><trkpt lat="44.0964667" lon="9.81368"><ele>21.0</ele><time>2026-03-31T12:51:24.777Z</time></trkpt><trkpt lat="44.0963967" lon="9.8137117"><ele>21.5</ele><time>2026-03-31T12:51:26.777Z</time></trkpt><trkpt lat="44.09633" lon="9.8137567"><ele>22.0</ele><time>2026-03-31T12:51:28.776Z</time></trkpt><trkpt lat="44.096245" lon="9.8138183"><ele>22.0</ele><time>2026-03-31T12:51:31.777Z</time></trkpt><trkpt lat="44.09618" lon="9.8138567"><ele>22.0</ele><time>2026-03-31T12:51:33.776Z</time></trkpt><trkpt lat="44.096105" lon="9.813885"><ele>22.0</ele><time>2026-03-31T12:51:35.776Z</time></trkpt><trkpt lat="44.0960367" lon="9.8139167"><ele>22.0</ele><time>2026-03-31T12:51:37.776Z</time></trkpt><trkpt lat="44.0959667" lon="9.8139517"><ele>22.0</ele><time>2026-03-31T12:51:39.776Z</time></trkpt><trkpt lat="44.0959017" lon="9.8139867"><ele>22.0</ele><time>2026-03-31T12:51:41.777Z</time></trkpt><trkpt lat="44.0958133" lon="9.8140283"><ele>23.285714285714285</ele><time>2026-03-31T12:51:44.776Z</time></trkpt><trkpt lat="44.09575" lon="9.8140533"><ele>24.57142857142857</ele><time>2026-03-31T12:51:46.776Z</time></trkpt><trkpt lat="44.0956817" lon="9.81406"><ele>25.857142857142858</ele><time>2026-03-31T12:51:48.777Z</time></trkpt><trkpt lat="44.095615" lon="9.814065"><ele>27.142857142857146</ele><time>2026-03-31T12:51:50.777Z</time></trkpt><trkpt lat="44.0955433" lon="9.8140667"><ele>28.42857142857143</ele><time>2026-03-31T12:51:52.777Z</time></trkpt><trkpt lat="44.0954783" lon="9.81405"><ele>29.714285714285715</ele><time>2026-03-31T12:51:54.777Z</time></trkpt><trkpt lat="44.09539" lon="9.81402"><ele>31.0</ele><time>2026-03-31T12:51:57.776Z</time></trkpt><trkpt lat="44.0953" lon="9.8140133"><ele>31.0</ele><time>2026-03-31T12:52:00.776Z</time></trkpt><trkpt lat="44.0952333" lon="9.8139967"><ele>31.000000000000004</ele><time>2026-03-31T12:52:02.777Z</time></trkpt><trkpt lat="44.0951383" lon="9.8140083"><ele>31.0</ele><time>2026-03-31T12:52:05.777Z</time></trkpt><trkpt lat="44.0950667" lon="9.8140417"><ele>31.0</ele><time>2026-03-31T12:52:07.777Z</time></trkpt><trkpt lat="44.095005" lon="9.81408"><ele>31.000000000000004</ele><time>2026-03-31T12:52:09.776Z</time></trkpt><trkpt lat="44.0949467" lon="9.81413"><ele>31.0</ele><time>2026-03-31T12:52:11.776Z</time></trkpt><trkpt lat="44.0948983" lon="9.8141967"><ele>31.0</ele><time>2026-03-31T12:52:13.777Z</time></trkpt><trkpt lat="44.0948467" lon="9.8143"><ele>33.142857142857146</ele><time>2026-03-31T12:52:16.776Z</time></trkpt><trkpt lat="44.0948117" lon="9.8143767"><ele>35.28571428571429</ele><time>2026-03-31T12:52:18.777Z</time></trkpt><trkpt lat="44.0947817" lon="9.814455"><ele>37.42857142857143</ele><time>2026-03-31T12:52:20.776Z</time></trkpt><trkpt lat="44.0947383" lon="9.8145683"><ele>39.57142857142857</ele><time>2026-03-31T12:52:23.777Z</time></trkpt><trkpt lat="44.0947117" lon="9.8146533"><ele>41.71428571428571</ele><time>2026-03-31T12:52:25.777Z</time></trkpt><trkpt lat="44.0946667" lon="9.8147667"><ele>43.85714285714286</ele><time>2026-03-31T12:52:28.776Z</time></trkpt><trkpt lat="44.0946317" lon="9.8148483"><ele>46.0</ele><time>2026-03-31T12:52:30.776Z</time></trkpt><trkpt lat="44.0945883" lon="9.8149633"><ele>46.0</ele><time>2026-03-31T12:52:33.777Z</time></trkpt><trkpt lat="44.09454" lon="9.8150683"><ele>46.0</ele><time>2026-03-31T12:52:36.776Z</time></trkpt><trkpt lat="44.094485" lon="9.8151667"><ele>46.0</ele><time>2026-03-31T12:52:39.777Z</time></trkpt><trkpt lat="44.0944417" lon="9.8152317"><ele>46.0</ele><time>2026-03-31T12:52:41.777Z</time></trkpt><trkpt lat="44.094395" lon="9.8152933"><ele>46.0</ele><time>2026-03-31T12:52:43.777Z</time></trkpt><trkpt lat="44.0943317" lon="9.8153917"><ele>46.0</ele><time>2026-03-31T12:52:46.777Z</time></trkpt><trkpt lat="44.094265" lon="9.815475"><ele>44.16666666666667</ele><time>2026-03-31T12:52:49.777Z</time></trkpt><trkpt lat="44.0942017" lon="9.8155667"><ele>42.333333333333336</ele><time>2026-03-31T12:52:52.777Z</time></trkpt><trkpt lat="44.0941433" lon="9.8156567"><ele>40.5</ele><time>2026-03-31T12:52:55.776Z</time></trkpt><trkpt lat="44.094095" lon="9.8157383"><ele>38.666666666666664</ele><time>2026-03-31T12:52:58.776Z</time></trkpt><trkpt lat="44.094035" lon="9.81581"><ele>36.83333333333333</ele><time>2026-03-31T12:53:01.777Z</time></trkpt><trkpt lat="44.0939767" lon="9.8158983"><ele>35.0</ele><time>2026-03-31T12:53:04.777Z</time></trkpt><trkpt lat="44.0939167" lon="9.8159867"><ele>34.5</ele><time>2026-03-31T12:53:07.777Z</time></trkpt><trkpt lat="44.0938567" lon="9.816075"><ele>34.0</ele><time>2026-03-31T12:53:10.776Z</time></trkpt><trkpt lat="44.0938" lon="9.8161583"><ele>33.5</ele><time>2026-03-31T12:53:13.777Z</time></trkpt><trkpt lat="44.093745" lon="9.8162483"><ele>33.0</ele><time>2026-03-31T12:53:16.777Z</time></trkpt><trkpt lat="44.0936883" lon="9.8163333"><ele>32.5</ele><time>2026-03-31T12:53:19.777Z</time></trkpt><trkpt lat="44.093635" lon="9.8164067"><ele>32.0</ele><time>2026-03-31T12:53:22.777Z</time></trkpt><trkpt lat="44.0935767" lon="9.8164733"><ele>31.999999999999996</ele><time>2026-03-31T12:53:25.776Z</time></trkpt><trkpt lat="44.0935" lon="9.8165167"><ele>32.0</ele><time>2026-03-31T12:53:28.777Z</time></trkpt><trkpt lat="44.0934083" lon="9.816545"><ele>32.0</ele><time>2026-03-31T12:53:31.776Z</time></trkpt><trkpt lat="44.093345" lon="9.8165617"><ele>32.0</ele><time>2026-03-31T12:53:33.776Z</time></trkpt><trkpt lat="44.0932583" lon="9.8165867"><ele>31.999999999999996</ele><time>2026-03-31T12:53:36.776Z</time></trkpt><trkpt lat="44.0931783" lon="9.81658"><ele>32.0</ele><time>2026-03-31T12:53:39.776Z</time></trkpt><trkpt lat="44.0931117" lon="9.8165333"><ele>28.499999999999996</ele><time>2026-03-31T12:53:41.776Z</time></trkpt><trkpt lat="44.0930483" lon="9.81649"><ele>25.0</ele><time>2026-03-31T12:53:43.777Z</time></trkpt><trkpt lat="44.0929667" lon="9.81644"><ele>21.5</ele><time>2026-03-31T12:53:46.777Z</time></trkpt><trkpt lat="44.0929" lon="9.8163833"><ele>18.0</ele><time>2026-03-31T12:53:49.776Z</time></trkpt><trkpt lat="44.0928517" lon="9.81631"><ele>14.5</ele><time>2026-03-31T12:53:52.777Z</time></trkpt><trkpt lat="44.0927983" lon="9.8162317"><ele>11.0</ele><time>2026-03-31T12:53:55.776Z</time></trkpt><trkpt lat="44.0927583" lon="9.81615"><ele>11.0</ele><time>2026-03-31T12:53:58.776Z</time></trkpt><trkpt lat="44.0927167" lon="9.81607"><ele>11.0</ele><time>2026-03-31T12:54:01.777Z</time></trkpt><trkpt lat="44.0926683" lon="9.8160083"><ele>11.0</ele><time>2026-03-31T12:54:04.776Z</time></trkpt><trkpt lat="44.09262" lon="9.81592"><ele>11.0</ele><time>2026-03-31T12:54:07.777Z</time></trkpt><trkpt lat="44.0925717" lon="9.8158333"><ele>11.0</ele><time>2026-03-31T12:54:10.776Z</time></trkpt><trkpt lat="44.0925183" lon="9.8157433"><ele>11.0</ele><time>2026-03-31T12:54:13.776Z</time></trkpt><trkpt lat="44.0924733" lon="9.815675"><ele>11.0</ele><time>2026-03-31T12:54:15.777Z</time></trkpt><trkpt lat="44.092415" lon="9.81558"><ele>12.166666666666666</ele><time>2026-03-31T12:54:18.777Z</time></trkpt><trkpt lat="44.0923683" lon="9.8154867"><ele>13.333333333333332</ele><time>2026-03-31T12:54:21.777Z</time></trkpt><trkpt lat="44.0923317" lon="9.8154133"><ele>14.5</ele><time>2026-03-31T12:54:24.776Z</time></trkpt><trkpt lat="44.09228" lon="9.8153383"><ele>15.666666666666666</ele><time>2026-03-31T12:54:27.777Z</time></trkpt><trkpt lat="44.09223" lon="9.8152533"><ele>16.833333333333332</ele><time>2026-03-31T12:54:30.776Z</time></trkpt><trkpt lat="44.0921733" lon="9.8151967"><ele>18.0</ele><time>2026-03-31T12:54:33.776Z</time></trkpt><trkpt lat="44.0920983" lon="9.81515"><ele>22.166666666666668</ele><time>2026-03-31T12:54:37.777Z</time></trkpt><trkpt lat="44.0920317" lon="9.8150633"><ele>26.333333333333336</ele><time>2026-03-31T12:54:40.777Z</time></trkpt><trkpt lat="44.0919817" lon="9.815005"><ele>30.5</ele><time>2026-03-31T12:54:42.777Z</time></trkpt><trkpt lat="44.0919333" lon="9.8149467"><ele>34.66666666666667</ele><time>2026-03-31T12:54:44.776Z</time></trkpt><trkpt lat="44.09186" lon="9.81488"><ele>38.833333333333336</ele><time>2026-03-31T12:54:47.777Z</time></trkpt><trkpt lat="44.0918117" lon="9.8147783"><ele>43.0</ele><time>2026-03-31T12:54:50.776Z</time></trkpt><trkpt lat="44.091775" lon="9.8146833"><ele>43.00000000000001</ele><time>2026-03-31T12:54:52.777Z</time></trkpt><trkpt lat="44.091735" lon="9.8145767"><ele>43.0</ele><time>2026-03-31T12:54:54.777Z</time></trkpt><trkpt lat="44.0916983" lon="9.8145017"><ele>43.0</ele><time>2026-03-31T12:54:56.777Z</time></trkpt><trkpt lat="44.0916583" lon="9.8144267"><ele>43.0</ele><time>2026-03-31T12:54:58.777Z</time></trkpt><trkpt lat="44.0916167" lon="9.8143583"><ele>43.0</ele><time>2026-03-31T12:55:00.777Z</time></trkpt><trkpt lat="44.0915767" lon="9.8142883"><ele>43.00000000000001</ele><time>2026-03-31T12:55:02.776Z</time></trkpt><trkpt lat="44.0915217" lon="9.8141867"><ele>43.0</ele><time>2026-03-31T12:55:05.776Z</time></trkpt><trkpt lat="44.0914667" lon="9.814085"><ele>42.333333333333336</ele><time>2026-03-31T12:55:08.776Z</time></trkpt><trkpt lat="44.091405" lon="9.813985"><ele>41.66666666666667</ele><time>2026-03-31T12:55:11.777Z</time></trkpt><trkpt lat="44.0913633" lon="9.813915"><ele>41.0</ele><time>2026-03-31T12:55:13.777Z</time></trkpt><trkpt lat="44.0913017" lon="9.8138217"><ele>40.333333333333336</ele><time>2026-03-31T12:55:16.777Z</time></trkpt><trkpt lat="44.0912517" lon="9.813725"><ele>39.666666666666664</ele><time>2026-03-31T12:55:19.777Z</time></trkpt><trkpt lat="44.0912033" lon="9.8136283"><ele>39.0</ele><time>2026-03-31T12:55:22.777Z</time></trkpt><trkpt lat="44.0911567" lon="9.813525"><ele>42.333333333333336</ele><time>2026-03-31T12:55:25.776Z</time></trkpt><trkpt lat="44.0911067" lon="9.8134217"><ele>45.66666666666667</ele><time>2026-03-31T12:55:28.777Z</time></trkpt><trkpt lat="44.09107" lon="9.813345"><ele>49.0</ele><time>2026-03-31T12:55:30.777Z</time></trkpt><trkpt lat="44.0910167" lon="9.813255"><ele>52.333333333333336</ele><time>2026-03-31T12:55:33.777Z</time></trkpt><trkpt lat="44.0909717" lon="9.8131567"><ele>55.66666666666667</ele><time>2026-03-31T12:55:36.776Z</time></trkpt><trkpt lat="44.0909233" lon="9.8130517"><ele>59.0</ele><time>2026-03-31T12:55:39.776Z</time></trkpt><trkpt lat="44.090875" lon="9.81295"><ele>59.00000000000001</ele><time>2026-03-31T12:55:42.776Z</time></trkpt><trkpt lat="44.090825" lon="9.8128517"><ele>59.0</ele><time>2026-03-31T12:55:45.776Z</time></trkpt><trkpt lat="44.0907733" lon="9.812755"><ele>59.0</ele><time>2026-03-31T12:55:48.776Z</time></trkpt><trkpt lat="44.0907117" lon="9.812685"><ele>59.0</ele><time>2026-03-31T12:55:51.775Z</time></trkpt><trkpt lat="44.09064" lon="9.8126217"><ele>59.00000000000001</ele><time>2026-03-31T12:55:54.776Z</time></trkpt><trkpt lat="44.0905667" lon="9.8125617"><ele>59.0</ele><time>2026-03-31T12:55:57.775Z</time></trkpt><trkpt lat="44.09049" lon="9.8125067"><ele>63.50000000000001</ele><time>2026-03-31T12:56:00.775Z</time></trkpt><trkpt lat="44.0904267" lon="9.8125017"><ele>68.0</ele><time>2026-03-31T12:56:02.776Z</time></trkpt><trkpt lat="44.0903367" lon="9.8125167"><ele>72.5</ele><time>2026-03-31T12:56:05.775Z</time></trkpt><trkpt lat="44.0902683" lon="9.8125533"><ele>77.0</ele><time>2026-03-31T12:56:08.775Z</time></trkpt><trkpt lat="44.0902067" lon="9.812575"><ele>81.5</ele><time>2026-03-31T12:56:10.776Z</time></trkpt><trkpt lat="44.0901217" lon="9.8125983"><ele>86.0</ele><time>2026-03-31T12:56:13.775Z</time></trkpt><trkpt lat="44.0900433" lon="9.812635"><ele>81.83333333333334</ele><time>2026-03-31T12:56:16.775Z</time></trkpt><trkpt lat="44.08996" lon="9.8126817"><ele>77.66666666666667</ele><time>2026-03-31T12:56:19.775Z</time></trkpt><trkpt lat="44.0898917" lon="9.8127217"><ele>73.5</ele><time>2026-03-31T12:56:22.775Z</time></trkpt><trkpt lat="44.0898217" lon="9.81278"><ele>69.33333333333333</ele><time>2026-03-31T12:56:25.775Z</time></trkpt><trkpt lat="44.0897383" lon="9.8128317"><ele>65.16666666666666</ele><time>2026-03-31T12:56:28.775Z</time></trkpt><trkpt lat="44.089655" lon="9.8128783"><ele>61.0</ele><time>2026-03-31T12:56:31.776Z</time></trkpt><trkpt lat="44.0895833" lon="9.812925"><ele>60.99999999999999</ele><time>2026-03-31T12:56:34.775Z</time></trkpt><trkpt lat="44.089505" lon="9.8129533"><ele>61.0</ele><time>2026-03-31T12:56:37.775Z</time></trkpt><trkpt lat="44.0894217" lon="9.81298"><ele>61.0</ele><time>2026-03-31T12:56:40.776Z</time></trkpt><trkpt lat="44.0893567" lon="9.8129833"><ele>61.0</ele><time>2026-03-31T12:56:42.775Z</time></trkpt><trkpt lat="44.0892733" lon="9.8129917"><ele>60.99999999999999</ele><time>2026-03-31T12:56:45.776Z</time></trkpt><trkpt lat="44.0891767" lon="9.8129883"><ele>61.0</ele><time>2026-03-31T12:56:48.776Z</time></trkpt><trkpt lat="44.0891133" lon="9.81297"><ele>59.33333333333333</ele><time>2026-03-31T12:56:50.775Z</time></trkpt><trkpt lat="44.0890283" lon="9.8129333"><ele>57.666666666666664</ele><time>2026-03-31T12:56:53.775Z</time></trkpt><trkpt lat="44.08895" lon="9.81294"><ele>56.0</ele><time>2026-03-31T12:56:56.775Z</time></trkpt><trkpt lat="44.0888717" lon="9.8129367"><ele>54.33333333333333</ele><time>2026-03-31T12:56:59.776Z</time></trkpt><trkpt lat="44.0888117" lon="9.8128967"><ele>52.666666666666664</ele><time>2026-03-31T12:57:01.776Z</time></trkpt><trkpt lat="44.0887283" lon="9.8128383"><ele>51.0</ele><time>2026-03-31T12:57:04.776Z</time></trkpt><trkpt lat="44.0886433" lon="9.8127933"><ele>51.0</ele><time>2026-03-31T12:57:07.776Z</time></trkpt><trkpt lat="44.088555" lon="9.81276"><ele>51.0</ele><time>2026-03-31T12:57:10.775Z</time></trkpt><trkpt lat="44.0884917" lon="9.8127383"><ele>51.0</ele><time>2026-03-31T12:57:12.776Z</time></trkpt><trkpt lat="44.088405" lon="9.81271"><ele>51.0</ele><time>2026-03-31T12:57:15.776Z</time></trkpt><trkpt lat="44.08831" lon="9.8126833"><ele>51.0</ele><time>2026-03-31T12:57:18.775Z</time></trkpt><trkpt lat="44.0882433" lon="9.8126817"><ele>51.0</ele><time>2026-03-31T12:57:20.775Z</time></trkpt><trkpt lat="44.0881783" lon="9.8126767"><ele>54.0</ele><time>2026-03-31T12:57:22.776Z</time></trkpt><trkpt lat="44.0880883" lon="9.8126717"><ele>57.0</ele><time>2026-03-31T12:57:25.776Z</time></trkpt><trkpt lat="44.088015" lon="9.8126717"><ele>60.0</ele><time>2026-03-31T12:57:27.776Z</time></trkpt><trkpt lat="44.08795" lon="9.8126783"><ele>63.0</ele><time>2026-03-31T12:57:29.776Z</time></trkpt><trkpt lat="44.08786" lon="9.8126783"><ele>66.0</ele><time>2026-03-31T12:57:32.776Z</time></trkpt><trkpt lat="44.0877933" lon="9.81268"><ele>69.0</ele><time>2026-03-31T12:57:34.776Z</time></trkpt><trkpt lat="44.0877283" lon="9.8126833"><ele>69.0</ele><time>2026-03-31T12:57:36.776Z</time></trkpt><trkpt lat="44.0876583" lon="9.8126783"><ele>69.0</ele><time>2026-03-31T12:57:38.776Z</time></trkpt><trkpt lat="44.0875933" lon="9.8126983"><ele>69.0</ele><time>2026-03-31T12:57:40.776Z</time></trkpt><trkpt lat="44.0875117" lon="9.81271"><ele>69.0</ele><time>2026-03-31T12:57:43.776Z</time></trkpt><trkpt lat="44.087435" lon="9.8127467"><ele>69.0</ele><time>2026-03-31T12:57:46.775Z</time></trkpt><trkpt lat="44.0873567" lon="9.8127717"><ele>69.0</ele><time>2026-03-31T12:57:49.776Z</time></trkpt><trkpt lat="44.08728" lon="9.8127817"><ele>67.5</ele><time>2026-03-31T12:57:52.776Z</time></trkpt><trkpt lat="44.0872083" lon="9.812775"><ele>66.0</ele><time>2026-03-31T12:57:55.775Z</time></trkpt><trkpt lat="44.087135" lon="9.8127917"><ele>64.5</ele><time>2026-03-31T12:57:58.776Z</time></trkpt><trkpt lat="44.087055" lon="9.8127867"><ele>63.0</ele><time>2026-03-31T12:58:00.775Z</time></trkpt><trkpt lat="44.0869683" lon="9.8127683"><ele>61.5</ele><time>2026-03-31T12:58:02.775Z</time></trkpt><trkpt lat="44.086885" lon="9.8127367"><ele>60.0</ele><time>2026-03-31T12:58:04.776Z</time></trkpt><trkpt lat="44.0868117" lon="9.8127"><ele>60.0</ele><time>2026-03-31T12:58:06.776Z</time></trkpt><trkpt lat="44.0867467" lon="9.8126617"><ele>60.0</ele><time>2026-03-31T12:58:08.775Z</time></trkpt><trkpt lat="44.08668" lon="9.8125967"><ele>60.0</ele><time>2026-03-31T12:58:10.775Z</time></trkpt><trkpt lat="44.08662" lon="9.81253"><ele>60.0</ele><time>2026-03-31T12:58:12.776Z</time></trkpt><trkpt lat="44.0865517" lon="9.8124717"><ele>60.0</ele><time>2026-03-31T12:58:14.775Z</time></trkpt><trkpt lat="44.0864883" lon="9.8124233"><ele>60.0</ele><time>2026-03-31T12:58:16.775Z</time></trkpt><trkpt lat="44.0864283" lon="9.8123817"><ele>60.0</ele><time>2026-03-31T12:58:18.776Z</time></trkpt><trkpt lat="44.0863667" lon="9.8123383"><ele>62.0</ele><time>2026-03-31T12:58:20.776Z</time></trkpt><trkpt lat="44.0863067" lon="9.81231"><ele>64.0</ele><time>2026-03-31T12:58:22.775Z</time></trkpt><trkpt lat="44.0862433" lon="9.8122883"><ele>66.0</ele><time>2026-03-31T12:58:24.776Z</time></trkpt><trkpt lat="44.08618" lon="9.8122833"><ele>68.0</ele><time>2026-03-31T12:58:26.775Z</time></trkpt><trkpt lat="44.0861133" lon="9.8122717"><ele>70.0</ele><time>2026-03-31T12:58:28.776Z</time></trkpt><trkpt lat="44.0860383" lon="9.8122833"><ele>72.0</ele><time>2026-03-31T12:58:30.775Z</time></trkpt><trkpt lat="44.08597" lon="9.8122717"><ele>74.0</ele><time>2026-03-31T12:58:32.776Z</time></trkpt><trkpt lat="44.08591" lon="9.8122433"><ele>74.0</ele><time>2026-03-31T12:58:34.775Z</time></trkpt><trkpt lat="44.0858417" lon="9.812195"><ele>74.0</ele><time>2026-03-31T12:58:36.775Z</time></trkpt><trkpt lat="44.085775" lon="9.8121217"><ele>74.0</ele><time>2026-03-31T12:58:38.775Z</time></trkpt><trkpt lat="44.0857183" lon="9.812035"><ele>74.0</ele><time>2026-03-31T12:58:40.776Z</time></trkpt><trkpt lat="44.085685" lon="9.8119183"><ele>74.0</ele><time>2026-03-31T12:58:42.776Z</time></trkpt><trkpt lat="44.085675" lon="9.811805"><ele>74.0</ele><time>2026-03-31T12:58:44.776Z</time></trkpt><trkpt lat="44.0856667" lon="9.8116917"><ele>76.5</ele><time>2026-03-31T12:58:46.776Z</time></trkpt><trkpt lat="44.08568" lon="9.8115933"><ele>79.0</ele><time>2026-03-31T12:58:48.776Z</time></trkpt><trkpt lat="44.08572" lon="9.8114883"><ele>81.5</ele><time>2026-03-31T12:58:51.775Z</time></trkpt><trkpt lat="44.08578" lon="9.8113933"><ele>84.0</ele><time>2026-03-31T12:58:54.775Z</time></trkpt><trkpt lat="44.0858333" lon="9.8113417"><ele>86.5</ele><time>2026-03-31T12:58:56.776Z</time></trkpt><trkpt lat="44.0859017" lon="9.8113017"><ele>89.0</ele><time>2026-03-31T12:58:58.775Z</time></trkpt><trkpt lat="44.0859717" lon="9.811295"><ele>91.66666666666667</ele><time>2026-03-31T12:59:00.776Z</time></trkpt><trkpt lat="44.0860533" lon="9.81129"><ele>94.33333333333334</ele><time>2026-03-31T12:59:02.776Z</time></trkpt><trkpt lat="44.0861283" lon="9.8113283"><ele>97.0</ele><time>2026-03-31T12:59:04.776Z</time></trkpt><trkpt lat="44.0862" lon="9.81141"><ele>99.66666666666667</ele><time>2026-03-31T12:59:06.775Z</time></trkpt><trkpt lat="44.0862683" lon="9.81148"><ele>102.33333333333333</ele><time>2026-03-31T12:59:08.775Z</time></trkpt><trkpt lat="44.08634" lon="9.8115517"><ele>105.0</ele><time>2026-03-31T12:59:10.776Z</time></trkpt><trkpt lat="44.0864033" lon="9.8116233"><ele>105.0</ele><time>2026-03-31T12:59:12.775Z</time></trkpt><trkpt lat="44.0864667" lon="9.8117083"><ele>105.0</ele><time>2026-03-31T12:59:14.775Z</time></trkpt><trkpt lat="44.0865233" lon="9.8117817"><ele>105.0</ele><time>2026-03-31T12:59:16.776Z</time></trkpt><trkpt lat="44.08658" lon="9.8118567"><ele>105.0</ele><time>2026-03-31T12:59:18.776Z</time></trkpt><trkpt lat="44.086625" lon="9.81194"><ele>105.0</ele><time>2026-03-31T12:59:20.775Z</time></trkpt><trkpt lat="44.08666" lon="9.8120333"><ele>105.0</ele><time>2026-03-31T12:59:22.775Z</time></trkpt><trkpt lat="44.08672" lon="9.8121117"><ele>103.0</ele><time>2026-03-31T12:59:25.776Z</time></trkpt><trkpt lat="44.0867983" lon="9.8121567"><ele>101.0</ele><time>2026-03-31T12:59:28.775Z</time></trkpt><trkpt lat="44.0868783" lon="9.812185"><ele>99.0</ele><time>2026-03-31T12:59:31.776Z</time></trkpt><trkpt lat="44.0869433" lon="9.812225"><ele>97.0</ele><time>2026-03-31T12:59:33.776Z</time></trkpt><trkpt lat="44.0870267" lon="9.8122383"><ele>95.0</ele><time>2026-03-31T12:59:36.775Z</time></trkpt><trkpt lat="44.087115" lon="9.8122517"><ele>93.0</ele><time>2026-03-31T12:59:39.775Z</time></trkpt><trkpt lat="44.0871817" lon="9.8122517"><ele>93.0</ele><time>2026-03-31T12:59:41.775Z</time></trkpt><trkpt lat="44.0872767" lon="9.812245"><ele>93.0</ele><time>2026-03-31T12:59:44.776Z</time></trkpt><trkpt lat="44.0873417" lon="9.81224"><ele>93.0</ele><time>2026-03-31T12:59:46.776Z</time></trkpt><trkpt lat="44.087435" lon="9.8122317"><ele>93.0</ele><time>2026-03-31T12:59:49.776Z</time></trkpt><trkpt lat="44.0875033" lon="9.812235"><ele>93.0</ele><time>2026-03-31T12:59:51.775Z</time></trkpt><trkpt lat="44.087565" lon="9.812255"><ele>93.0</ele><time>2026-03-31T12:59:53.776Z</time></trkpt><trkpt lat="44.08763" lon="9.8122567"><ele>95.5</ele><time>2026-03-31T12:59:55.776Z</time></trkpt><trkpt lat="44.0877217" lon="9.8122683"><ele>98.0</ele><time>2026-03-31T12:59:58.776Z</time></trkpt><trkpt lat="44.0878117" lon="9.8122717"><ele>100.5</ele><time>2026-03-31T13:00:01.776Z</time></trkpt><trkpt lat="44.08788" lon="9.8122817"><ele>103.0</ele><time>2026-03-31T13:00:03.776Z</time></trkpt><trkpt lat="44.0879483" lon="9.8122767"><ele>105.5</ele><time>2026-03-31T13:00:05.776Z</time></trkpt><trkpt lat="44.0880133" lon="9.812275"><ele>108.0</ele><time>2026-03-31T13:00:07.775Z</time></trkpt><trkpt lat="44.0880917" lon="9.812285"><ele>108.0</ele><time>2026-03-31T13:00:09.776Z</time></trkpt><trkpt lat="44.088165" lon="9.8122833"><ele>108.0</ele><time>2026-03-31T13:00:11.775Z</time></trkpt><trkpt lat="44.0882367" lon="9.8122933"><ele>108.0</ele><time>2026-03-31T13:00:13.776Z</time></trkpt><trkpt lat="44.0883083" lon="9.812295"><ele>108.0</ele><time>2026-03-31T13:00:15.775Z</time></trkpt><trkpt lat="44.0883867" lon="9.812285"><ele>108.0</ele><time>2026-03-31T13:00:17.775Z</time></trkpt><trkpt lat="44.0884517" lon="9.812285"><ele>108.0</ele><time>2026-03-31T13:00:19.776Z</time></trkpt><trkpt lat="44.0885233" lon="9.8122817"><ele>108.0</ele><time>2026-03-31T13:00:21.776Z</time></trkpt><trkpt lat="44.088605" lon="9.8122683"><ele>106.5</ele><time>2026-03-31T13:00:24.776Z</time></trkpt><trkpt lat="44.0886933" lon="9.8122483"><ele>105.0</ele><time>2026-03-31T13:00:27.775Z</time></trkpt><trkpt lat="44.0887583" lon="9.81223"><ele>103.5</ele><time>2026-03-31T13:00:29.776Z</time></trkpt><trkpt lat="44.08882" lon="9.8122067"><ele>102.0</ele><time>2026-03-31T13:00:31.775Z</time></trkpt><trkpt lat="44.0888783" lon="9.812155"><ele>100.5</ele><time>2026-03-31T13:00:33.776Z</time></trkpt><trkpt lat="44.0889383" lon="9.812115"><ele>99.0</ele><time>2026-03-31T13:00:35.776Z</time></trkpt><trkpt lat="44.089025" lon="9.8120617"><ele>99.0</ele><time>2026-03-31T13:00:38.776Z</time></trkpt><trkpt lat="44.0890833" lon="9.812025"><ele>99.0</ele><time>2026-03-31T13:00:40.776Z</time></trkpt><trkpt lat="44.0891417" lon="9.8119717"><ele>99.0</ele><time>2026-03-31T13:00:42.776Z</time></trkpt><trkpt lat="44.089215" lon="9.8118917"><ele>99.0</ele><time>2026-03-31T13:00:45.776Z</time></trkpt><trkpt lat="44.0892667" lon="9.811835"><ele>99.0</ele><time>2026-03-31T13:00:47.776Z</time></trkpt><trkpt lat="44.0893283" lon="9.811775"><ele>99.0</ele><time>2026-03-31T13:00:49.775Z</time></trkpt><trkpt lat="44.089385" lon="9.8117167"><ele>99.0</ele><time>2026-03-31T13:00:51.775Z</time></trkpt><trkpt lat="44.0894467" lon="9.8116683"><ele>104.16666666666667</ele><time>2026-03-31T13:00:53.776Z</time></trkpt><trkpt lat="44.0895267" lon="9.8116033"><ele>109.33333333333334</ele><time>2026-03-31T13:00:56.775Z</time></trkpt><trkpt lat="44.089585" lon="9.81154"><ele>114.5</ele><time>2026-03-31T13:00:58.776Z</time></trkpt><trkpt lat="44.0896483" lon="9.8114833"><ele>119.66666666666667</ele><time>2026-03-31T13:01:00.776Z</time></trkpt><trkpt lat="44.0897017" lon="9.8114233"><ele>124.83333333333334</ele><time>2026-03-31T13:01:02.776Z</time></trkpt><trkpt lat="44.0897633" lon="9.811355"><ele>130.0</ele><time>2026-03-31T13:01:04.775Z</time></trkpt><trkpt lat="44.0898233" lon="9.811315"><ele>130.0</ele><time>2026-03-31T13:01:06.776Z</time></trkpt><trkpt lat="44.0898867" lon="9.811285"><ele>130.0</ele><time>2026-03-31T13:01:08.776Z</time></trkpt><trkpt lat="44.0899567" lon="9.8112517"><ele>130.0</ele><time>2026-03-31T13:01:10.776Z</time></trkpt><trkpt lat="44.0900283" lon="9.8112233"><ele>130.0</ele><time>2026-03-31T13:01:12.775Z</time></trkpt><trkpt lat="44.0901183" lon="9.81119"><ele>130.0</ele><time>2026-03-31T13:01:15.776Z</time></trkpt><trkpt lat="44.09019" lon="9.81117"><ele>130.0</ele><time>2026-03-31T13:01:17.775Z</time></trkpt><trkpt lat="44.09027" lon="9.811145"><ele>128.66666666666669</ele><time>2026-03-31T13:01:19.775Z</time></trkpt><trkpt lat="44.0903367" lon="9.811125"><ele>127.33333333333334</ele><time>2026-03-31T13:01:21.776Z</time></trkpt><trkpt lat="44.090415" lon="9.8111033"><ele>126.0</ele><time>2026-03-31T13:01:24.776Z</time></trkpt><trkpt lat="44.0904967" lon="9.81111"><ele>124.66666666666666</ele><time>2026-03-31T13:01:27.775Z</time></trkpt><trkpt lat="44.090585" lon="9.8111117"><ele>123.33333333333333</ele><time>2026-03-31T13:01:30.776Z</time></trkpt><trkpt lat="44.0906617" lon="9.811105"><ele>122.0</ele><time>2026-03-31T13:01:33.776Z</time></trkpt><trkpt lat="44.0907317" lon="9.81111"><ele>120.83333333333333</ele><time>2026-03-31T13:01:35.775Z</time></trkpt><trkpt lat="44.0908033" lon="9.8110967"><ele>119.66666666666666</ele><time>2026-03-31T13:01:37.775Z</time></trkpt><trkpt lat="44.0908867" lon="9.8110617"><ele>118.5</ele><time>2026-03-31T13:01:40.776Z</time></trkpt><trkpt lat="44.0909567" lon="9.811025"><ele>117.33333333333334</ele><time>2026-03-31T13:01:42.776Z</time></trkpt><trkpt lat="44.09102" lon="9.8109817"><ele>116.16666666666667</ele><time>2026-03-31T13:01:44.775Z</time></trkpt><trkpt lat="44.0910883" lon="9.8109183"><ele>115.0</ele><time>2026-03-31T13:01:47.776Z</time></trkpt><trkpt lat="44.0911483" lon="9.8108317"><ele>119.33333333333334</ele><time>2026-03-31T13:01:50.776Z</time></trkpt><trkpt lat="44.0912" lon="9.810725"><ele>123.66666666666667</ele><time>2026-03-31T13:01:53.775Z</time></trkpt><trkpt lat="44.0912517" lon="9.8106283"><ele>128.0</ele><time>2026-03-31T13:01:56.775Z</time></trkpt><trkpt lat="44.0912833" lon="9.81054"><ele>132.33333333333334</ele><time>2026-03-31T13:01:59.775Z</time></trkpt><trkpt lat="44.0913267" lon="9.8104317"><ele>136.66666666666666</ele><time>2026-03-31T13:02:02.775Z</time></trkpt><trkpt lat="44.0913617" lon="9.810315"><ele>141.0</ele><time>2026-03-31T13:02:05.776Z</time></trkpt><trkpt lat="44.0913883" lon="9.8102033"><ele>143.0</ele><time>2026-03-31T13:02:08.775Z</time></trkpt><trkpt lat="44.0914083" lon="9.8100817"><ele>145.0</ele><time>2026-03-31T13:02:11.776Z</time></trkpt><trkpt lat="44.0914167" lon="9.8099683"><ele>147.0</ele><time>2026-03-31T13:02:14.776Z</time></trkpt><trkpt lat="44.09142" lon="9.80987"><ele>149.0</ele><time>2026-03-31T13:02:17.775Z</time></trkpt><trkpt lat="44.0914267" lon="9.8097633"><ele>151.0</ele><time>2026-03-31T13:02:20.775Z</time></trkpt><trkpt lat="44.091385" lon="9.8096617"><ele>153.0</ele><time>2026-03-31T13:02:24.776Z</time></trkpt><trkpt lat="44.0913517" lon="9.8095483"><ele>153.0</ele><time>2026-03-31T13:02:27.776Z</time></trkpt><trkpt lat="44.0913167" lon="9.8094317"><ele>153.0</ele><time>2026-03-31T13:02:30.776Z</time></trkpt><trkpt lat="44.0912683" lon="9.8093167"><ele>153.0</ele><time>2026-03-31T13:02:33.776Z</time></trkpt><trkpt lat="44.0912317" lon="9.8092367"><ele>153.0</ele><time>2026-03-31T13:02:35.776Z</time></trkpt><trkpt lat="44.09119" lon="9.8091583"><ele>153.0</ele><time>2026-03-31T13:02:37.776Z</time></trkpt><trkpt lat="44.0911267" lon="9.8090783"><ele>153.0</ele><time>2026-03-31T13:02:40.776Z</time></trkpt><trkpt lat="44.0910733" lon="9.8089933"><ele>152.83333333333334</ele><time>2026-03-31T13:02:43.775Z</time></trkpt><trkpt lat="44.0910133" lon="9.8089167"><ele>152.66666666666666</ele><time>2026-03-31T13:02:46.775Z</time></trkpt><trkpt lat="44.0909567" lon="9.8088183"><ele>152.5</ele><time>2026-03-31T13:02:49.776Z</time></trkpt><trkpt lat="44.0909133" lon="9.80875"><ele>152.33333333333331</ele><time>2026-03-31T13:02:51.775Z</time></trkpt><trkpt lat="44.0908567" lon="9.8086683"><ele>152.16666666666666</ele><time>2026-03-31T13:02:54.776Z</time></trkpt><trkpt lat="44.0908167" lon="9.8085967"><ele>152.0</ele><time>2026-03-31T13:02:56.775Z</time></trkpt><trkpt lat="44.0907733" lon="9.8085267"><ele>155.5</ele><time>2026-03-31T13:02:58.776Z</time></trkpt><trkpt lat="44.09073" lon="9.808445"><ele>159.0</ele><time>2026-03-31T13:03:00.775Z</time></trkpt><trkpt lat="44.0906833" lon="9.8083817"><ele>162.5</ele><time>2026-03-31T13:03:02.776Z</time></trkpt><trkpt lat="44.090625" lon="9.8083083"><ele>166.0</ele><time>2026-03-31T13:03:05.776Z</time></trkpt><trkpt lat="44.0905617" lon="9.80825"><ele>169.5</ele><time>2026-03-31T13:03:08.776Z</time></trkpt><trkpt lat="44.0905033" lon="9.80816"><ele>173.0</ele><time>2026-03-31T13:03:11.776Z</time></trkpt><trkpt lat="44.090465" lon="9.808075"><ele>173.0</ele><time>2026-03-31T13:03:13.775Z</time></trkpt><trkpt lat="44.0904167" lon="9.8080017"><ele>173.0</ele><time>2026-03-31T13:03:15.776Z</time></trkpt><trkpt lat="44.0903783" lon="9.807915"><ele>173.0</ele><time>2026-03-31T13:03:17.775Z</time></trkpt><trkpt lat="44.0903333" lon="9.8078533"><ele>173.0</ele><time>2026-03-31T13:03:19.776Z</time></trkpt><trkpt lat="44.0902833" lon="9.80778"><ele>173.0</ele><time>2026-03-31T13:03:21.776Z</time></trkpt><trkpt lat="44.0902433" lon="9.8077083"><ele>173.0</ele><time>2026-03-31T13:03:23.776Z</time></trkpt><trkpt lat="44.0901867" lon="9.8076067"><ele>173.0</ele><time>2026-03-31T13:03:26.776Z</time></trkpt><trkpt lat="44.090145" lon="9.8075267"><ele>171.7142857142857</ele><time>2026-03-31T13:03:28.775Z</time></trkpt><trkpt lat="44.0901033" lon="9.8074467"><ele>170.42857142857144</ele><time>2026-03-31T13:03:30.776Z</time></trkpt><trkpt lat="44.0900683" lon="9.807365"><ele>169.14285714285714</ele><time>2026-03-31T13:03:32.775Z</time></trkpt><trkpt lat="44.0900433" lon="9.8072817"><ele>167.85714285714283</ele><time>2026-03-31T13:03:34.776Z</time></trkpt><trkpt lat="44.0900117" lon="9.8072033"><ele>166.57142857142856</ele><time>2026-03-31T13:03:36.776Z</time></trkpt><trkpt lat="44.08998" lon="9.8071183"><ele>165.28571428571428</ele><time>2026-03-31T13:03:38.776Z</time></trkpt><trkpt lat="44.08993" lon="9.8070117"><ele>164.0</ele><time>2026-03-31T13:03:40.776Z</time></trkpt><trkpt lat="44.0898967" lon="9.8069117"><ele>167.57142857142856</ele><time>2026-03-31T13:03:42.775Z</time></trkpt><trkpt lat="44.0898683" lon="9.80681"><ele>171.14285714285714</ele><time>2026-03-31T13:03:44.775Z</time></trkpt><trkpt lat="44.0898633" lon="9.8067133"><ele>174.71428571428572</ele><time>2026-03-31T13:03:46.774Z</time></trkpt><trkpt lat="44.0898467" lon="9.8066217"><ele>178.28571428571428</ele><time>2026-03-31T13:03:48.774Z</time></trkpt><trkpt lat="44.0898283" lon="9.806535"><ele>181.85714285714286</ele><time>2026-03-31T13:03:50.774Z</time></trkpt><trkpt lat="44.0898033" lon="9.8064517"><ele>185.42857142857142</ele><time>2026-03-31T13:03:52.774Z</time></trkpt><trkpt lat="44.0897917" lon="9.80635"><ele>189.0</ele><time>2026-03-31T13:03:54.774Z</time></trkpt><trkpt lat="44.089805" lon="9.8062433"><ele>189.0</ele><time>2026-03-31T13:03:56.775Z</time></trkpt><trkpt lat="44.08983" lon="9.8061367"><ele>189.0</ele><time>2026-03-31T13:03:58.775Z</time></trkpt><trkpt lat="44.0898383" lon="9.8060217"><ele>189.0</ele><time>2026-03-31T13:04:01.774Z</time></trkpt><trkpt lat="44.0898283" lon="9.805915"><ele>189.0</ele><time>2026-03-31T13:04:04.774Z</time></trkpt><trkpt lat="44.0898367" lon="9.8058183"><ele>189.0</ele><time>2026-03-31T13:04:06.774Z</time></trkpt><trkpt lat="44.0898533" lon="9.805725"><ele>189.0</ele><time>2026-03-31T13:04:08.775Z</time></trkpt><trkpt lat="44.0898617" lon="9.8055967"><ele>189.71428571428572</ele><time>2026-03-31T13:04:11.774Z</time></trkpt><trkpt lat="44.0898733" lon="9.8055"><ele>190.42857142857144</ele><time>2026-03-31T13:04:13.775Z</time></trkpt><trkpt lat="44.08988" lon="9.80541"><ele>191.14285714285714</ele><time>2026-03-31T13:04:15.775Z</time></trkpt><trkpt lat="44.0898683" lon="9.8053133"><ele>191.85714285714286</ele><time>2026-03-31T13:04:17.774Z</time></trkpt><trkpt lat="44.0898667" lon="9.805225"><ele>192.57142857142858</ele><time>2026-03-31T13:04:19.774Z</time></trkpt><trkpt lat="44.0898733" lon="9.8051017"><ele>193.28571428571428</ele><time>2026-03-31T13:04:22.775Z</time></trkpt><trkpt lat="44.0898883" lon="9.8049833"><ele>194.0</ele><time>2026-03-31T13:04:25.774Z</time></trkpt><trkpt lat="44.0898967" lon="9.8048933"><ele>194.33333333333334</ele><time>2026-03-31T13:04:27.775Z</time></trkpt><trkpt lat="44.0898967" lon="9.8047983"><ele>194.66666666666669</ele><time>2026-03-31T13:04:29.774Z</time></trkpt><trkpt lat="44.0899067" lon="9.8046717"><ele>195.0</ele><time>2026-03-31T13:04:32.774Z</time></trkpt><trkpt lat="44.0899033" lon="9.8045733"><ele>195.33333333333331</ele><time>2026-03-31T13:04:35.774Z</time></trkpt><trkpt lat="44.08989" lon="9.8044683"><ele>195.66666666666666</ele><time>2026-03-31T13:04:38.775Z</time></trkpt><trkpt lat="44.0898567" lon="9.8043817"><ele>196.0</ele><time>2026-03-31T13:04:41.774Z</time></trkpt><trkpt lat="44.089815" lon="9.80429"><ele>194.99999999999997</ele><time>2026-03-31T13:04:44.774Z</time></trkpt><trkpt lat="44.0897567" lon="9.80424"><ele>194.0</ele><time>2026-03-31T13:04:47.774Z</time></trkpt><trkpt lat="44.0897033" lon="9.8041833"><ele>193.0</ele><time>2026-03-31T13:04:50.775Z</time></trkpt><trkpt lat="44.0896417" lon="9.80411"><ele>192.0</ele><time>2026-03-31T13:04:53.775Z</time></trkpt><trkpt lat="44.089575" lon="9.8040283"><ele>191.0</ele><time>2026-03-31T13:04:56.775Z</time></trkpt><trkpt lat="44.0895133" lon="9.80394"><ele>190.0</ele><time>2026-03-31T13:04:59.774Z</time></trkpt><trkpt lat="44.089465" lon="9.8038833"><ele>190.0</ele><time>2026-03-31T13:05:01.774Z</time></trkpt><trkpt lat="44.0894217" lon="9.8038067"><ele>190.0</ele><time>2026-03-31T13:05:03.775Z</time></trkpt><trkpt lat="44.08937" lon="9.8037383"><ele>190.0</ele><time>2026-03-31T13:05:05.774Z</time></trkpt><trkpt lat="44.0893217" lon="9.8036733"><ele>190.0</ele><time>2026-03-31T13:05:07.775Z</time></trkpt><trkpt lat="44.08926" lon="9.8036017"><ele>190.0</ele><time>2026-03-31T13:05:10.774Z</time></trkpt><trkpt lat="44.0892167" lon="9.803485"><ele>190.0</ele><time>2026-03-31T13:05:13.775Z</time></trkpt><trkpt lat="44.0891783" lon="9.8033633"><ele>188.85714285714286</ele><time>2026-03-31T13:05:15.775Z</time></trkpt><trkpt lat="44.0891517" lon="9.8032567"><ele>187.71428571428572</ele><time>2026-03-31T13:05:17.774Z</time></trkpt><trkpt lat="44.08913" lon="9.8031567"><ele>186.57142857142856</ele><time>2026-03-31T13:05:19.775Z</time></trkpt><trkpt lat="44.0891183" lon="9.803065"><ele>185.42857142857144</ele><time>2026-03-31T13:05:21.774Z</time></trkpt><trkpt lat="44.0891" lon="9.8029767"><ele>184.28571428571428</ele><time>2026-03-31T13:05:23.775Z</time></trkpt><trkpt lat="44.0890867" lon="9.802885"><ele>183.14285714285714</ele><time>2026-03-31T13:05:25.775Z</time></trkpt><trkpt lat="44.0890933" lon="9.802785"><ele>182.0</ele><time>2026-03-31T13:05:27.774Z</time></trkpt><trkpt lat="44.0890933" lon="9.8026883"><ele>181.16666666666666</ele><time>2026-03-31T13:05:29.775Z</time></trkpt><trkpt lat="44.0891117" lon="9.8025667"><ele>180.33333333333331</ele><time>2026-03-31T13:05:32.775Z</time></trkpt><trkpt lat="44.08915" lon="9.802435"><ele>179.5</ele><time>2026-03-31T13:05:35.774Z</time></trkpt><trkpt lat="44.089195" lon="9.8023467"><ele>178.66666666666666</ele><time>2026-03-31T13:05:37.775Z</time></trkpt><trkpt lat="44.0892417" lon="9.8022667"><ele>177.83333333333334</ele><time>2026-03-31T13:05:39.775Z</time></trkpt><trkpt lat="44.089295" lon="9.8021933"><ele>177.0</ele><time>2026-03-31T13:05:41.774Z</time></trkpt><trkpt lat="44.08935" lon="9.802115"><ele>177.0</ele><time>2026-03-31T13:05:43.774Z</time></trkpt><trkpt lat="44.089395" lon="9.8020533"><ele>177.0</ele><time>2026-03-31T13:05:45.775Z</time></trkpt><trkpt lat="44.0894683" lon="9.8019917"><ele>177.0</ele><time>2026-03-31T13:05:48.774Z</time></trkpt><trkpt lat="44.08954" lon="9.80194"><ele>177.0</ele><time>2026-03-31T13:05:51.774Z</time></trkpt><trkpt lat="44.0896267" lon="9.8019067"><ele>177.0</ele><time>2026-03-31T13:05:54.775Z</time></trkpt><trkpt lat="44.0896933" lon="9.80189"><ele>177.0</ele><time>2026-03-31T13:05:56.774Z</time></trkpt><trkpt lat="44.08976" lon="9.801875"><ele>177.0</ele><time>2026-03-31T13:05:58.775Z</time></trkpt><trkpt lat="44.08984" lon="9.8018667"><ele>177.0</ele><time>2026-03-31T13:06:00.775Z</time></trkpt><trkpt lat="44.0899067" lon="9.801885"><ele>177.0</ele><time>2026-03-31T13:06:02.774Z</time></trkpt><trkpt lat="44.089975" lon="9.8019083"><ele>177.0</ele><time>2026-03-31T13:06:04.774Z</time></trkpt><trkpt lat="44.0900383" lon="9.8019383"><ele>177.0</ele><time>2026-03-31T13:06:06.774Z</time></trkpt><trkpt lat="44.0900983" lon="9.8019683"><ele>177.0</ele><time>2026-03-31T13:06:08.774Z</time></trkpt><trkpt lat="44.090155" lon="9.8020083"><ele>177.0</ele><time>2026-03-31T13:06:10.775Z</time></trkpt><trkpt lat="44.0902133" lon="9.8020583"><ele>176.16666666666666</ele><time>2026-03-31T13:06:12.775Z</time></trkpt><trkpt lat="44.0902733" lon="9.8021133"><ele>175.33333333333334</ele><time>2026-03-31T13:06:14.775Z</time></trkpt><trkpt lat="44.0903267" lon="9.8021733"><ele>174.5</ele><time>2026-03-31T13:06:16.774Z</time></trkpt><trkpt lat="44.0903883" lon="9.8022317"><ele>173.66666666666669</ele><time>2026-03-31T13:06:18.774Z</time></trkpt><trkpt lat="44.0904483" lon="9.8022733"><ele>172.83333333333334</ele><time>2026-03-31T13:06:20.775Z</time></trkpt><trkpt lat="44.0905233" lon="9.80235"><ele>172.0</ele><time>2026-03-31T13:06:23.774Z</time></trkpt><trkpt lat="44.0906017" lon="9.80242"><ele>172.0</ele><time>2026-03-31T13:06:26.774Z</time></trkpt><trkpt lat="44.0906617" lon="9.8024717"><ele>172.0</ele><time>2026-03-31T13:06:28.775Z</time></trkpt><trkpt lat="44.09071" lon="9.8025367"><ele>172.0</ele><time>2026-03-31T13:06:30.775Z</time></trkpt><trkpt lat="44.090765" lon="9.8026233"><ele>172.0</ele><time>2026-03-31T13:06:33.774Z</time></trkpt><trkpt lat="44.0908333" lon="9.8027117"><ele>172.0</ele><time>2026-03-31T13:06:36.775Z</time></trkpt><trkpt lat="44.0908783" lon="9.8027767"><ele>172.0</ele><time>2026-03-31T13:06:38.774Z</time></trkpt><trkpt lat="44.0909433" lon="9.80287"><ele>171.5</ele><time>2026-03-31T13:06:41.774Z</time></trkpt><trkpt lat="44.09101" lon="9.8029467"><ele>171.0</ele><time>2026-03-31T13:06:44.775Z</time></trkpt><trkpt lat="44.0910867" lon="9.8030017"><ele>170.5</ele><time>2026-03-31T13:06:47.774Z</time></trkpt><trkpt lat="44.091155" lon="9.8030883"><ele>170.0</ele><time>2026-03-31T13:06:50.775Z</time></trkpt><trkpt lat="44.091215" lon="9.8031683"><ele>169.5</ele><time>2026-03-31T13:06:53.774Z</time></trkpt><trkpt lat="44.0912883" lon="9.8032367"><ele>169.0</ele><time>2026-03-31T13:06:56.774Z</time></trkpt><trkpt lat="44.0913617" lon="9.8032883"><ele>169.0</ele><time>2026-03-31T13:06:59.775Z</time></trkpt><trkpt lat="44.0914417" lon="9.8033417"><ele>169.0</ele><time>2026-03-31T13:07:02.774Z</time></trkpt><trkpt lat="44.0915217" lon="9.8033883"><ele>169.0</ele><time>2026-03-31T13:07:05.775Z</time></trkpt><trkpt lat="44.0915817" lon="9.8034167"><ele>169.0</ele><time>2026-03-31T13:07:07.774Z</time></trkpt><trkpt lat="44.0916717" lon="9.803435"><ele>169.0</ele><time>2026-03-31T13:07:10.775Z</time></trkpt><trkpt lat="44.0917367" lon="9.8034433"><ele>169.0</ele><time>2026-03-31T13:07:13.775Z</time></trkpt><trkpt lat="44.0918167" lon="9.8034433"><ele>172.57142857142858</ele><time>2026-03-31T13:07:16.775Z</time></trkpt><trkpt lat="44.09188" lon="9.80344"><ele>176.14285714285714</ele><time>2026-03-31T13:07:18.774Z</time></trkpt><trkpt lat="44.091945" lon="9.8034317"><ele>179.71428571428572</ele><time>2026-03-31T13:07:20.775Z</time></trkpt><trkpt lat="44.0920283" lon="9.8034483"><ele>183.28571428571428</ele><time>2026-03-31T13:07:23.774Z</time></trkpt><trkpt lat="44.092115" lon="9.8034617"><ele>186.85714285714286</ele><time>2026-03-31T13:07:26.775Z</time></trkpt><trkpt lat="44.0921983" lon="9.8034767"><ele>190.42857142857142</ele><time>2026-03-31T13:07:29.775Z</time></trkpt><trkpt lat="44.0922633" lon="9.8034817"><ele>194.0</ele><time>2026-03-31T13:07:31.774Z</time></trkpt><trkpt lat="44.09233" lon="9.80349"><ele>194.00000000000003</ele><time>2026-03-31T13:07:33.774Z</time></trkpt><trkpt lat="44.092395" lon="9.803495"><ele>194.0</ele><time>2026-03-31T13:07:35.774Z</time></trkpt><trkpt lat="44.0924867" lon="9.8035083"><ele>194.0</ele><time>2026-03-31T13:07:38.775Z</time></trkpt><trkpt lat="44.0925533" lon="9.8035117"><ele>194.0</ele><time>2026-03-31T13:07:40.775Z</time></trkpt><trkpt lat="44.0926217" lon="9.80352"><ele>194.00000000000003</ele><time>2026-03-31T13:07:42.774Z</time></trkpt><trkpt lat="44.092715" lon="9.8035283"><ele>194.0</ele><time>2026-03-31T13:07:45.775Z</time></trkpt><trkpt lat="44.0928" lon="9.8035417"><ele>192.33333333333334</ele><time>2026-03-31T13:07:48.775Z</time></trkpt><trkpt lat="44.0928633" lon="9.8035517"><ele>190.66666666666669</ele><time>2026-03-31T13:07:50.774Z</time></trkpt><trkpt lat="44.09296" lon="9.80356"><ele>189.0</ele><time>2026-03-31T13:07:53.774Z</time></trkpt><trkpt lat="44.0930467" lon="9.8035717"><ele>187.33333333333334</ele><time>2026-03-31T13:07:56.774Z</time></trkpt><trkpt lat="44.09311" lon="9.803585"><ele>185.66666666666669</ele><time>2026-03-31T13:07:58.774Z</time></trkpt><trkpt lat="44.0931783" lon="9.8036033"><ele>184.0</ele><time>2026-03-31T13:08:00.774Z</time></trkpt><trkpt lat="44.093275" lon="9.8036067"><ele>184.0</ele><time>2026-03-31T13:08:03.775Z</time></trkpt><trkpt lat="44.0933417" lon="9.8036133"><ele>184.0</ele><time>2026-03-31T13:08:05.775Z</time></trkpt><trkpt lat="44.0934267" lon="9.8036167"><ele>184.0</ele><time>2026-03-31T13:08:08.775Z</time></trkpt><trkpt lat="44.0935017" lon="9.8036233"><ele>184.0</ele><time>2026-03-31T13:08:11.775Z</time></trkpt><trkpt lat="44.0935817" lon="9.8036217"><ele>184.0</ele><time>2026-03-31T13:08:14.775Z</time></trkpt><trkpt lat="44.093665" lon="9.8036283"><ele>184.0</ele><time>2026-03-31T13:08:17.775Z</time></trkpt><trkpt lat="44.0937467" lon="9.8036367"><ele>184.0</ele><time>2026-03-31T13:08:20.775Z</time></trkpt><trkpt lat="44.0938117" lon="9.8036467"><ele>184.0</ele><time>2026-03-31T13:08:22.775Z</time></trkpt><trkpt lat="44.0939017" lon="9.8036567"><ele>184.0</ele><time>2026-03-31T13:08:25.775Z</time></trkpt><trkpt lat="44.0939917" lon="9.8036567"><ele>184.0</ele><time>2026-03-31T13:08:28.774Z</time></trkpt><trkpt lat="44.094055" lon="9.803655"><ele>184.0</ele><time>2026-03-31T13:08:30.775Z</time></trkpt><trkpt lat="44.09413" lon="9.803655"><ele>184.0</ele><time>2026-03-31T13:08:32.775Z</time></trkpt><trkpt lat="44.0942083" lon="9.8036617"><ele>185.0</ele><time>2026-03-31T13:08:34.775Z</time></trkpt><trkpt lat="44.0942817" lon="9.8036667"><ele>186.0</ele><time>2026-03-31T13:08:36.775Z</time></trkpt><trkpt lat="44.094345" lon="9.803665"><ele>187.0</ele><time>2026-03-31T13:08:38.775Z</time></trkpt><trkpt lat="44.0944133" lon="9.80367"><ele>188.0</ele><time>2026-03-31T13:08:40.774Z</time></trkpt><trkpt lat="44.0944833" lon="9.8036883"><ele>189.0</ele><time>2026-03-31T13:08:42.774Z</time></trkpt><trkpt lat="44.0945567" lon="9.8037083"><ele>190.0</ele><time>2026-03-31T13:08:44.774Z</time></trkpt><trkpt lat="44.0946233" lon="9.803725"><ele>191.0</ele><time>2026-03-31T13:08:46.775Z</time></trkpt><trkpt lat="44.0946883" lon="9.803725"><ele>191.0</ele><time>2026-03-31T13:08:48.775Z</time></trkpt><trkpt lat="44.0947633" lon="9.8037167"><ele>191.0</ele><time>2026-03-31T13:08:50.775Z</time></trkpt><trkpt lat="44.0948367" lon="9.8037117"><ele>191.0</ele><time>2026-03-31T13:08:52.775Z</time></trkpt><trkpt lat="44.0949067" lon="9.8037033"><ele>191.0</ele><time>2026-03-31T13:08:54.775Z</time></trkpt><trkpt lat="44.0949817" lon="9.803695"><ele>191.0</ele><time>2026-03-31T13:08:56.774Z</time></trkpt><trkpt lat="44.0950567" lon="9.8036833"><ele>191.0</ele><time>2026-03-31T13:08:58.774Z</time></trkpt><trkpt lat="44.0951283" lon="9.80366"><ele>191.0</ele><time>2026-03-31T13:09:00.775Z</time></trkpt><trkpt lat="44.0952" lon="9.8036233"><ele>191.0</ele><time>2026-03-31T13:09:02.775Z</time></trkpt><trkpt lat="44.0952783" lon="9.8035967"><ele>191.0</ele><time>2026-03-31T13:09:04.775Z</time></trkpt><trkpt lat="44.0953483" lon="9.803555"><ele>191.0</ele><time>2026-03-31T13:09:06.775Z</time></trkpt><trkpt lat="44.0954133" lon="9.8035133"><ele>191.0</ele><time>2026-03-31T13:09:08.775Z</time></trkpt><trkpt lat="44.0954733" lon="9.803465"><ele>191.0</ele><time>2026-03-31T13:09:10.774Z</time></trkpt><trkpt lat="44.0955283" lon="9.8033967"><ele>191.0</ele><time>2026-03-31T13:09:12.775Z</time></trkpt><trkpt lat="44.0955983" lon="9.8033117"><ele>192.14285714285714</ele><time>2026-03-31T13:09:15.774Z</time></trkpt><trkpt lat="44.095645" lon="9.80323"><ele>193.28571428571428</ele><time>2026-03-31T13:09:17.775Z</time></trkpt><trkpt lat="44.0956883" lon="9.8031433"><ele>194.42857142857142</ele><time>2026-03-31T13:09:19.774Z</time></trkpt><trkpt lat="44.095735" lon="9.80306"><ele>195.57142857142856</ele><time>2026-03-31T13:09:21.774Z</time></trkpt><trkpt lat="44.0957733" lon="9.8029867"><ele>196.71428571428572</ele><time>2026-03-31T13:09:23.775Z</time></trkpt><trkpt lat="44.095805" lon="9.8029067"><ele>197.85714285714283</ele><time>2026-03-31T13:09:25.774Z</time></trkpt><trkpt lat="44.0958283" lon="9.8028067"><ele>199.0</ele><time>2026-03-31T13:09:27.774Z</time></trkpt><trkpt lat="44.095845" lon="9.8027033"><ele>201.49999999999997</ele><time>2026-03-31T13:09:29.774Z</time></trkpt><trkpt lat="44.0958683" lon="9.8025967"><ele>204.0</ele><time>2026-03-31T13:09:31.774Z</time></trkpt><trkpt lat="44.09589" lon="9.80248"><ele>206.5</ele><time>2026-03-31T13:09:33.774Z</time></trkpt><trkpt lat="44.0959083" lon="9.8023633"><ele>209.0</ele><time>2026-03-31T13:09:35.774Z</time></trkpt><trkpt lat="44.0959133" lon="9.8022567"><ele>211.49999999999997</ele><time>2026-03-31T13:09:37.774Z</time></trkpt><trkpt lat="44.095915" lon="9.80215"><ele>214.0</ele><time>2026-03-31T13:09:39.774Z</time></trkpt><trkpt lat="44.095905" lon="9.8020467"><ele>213.99999999999997</ele><time>2026-03-31T13:09:41.775Z</time></trkpt><trkpt lat="44.095895" lon="9.801945"><ele>214.0</ele><time>2026-03-31T13:09:43.774Z</time></trkpt><trkpt lat="44.095885" lon="9.8018383"><ele>214.0</ele><time>2026-03-31T13:09:45.774Z</time></trkpt><trkpt lat="44.095875" lon="9.801725"><ele>214.0</ele><time>2026-03-31T13:09:47.773Z</time></trkpt><trkpt lat="44.0958667" lon="9.80162"><ele>213.99999999999997</ele><time>2026-03-31T13:09:49.773Z</time></trkpt><trkpt lat="44.095845" lon="9.801515"><ele>214.0</ele><time>2026-03-31T13:09:51.774Z</time></trkpt><trkpt lat="44.09582" lon="9.8013983"><ele>213.83333333333331</ele><time>2026-03-31T13:09:53.773Z</time></trkpt><trkpt lat="44.0958017" lon="9.8012883"><ele>213.66666666666666</ele><time>2026-03-31T13:09:55.774Z</time></trkpt><trkpt lat="44.0957733" lon="9.8011917"><ele>213.5</ele><time>2026-03-31T13:09:57.774Z</time></trkpt><trkpt lat="44.0957567" lon="9.801085"><ele>213.33333333333331</ele><time>2026-03-31T13:09:59.774Z</time></trkpt><trkpt lat="44.0957367" lon="9.800985"><ele>213.16666666666666</ele><time>2026-03-31T13:10:01.774Z</time></trkpt><trkpt lat="44.095725" lon="9.8008783"><ele>213.0</ele><time>2026-03-31T13:10:03.773Z</time></trkpt><trkpt lat="44.095715" lon="9.8007783"><ele>220.1428571428571</ele><time>2026-03-31T13:10:05.773Z</time></trkpt><trkpt lat="44.0957067" lon="9.8006783"><ele>227.28571428571428</ele><time>2026-03-31T13:10:07.774Z</time></trkpt><trkpt lat="44.095695" lon="9.8005567"><ele>234.42857142857142</ele><time>2026-03-31T13:10:10.774Z</time></trkpt><trkpt lat="44.095685" lon="9.80047"><ele>241.57142857142856</ele><time>2026-03-31T13:10:12.774Z</time></trkpt><trkpt lat="44.095675" lon="9.8003783"><ele>248.7142857142857</ele><time>2026-03-31T13:10:14.773Z</time></trkpt><trkpt lat="44.0956783" lon="9.800285"><ele>255.85714285714283</ele><time>2026-03-31T13:10:16.774Z</time></trkpt><trkpt lat="44.0956767" lon="9.800175"><ele>263.0</ele><time>2026-03-31T13:10:18.774Z</time></trkpt><trkpt lat="44.09568" lon="9.80007"><ele>263.2857142857143</ele><time>2026-03-31T13:10:20.773Z</time></trkpt><trkpt lat="44.0956783" lon="9.79998"><ele>263.57142857142856</ele><time>2026-03-31T13:10:22.774Z</time></trkpt><trkpt lat="44.0956883" lon="9.79988"><ele>263.85714285714283</ele><time>2026-03-31T13:10:24.774Z</time></trkpt><trkpt lat="44.095715" lon="9.7997883"><ele>264.1428571428571</ele><time>2026-03-31T13:10:26.773Z</time></trkpt><trkpt lat="44.0957333" lon="9.7997017"><ele>264.42857142857144</ele><time>2026-03-31T13:10:28.774Z</time></trkpt><trkpt lat="44.09576" lon="9.799615"><ele>264.71428571428567</ele><time>2026-03-31T13:10:30.774Z</time></trkpt><trkpt lat="44.0957933" lon="9.7995383"><ele>265.0</ele><time>2026-03-31T13:10:32.774Z</time></trkpt><trkpt lat="44.09584" lon="9.7994217"><ele>258.5</ele><time>2026-03-31T13:10:35.773Z</time></trkpt><trkpt lat="44.09589" lon="9.7993533"><ele>252.0</ele><time>2026-03-31T13:10:37.773Z</time></trkpt><trkpt lat="44.095955" lon="9.7992917"><ele>245.5</ele><time>2026-03-31T13:10:39.774Z</time></trkpt><trkpt lat="44.0960267" lon="9.7992367"><ele>239.0</ele><time>2026-03-31T13:10:41.773Z</time></trkpt><trkpt lat="44.0960983" lon="9.7991683"><ele>232.49999999999997</ele><time>2026-03-31T13:10:43.774Z</time></trkpt><trkpt lat="44.0961617" lon="9.799115"><ele>226.0</ele><time>2026-03-31T13:10:45.773Z</time></trkpt><trkpt lat="44.09622" lon="9.7990783"><ele>226.0</ele><time>2026-03-31T13:10:47.774Z</time></trkpt><trkpt lat="44.09629" lon="9.7990483"><ele>226.0</ele><time>2026-03-31T13:10:49.774Z</time></trkpt><trkpt lat="44.0963533" lon="9.7990217"><ele>226.0</ele><time>2026-03-31T13:10:51.774Z</time></trkpt><trkpt lat="44.0964383" lon="9.7990067"><ele>226.0</ele><time>2026-03-31T13:10:54.773Z</time></trkpt><trkpt lat="44.0965033" lon="9.798985"><ele>226.0</ele><time>2026-03-31T13:10:56.774Z</time></trkpt><trkpt lat="44.09657" lon="9.798965"><ele>226.0</ele><time>2026-03-31T13:10:58.773Z</time></trkpt><trkpt lat="44.0966417" lon="9.7989467"><ele>226.0</ele><time>2026-03-31T13:11:00.774Z</time></trkpt><trkpt lat="44.0967167" lon="9.798945"><ele>224.49999999999997</ele><time>2026-03-31T13:11:02.773Z</time></trkpt><trkpt lat="44.0967933" lon="9.7989317"><ele>223.0</ele><time>2026-03-31T13:11:04.774Z</time></trkpt><trkpt lat="44.096875" lon="9.7989117"><ele>221.5</ele><time>2026-03-31T13:11:06.774Z</time></trkpt><trkpt lat="44.0969483" lon="9.798895"><ele>220.0</ele><time>2026-03-31T13:11:08.774Z</time></trkpt><trkpt lat="44.0970283" lon="9.79889"><ele>218.49999999999997</ele><time>2026-03-31T13:11:10.774Z</time></trkpt><trkpt lat="44.0971033" lon="9.79889"><ele>217.0</ele><time>2026-03-31T13:11:12.774Z</time></trkpt><trkpt lat="44.0971783" lon="9.7988867"><ele>217.0</ele><time>2026-03-31T13:11:14.773Z</time></trkpt><trkpt lat="44.097245" lon="9.798875"><ele>217.0</ele><time>2026-03-31T13:11:16.773Z</time></trkpt><trkpt lat="44.0973083" lon="9.79885"><ele>217.0</ele><time>2026-03-31T13:11:18.774Z</time></trkpt><trkpt lat="44.0973767" lon="9.7988333"><ele>217.0</ele><time>2026-03-31T13:11:20.773Z</time></trkpt><trkpt lat="44.097445" lon="9.798825"><ele>217.0</ele><time>2026-03-31T13:11:22.774Z</time></trkpt><trkpt lat="44.0975183" lon="9.7988"><ele>217.0</ele><time>2026-03-31T13:11:24.774Z</time></trkpt><trkpt lat="44.0975817" lon="9.79877"><ele>217.0</ele><time>2026-03-31T13:11:26.774Z</time></trkpt><trkpt lat="44.0976417" lon="9.7987333"><ele>215.85714285714286</ele><time>2026-03-31T13:11:28.773Z</time></trkpt><trkpt lat="44.0977217" lon="9.7986783"><ele>214.71428571428572</ele><time>2026-03-31T13:11:31.774Z</time></trkpt><trkpt lat="44.0977783" lon="9.798635"><ele>213.57142857142856</ele><time>2026-03-31T13:11:33.774Z</time></trkpt><trkpt lat="44.097835" lon="9.798585"><ele>212.42857142857144</ele><time>2026-03-31T13:11:35.773Z</time></trkpt><trkpt lat="44.09788" lon="9.79852"><ele>211.28571428571428</ele><time>2026-03-31T13:11:37.773Z</time></trkpt><trkpt lat="44.0979333" lon="9.7984267"><ele>210.14285714285714</ele><time>2026-03-31T13:11:40.773Z</time></trkpt><trkpt lat="44.0979783" lon="9.7983383"><ele>209.0</ele><time>2026-03-31T13:11:43.774Z</time></trkpt><trkpt lat="44.0980267" lon="9.7982567"><ele>214.33333333333334</ele><time>2026-03-31T13:11:46.774Z</time></trkpt><trkpt lat="44.0980633" lon="9.7981567"><ele>219.66666666666669</ele><time>2026-03-31T13:11:49.774Z</time></trkpt><trkpt lat="44.0980933" lon="9.798045"><ele>225.0</ele><time>2026-03-31T13:11:52.773Z</time></trkpt><trkpt lat="44.098115" lon="9.7979317"><ele>230.33333333333331</ele><time>2026-03-31T13:11:55.774Z</time></trkpt><trkpt lat="44.0981233" lon="9.7978333"><ele>235.66666666666666</ele><time>2026-03-31T13:11:57.774Z</time></trkpt><trkpt lat="44.0981317" lon="9.79773"><ele>241.0</ele><time>2026-03-31T13:11:59.774Z</time></trkpt><trkpt lat="44.0981283" lon="9.7976383"><ele>243.71428571428572</ele><time>2026-03-31T13:12:01.774Z</time></trkpt><trkpt lat="44.0981183" lon="9.7975483"><ele>246.42857142857144</ele><time>2026-03-31T13:12:03.774Z</time></trkpt><trkpt lat="44.098095" lon="9.7974633"><ele>249.14285714285717</ele><time>2026-03-31T13:12:05.773Z</time></trkpt><trkpt lat="44.098075" lon="9.79738"><ele>251.8571428571429</ele><time>2026-03-31T13:12:07.774Z</time></trkpt><trkpt lat="44.09806" lon="9.7972783"><ele>254.57142857142858</ele><time>2026-03-31T13:12:09.773Z</time></trkpt><trkpt lat="44.0980433" lon="9.797175"><ele>257.28571428571433</ele><time>2026-03-31T13:12:11.773Z</time></trkpt><trkpt lat="44.098025" lon="9.79708"><ele>260.0</ele><time>2026-03-31T13:12:13.774Z</time></trkpt><trkpt lat="44.09801" lon="9.7969933"><ele>260.0</ele><time>2026-03-31T13:12:15.774Z</time></trkpt><trkpt lat="44.09798" lon="9.796885"><ele>260.0</ele><time>2026-03-31T13:12:18.774Z</time></trkpt><trkpt lat="44.0979617" lon="9.7967567"><ele>260.0</ele><time>2026-03-31T13:12:21.773Z</time></trkpt><trkpt lat="44.0979333" lon="9.79664"><ele>260.0</ele><time>2026-03-31T13:12:24.774Z</time></trkpt><trkpt lat="44.097905" lon="9.7965567"><ele>260.0</ele><time>2026-03-31T13:12:26.774Z</time></trkpt><trkpt lat="44.0978767" lon="9.7964733"><ele>260.0</ele><time>2026-03-31T13:12:28.774Z</time></trkpt><trkpt lat="44.0978517" lon="9.79639"><ele>260.33333333333337</ele><time>2026-03-31T13:12:30.773Z</time></trkpt><trkpt lat="44.0978183" lon="9.7962983"><ele>260.6666666666667</ele><time>2026-03-31T13:12:32.773Z</time></trkpt><trkpt lat="44.0977933" lon="9.7962117"><ele>261.0</ele><time>2026-03-31T13:12:34.773Z</time></trkpt><trkpt lat="44.097765" lon="9.7960983"><ele>261.3333333333333</ele><time>2026-03-31T13:12:37.773Z</time></trkpt><trkpt lat="44.0977233" lon="9.7959717"><ele>261.66666666666663</ele><time>2026-03-31T13:12:40.773Z</time></trkpt><trkpt lat="44.097705" lon="9.7958667"><ele>262.0</ele><time>2026-03-31T13:12:42.774Z</time></trkpt><trkpt lat="44.0976817" lon="9.7957367"><ele>260.8571428571429</ele><time>2026-03-31T13:12:44.774Z</time></trkpt><trkpt lat="44.0976633" lon="9.795645"><ele>259.7142857142857</ele><time>2026-03-31T13:12:46.774Z</time></trkpt><trkpt lat="44.09764" lon="9.7955533"><ele>258.57142857142856</ele><time>2026-03-31T13:12:48.773Z</time></trkpt><trkpt lat="44.0976233" lon="9.79545"><ele>257.42857142857144</ele><time>2026-03-31T13:12:50.774Z</time></trkpt><trkpt lat="44.0976033" lon="9.7953633"><ele>256.2857142857143</ele><time>2026-03-31T13:12:52.774Z</time></trkpt><trkpt lat="44.0975933" lon="9.7952733"><ele>255.14285714285717</ele><time>2026-03-31T13:12:54.773Z</time></trkpt><trkpt lat="44.0975783" lon="9.795175"><ele>254.0</ele><time>2026-03-31T13:12:56.773Z</time></trkpt><trkpt lat="44.0975567" lon="9.7950867"><ele>252.66666666666669</ele><time>2026-03-31T13:12:58.773Z</time></trkpt><trkpt lat="44.0975333" lon="9.7949983"><ele>251.33333333333334</ele><time>2026-03-31T13:13:00.773Z</time></trkpt><trkpt lat="44.0975133" lon="9.7948767"><ele>250.0</ele><time>2026-03-31T13:13:03.773Z</time></trkpt><trkpt lat="44.0974883" lon="9.7947633"><ele>248.66666666666669</ele><time>2026-03-31T13:13:06.773Z</time></trkpt><trkpt lat="44.0974617" lon="9.7946417"><ele>247.33333333333334</ele><time>2026-03-31T13:13:09.773Z</time></trkpt><trkpt lat="44.0974417" lon="9.7945533"><ele>246.0</ele><time>2026-03-31T13:13:11.774Z</time></trkpt><trkpt lat="44.0974217" lon="9.7944267"><ele>253.42857142857144</ele><time>2026-03-31T13:13:13.774Z</time></trkpt><trkpt lat="44.0974067" lon="9.794315"><ele>260.8571428571429</ele><time>2026-03-31T13:13:15.774Z</time></trkpt><trkpt lat="44.0973817" lon="9.7942067"><ele>268.2857142857143</ele><time>2026-03-31T13:13:17.774Z</time></trkpt><trkpt lat="44.0973717" lon="9.7941117"><ele>275.7142857142857</ele><time>2026-03-31T13:13:19.773Z</time></trkpt><trkpt lat="44.0973617" lon="9.7940217"><ele>283.1428571428571</ele><time>2026-03-31T13:13:21.773Z</time></trkpt><trkpt lat="44.097355" lon="9.7939333"><ele>290.57142857142856</ele><time>2026-03-31T13:13:23.773Z</time></trkpt><trkpt lat="44.0973467" lon="9.7938133"><ele>298.0</ele><time>2026-03-31T13:13:26.774Z</time></trkpt><trkpt lat="44.0973333" lon="9.7937267"><ele>298.0</ele><time>2026-03-31T13:13:28.773Z</time></trkpt><trkpt lat="44.097325" lon="9.79362"><ele>298.0</ele><time>2026-03-31T13:13:30.773Z</time></trkpt><trkpt lat="44.097305" lon="9.7935267"><ele>298.0</ele><time>2026-03-31T13:13:32.773Z</time></trkpt><trkpt lat="44.0972833" lon="9.7934383"><ele>298.0</ele><time>2026-03-31T13:13:34.774Z</time></trkpt><trkpt lat="44.09727" lon="9.7933467"><ele>298.0</ele><time>2026-03-31T13:13:36.774Z</time></trkpt><trkpt lat="44.0972517" lon="9.79325"><ele>298.0</ele><time>2026-03-31T13:13:38.774Z</time></trkpt><trkpt lat="44.0972383" lon="9.7931533"><ele>298.0</ele><time>2026-03-31T13:13:40.773Z</time></trkpt><trkpt lat="44.0972367" lon="9.7930533"><ele>297.66666666666663</ele><time>2026-03-31T13:13:42.773Z</time></trkpt><trkpt lat="44.09724" lon="9.79293"><ele>297.3333333333333</ele><time>2026-03-31T13:13:44.773Z</time></trkpt><trkpt lat="44.09725" lon="9.7928317"><ele>297.0</ele><time>2026-03-31T13:13:46.774Z</time></trkpt><trkpt lat="44.0972517" lon="9.7927183"><ele>296.6666666666667</ele><time>2026-03-31T13:13:48.773Z</time></trkpt><trkpt lat="44.0972517" lon="9.7925867"><ele>296.33333333333337</ele><time>2026-03-31T13:13:51.774Z</time></trkpt><trkpt lat="44.0972517" lon="9.79249"><ele>296.0</ele><time>2026-03-31T13:13:53.773Z</time></trkpt><trkpt lat="44.097255" lon="9.7924"><ele>295.6666666666667</ele><time>2026-03-31T13:13:55.774Z</time></trkpt><trkpt lat="44.09726" lon="9.792275"><ele>295.33333333333337</ele><time>2026-03-31T13:13:58.773Z</time></trkpt><trkpt lat="44.0972583" lon="9.79215"><ele>295.0</ele><time>2026-03-31T13:14:01.774Z</time></trkpt><trkpt lat="44.0972667" lon="9.792035"><ele>294.6666666666667</ele><time>2026-03-31T13:14:04.774Z</time></trkpt><trkpt lat="44.0972717" lon="9.79194"><ele>294.3333333333333</ele><time>2026-03-31T13:14:06.773Z</time></trkpt><trkpt lat="44.097275" lon="9.7918467"><ele>294.0</ele><time>2026-03-31T13:14:08.773Z</time></trkpt><trkpt lat="44.0972783" lon="9.7917583"><ele>294.8333333333333</ele><time>2026-03-31T13:14:10.773Z</time></trkpt><trkpt lat="44.097275" lon="9.7916317"><ele>295.6666666666667</ele><time>2026-03-31T13:14:13.773Z</time></trkpt><trkpt lat="44.0972817" lon="9.7915433"><ele>296.5</ele><time>2026-03-31T13:14:15.774Z</time></trkpt><trkpt lat="44.0972717" lon="9.791455"><ele>297.33333333333337</ele><time>2026-03-31T13:14:17.774Z</time></trkpt><trkpt lat="44.0972717" lon="9.791325"><ele>298.1666666666667</ele><time>2026-03-31T13:14:19.773Z</time></trkpt><trkpt lat="44.0972783" lon="9.7912133"><ele>299.0</ele><time>2026-03-31T13:14:21.773Z</time></trkpt><trkpt lat="44.0972767" lon="9.79112"><ele>300.42857142857144</ele><time>2026-03-31T13:14:23.774Z</time></trkpt><trkpt lat="44.0972767" lon="9.7909867"><ele>301.8571428571429</ele><time>2026-03-31T13:14:26.774Z</time></trkpt><trkpt lat="44.097275" lon="9.7908933"><ele>303.28571428571433</ele><time>2026-03-31T13:14:28.774Z</time></trkpt><trkpt lat="44.097265" lon="9.7907967"><ele>304.7142857142857</ele><time>2026-03-31T13:14:30.773Z</time></trkpt><trkpt lat="44.0972683" lon="9.7907"><ele>306.14285714285717</ele><time>2026-03-31T13:14:32.774Z</time></trkpt><trkpt lat="44.09727" lon="9.7906017"><ele>307.5714285714286</ele><time>2026-03-31T13:14:34.773Z</time></trkpt><trkpt lat="44.0972767" lon="9.7905117"><ele>309.0</ele><time>2026-03-31T13:14:36.774Z</time></trkpt><trkpt lat="44.0972733" lon="9.7904167"><ele>309.0</ele><time>2026-03-31T13:14:38.773Z</time></trkpt><trkpt lat="44.09728" lon="9.790285"><ele>309.0</ele><time>2026-03-31T13:14:41.774Z</time></trkpt><trkpt lat="44.0972867" lon="9.7901967"><ele>309.0</ele><time>2026-03-31T13:14:43.774Z</time></trkpt><trkpt lat="44.09728" lon="9.790075"><ele>309.0</ele><time>2026-03-31T13:14:46.773Z</time></trkpt><trkpt lat="44.0972783" lon="9.7899817"><ele>309.0</ele><time>2026-03-31T13:14:48.773Z</time></trkpt><trkpt lat="44.0972833" lon="9.78989"><ele>309.0</ele><time>2026-03-31T13:14:50.774Z</time></trkpt><trkpt lat="44.0972867" lon="9.7897617"><ele>309.5714285714286</ele><time>2026-03-31T13:14:53.773Z</time></trkpt><trkpt lat="44.0972917" lon="9.7896733"><ele>310.14285714285717</ele><time>2026-03-31T13:14:55.773Z</time></trkpt><trkpt lat="44.097295" lon="9.7895833"><ele>310.7142857142857</ele><time>2026-03-31T13:14:57.774Z</time></trkpt><trkpt lat="44.0972883" lon="9.7894617"><ele>311.28571428571433</ele><time>2026-03-31T13:15:00.774Z</time></trkpt><trkpt lat="44.0972817" lon="9.7893683"><ele>311.8571428571429</ele><time>2026-03-31T13:15:02.773Z</time></trkpt><trkpt lat="44.0972783" lon="9.789265"><ele>312.42857142857144</ele><time>2026-03-31T13:15:04.774Z</time></trkpt><trkpt lat="44.0972717" lon="9.78917"><ele>313.0</ele><time>2026-03-31T13:15:06.773Z</time></trkpt><trkpt lat="44.0972617" lon="9.7890717"><ele>311.7142857142857</ele><time>2026-03-31T13:15:08.773Z</time></trkpt><trkpt lat="44.09724" lon="9.7889883"><ele>310.42857142857144</ele><time>2026-03-31T13:15:10.774Z</time></trkpt><trkpt lat="44.0972233" lon="9.7889033"><ele>309.1428571428571</ele><time>2026-03-31T13:15:12.774Z</time></trkpt><trkpt lat="44.0971917" lon="9.788785"><ele>307.8571428571429</ele><time>2026-03-31T13:15:15.774Z</time></trkpt><trkpt lat="44.0971617" lon="9.7887017"><ele>306.5714285714286</ele><time>2026-03-31T13:15:17.774Z</time></trkpt><trkpt lat="44.0971283" lon="9.78862"><ele>305.2857142857143</ele><time>2026-03-31T13:15:19.774Z</time></trkpt><trkpt lat="44.09707" lon="9.7885167"><ele>304.0</ele><time>2026-03-31T13:15:22.773Z</time></trkpt><trkpt lat="44.097025" lon="9.7884383"><ele>300.7142857142857</ele><time>2026-03-31T13:15:24.774Z</time></trkpt><trkpt lat="44.0969817" lon="9.7883583"><ele>297.42857142857144</ele><time>2026-03-31T13:15:26.774Z</time></trkpt><trkpt lat="44.096935" lon="9.7882883"><ele>294.14285714285717</ele><time>2026-03-31T13:15:28.773Z</time></trkpt><trkpt lat="44.0968867" lon="9.788225"><ele>290.8571428571429</ele><time>2026-03-31T13:15:30.774Z</time></trkpt><trkpt lat="44.09681" lon="9.788145"><ele>287.57142857142856</ele><time>2026-03-31T13:15:33.774Z</time></trkpt><trkpt lat="44.096755" lon="9.7880883"><ele>284.28571428571433</ele><time>2026-03-31T13:15:35.773Z</time></trkpt><trkpt lat="44.0967" lon="9.78802"><ele>281.0</ele><time>2026-03-31T13:15:37.774Z</time></trkpt><trkpt lat="44.0966433" lon="9.7879617"><ele>282.0</ele><time>2026-03-31T13:15:39.774Z</time></trkpt><trkpt lat="44.0965833" lon="9.7879117"><ele>283.0</ele><time>2026-03-31T13:15:41.773Z</time></trkpt><trkpt lat="44.0964983" lon="9.7878633"><ele>284.0</ele><time>2026-03-31T13:15:44.774Z</time></trkpt><trkpt lat="44.0964367" lon="9.7878133"><ele>285.0</ele><time>2026-03-31T13:15:46.774Z</time></trkpt><trkpt lat="44.096355" lon="9.7877467"><ele>286.0</ele><time>2026-03-31T13:15:49.773Z</time></trkpt><trkpt lat="44.0962933" lon="9.78771"><ele>287.0</ele><time>2026-03-31T13:15:51.774Z</time></trkpt><trkpt lat="44.09623" lon="9.7876683"><ele>287.0</ele><time>2026-03-31T13:15:53.774Z</time></trkpt><trkpt lat="44.0961733" lon="9.7876233"><ele>287.0</ele><time>2026-03-31T13:15:55.773Z</time></trkpt><trkpt lat="44.0961117" lon="9.78759"><ele>287.0</ele><time>2026-03-31T13:15:57.774Z</time></trkpt><trkpt lat="44.0960567" lon="9.7875467"><ele>287.0</ele><time>2026-03-31T13:15:59.774Z</time></trkpt><trkpt lat="44.09597" lon="9.7875033"><ele>287.0</ele><time>2026-03-31T13:16:02.774Z</time></trkpt><trkpt lat="44.0958883" lon="9.7874517"><ele>287.0</ele><time>2026-03-31T13:16:05.774Z</time></trkpt><trkpt lat="44.095805" lon="9.787395"><ele>291.33333333333337</ele><time>2026-03-31T13:16:08.774Z</time></trkpt><trkpt lat="44.0957367" lon="9.787365"><ele>295.6666666666667</ele><time>2026-03-31T13:16:10.774Z</time></trkpt><trkpt lat="44.0956683" lon="9.78735"><ele>300.0</ele><time>2026-03-31T13:16:12.774Z</time></trkpt><trkpt lat="44.0956017" lon="9.7873083"><ele>304.3333333333333</ele><time>2026-03-31T13:16:14.774Z</time></trkpt><trkpt lat="44.0955217" lon="9.7872617"><ele>308.66666666666663</ele><time>2026-03-31T13:16:17.774Z</time></trkpt><trkpt lat="44.09544" lon="9.7872483"><ele>313.0</ele><time>2026-03-31T13:16:20.773Z</time></trkpt><trkpt lat="44.0953683" lon="9.787235"><ele>313.0</ele><time>2026-03-31T13:16:22.774Z</time></trkpt><trkpt lat="44.09528" lon="9.7871817"><ele>313.0</ele><time>2026-03-31T13:16:24.774Z</time></trkpt><trkpt lat="44.095215" lon="9.787165"><ele>313.0</ele><time>2026-03-31T13:16:26.774Z</time></trkpt><trkpt lat="44.0951533" lon="9.7871433"><ele>313.0</ele><time>2026-03-31T13:16:28.773Z</time></trkpt><trkpt lat="44.0950633" lon="9.7871217"><ele>313.0</ele><time>2026-03-31T13:16:31.772Z</time></trkpt><trkpt lat="44.0949783" lon="9.787095"><ele>313.0</ele><time>2026-03-31T13:16:34.773Z</time></trkpt><trkpt lat="44.094885" lon="9.7870717"><ele>315.2857142857143</ele><time>2026-03-31T13:16:37.772Z</time></trkpt><trkpt lat="44.0948283" lon="9.78703"><ele>317.57142857142856</ele><time>2026-03-31T13:16:39.773Z</time></trkpt><trkpt lat="44.0947617" lon="9.7869817"><ele>319.8571428571429</ele><time>2026-03-31T13:16:41.772Z</time></trkpt><trkpt lat="44.09469" lon="9.7869517"><ele>322.1428571428571</ele><time>2026-03-31T13:16:43.772Z</time></trkpt><trkpt lat="44.0946117" lon="9.7869217"><ele>324.42857142857144</ele><time>2026-03-31T13:16:45.772Z</time></trkpt><trkpt lat="44.0945467" lon="9.7868867"><ele>326.7142857142857</ele><time>2026-03-31T13:16:47.772Z</time></trkpt><trkpt lat="44.0944783" lon="9.786855"><ele>329.0</ele><time>2026-03-31T13:16:49.772Z</time></trkpt><trkpt lat="44.09441" lon="9.7868267"><ele>328.85714285714283</ele><time>2026-03-31T13:16:51.772Z</time></trkpt><trkpt lat="44.0943467" lon="9.7867833"><ele>328.7142857142857</ele><time>2026-03-31T13:16:53.773Z</time></trkpt><trkpt lat="44.0942883" lon="9.7867367"><ele>328.57142857142856</ele><time>2026-03-31T13:16:55.773Z</time></trkpt><trkpt lat="44.09423" lon="9.786685"><ele>328.42857142857144</ele><time>2026-03-31T13:16:57.773Z</time></trkpt><trkpt lat="44.094175" lon="9.78663"><ele>328.2857142857143</ele><time>2026-03-31T13:16:59.773Z</time></trkpt><trkpt lat="44.094115" lon="9.7865717"><ele>328.1428571428571</ele><time>2026-03-31T13:17:01.772Z</time></trkpt><trkpt lat="44.0940683" lon="9.7865083"><ele>328.0</ele><time>2026-03-31T13:17:03.773Z</time></trkpt><trkpt lat="44.0940183" lon="9.7864417"><ele>328.0</ele><time>2026-03-31T13:17:05.772Z</time></trkpt><trkpt lat="44.0939583" lon="9.78638"><ele>328.0</ele><time>2026-03-31T13:17:07.772Z</time></trkpt><trkpt lat="44.0939117" lon="9.7863067"><ele>328.0</ele><time>2026-03-31T13:17:09.772Z</time></trkpt><trkpt lat="44.09386" lon="9.786235"><ele>328.0</ele><time>2026-03-31T13:17:11.772Z</time></trkpt><trkpt lat="44.0938083" lon="9.7861717"><ele>328.0</ele><time>2026-03-31T13:17:13.772Z</time></trkpt><trkpt lat="44.0937317" lon="9.7860833"><ele>328.0</ele><time>2026-03-31T13:17:16.772Z</time></trkpt><trkpt lat="44.0936767" lon="9.7860267"><ele>327.99999999999994</ele><time>2026-03-31T13:17:18.773Z</time></trkpt><trkpt lat="44.0936183" lon="9.78596"><ele>328.0</ele><time>2026-03-31T13:17:20.772Z</time></trkpt><trkpt lat="44.0935633" lon="9.7858933"><ele>328.0</ele><time>2026-03-31T13:17:22.773Z</time></trkpt><trkpt lat="44.0935017" lon="9.7858383"><ele>328.0</ele><time>2026-03-31T13:17:24.773Z</time></trkpt><trkpt lat="44.0934383" lon="9.7857883"><ele>328.0</ele><time>2026-03-31T13:17:26.773Z</time></trkpt><trkpt lat="44.0933667" lon="9.7857417"><ele>327.99999999999994</ele><time>2026-03-31T13:17:28.773Z</time></trkpt><trkpt lat="44.0933" lon="9.7857117"><ele>328.0</ele><time>2026-03-31T13:17:30.772Z</time></trkpt><trkpt lat="44.0932233" lon="9.78569"><ele>328.0</ele><time>2026-03-31T13:17:32.773Z</time></trkpt><trkpt lat="44.0931533" lon="9.7856517"><ele>328.0</ele><time>2026-03-31T13:17:34.772Z</time></trkpt><trkpt lat="44.093065" lon="9.7856133"><ele>328.0</ele><time>2026-03-31T13:17:37.773Z</time></trkpt><trkpt lat="44.093005" lon="9.7855867"><ele>328.0</ele><time>2026-03-31T13:17:39.773Z</time></trkpt><trkpt lat="44.0929417" lon="9.7855733"><ele>328.0</ele><time>2026-03-31T13:17:41.772Z</time></trkpt><trkpt lat="44.0928517" lon="9.78554"><ele>328.0</ele><time>2026-03-31T13:17:44.772Z</time></trkpt><trkpt lat="44.092785" lon="9.785525"><ele>328.0</ele><time>2026-03-31T13:17:46.773Z</time></trkpt><trkpt lat="44.0927167" lon="9.78551"><ele>328.0</ele><time>2026-03-31T13:17:48.773Z</time></trkpt><trkpt lat="44.0926217" lon="9.78549"><ele>328.0</ele><time>2026-03-31T13:17:51.773Z</time></trkpt><trkpt lat="44.0925467" lon="9.78549"><ele>328.0</ele><time>2026-03-31T13:17:53.772Z</time></trkpt><trkpt lat="44.0924583" lon="9.785485"><ele>328.0</ele><time>2026-03-31T13:17:56.773Z</time></trkpt><trkpt lat="44.0923933" lon="9.7854717"><ele>328.0</ele><time>2026-03-31T13:17:58.773Z</time></trkpt><trkpt lat="44.09233" lon="9.78545"><ele>326.99999999999994</ele><time>2026-03-31T13:18:00.773Z</time></trkpt><trkpt lat="44.0922633" lon="9.7854183"><ele>326.0</ele><time>2026-03-31T13:18:02.772Z</time></trkpt><trkpt lat="44.0921967" lon="9.78542"><ele>325.0</ele><time>2026-03-31T13:18:04.773Z</time></trkpt><trkpt lat="44.09213" lon="9.7854183"><ele>324.0</ele><time>2026-03-31T13:18:06.773Z</time></trkpt><trkpt lat="44.0920417" lon="9.7854283"><ele>323.0</ele><time>2026-03-31T13:18:08.772Z</time></trkpt><trkpt lat="44.0919583" lon="9.7854367"><ele>321.99999999999994</ele><time>2026-03-31T13:18:10.773Z</time></trkpt><trkpt lat="44.09189" lon="9.78543"><ele>321.0</ele><time>2026-03-31T13:18:12.773Z</time></trkpt><trkpt lat="44.0917983" lon="9.7854233"><ele>321.0</ele><time>2026-03-31T13:18:15.773Z</time></trkpt><trkpt lat="44.091715" lon="9.7854317"><ele>321.0</ele><time>2026-03-31T13:18:18.773Z</time></trkpt><trkpt lat="44.09163" lon="9.7854483"><ele>321.0</ele><time>2026-03-31T13:18:21.772Z</time></trkpt><trkpt lat="44.0915667" lon="9.7854783"><ele>321.0</ele><time>2026-03-31T13:18:23.772Z</time></trkpt><trkpt lat="44.0915017" lon="9.78549"><ele>321.0</ele><time>2026-03-31T13:18:25.773Z</time></trkpt><trkpt lat="44.0914133" lon="9.785475"><ele>321.0</ele><time>2026-03-31T13:18:27.772Z</time></trkpt><trkpt lat="44.09131" lon="9.7854367"><ele>319.6666666666667</ele><time>2026-03-31T13:18:29.773Z</time></trkpt><trkpt lat="44.0912117" lon="9.7853817"><ele>318.3333333333333</ele><time>2026-03-31T13:18:31.772Z</time></trkpt><trkpt lat="44.0911367" lon="9.7853283"><ele>317.0</ele><time>2026-03-31T13:18:33.772Z</time></trkpt><trkpt lat="44.0910783" lon="9.785265"><ele>315.66666666666663</ele><time>2026-03-31T13:18:35.772Z</time></trkpt><trkpt lat="44.0910317" lon="9.7851967"><ele>314.3333333333333</ele><time>2026-03-31T13:18:37.772Z</time></trkpt><trkpt lat="44.090995" lon="9.7851217"><ele>313.0</ele><time>2026-03-31T13:18:39.773Z</time></trkpt><trkpt lat="44.09096" lon="9.78504"><ele>310.5</ele><time>2026-03-31T13:18:41.772Z</time></trkpt><trkpt lat="44.0909117" lon="9.78493"><ele>308.0</ele><time>2026-03-31T13:18:43.772Z</time></trkpt><trkpt lat="44.0908683" lon="9.7848067"><ele>305.5</ele><time>2026-03-31T13:18:45.773Z</time></trkpt><trkpt lat="44.0908433" lon="9.78468"><ele>303.0</ele><time>2026-03-31T13:18:47.773Z</time></trkpt><trkpt lat="44.09083" lon="9.7845783"><ele>300.5</ele><time>2026-03-31T13:18:49.773Z</time></trkpt><trkpt lat="44.090825" lon="9.78449"><ele>298.0</ele><time>2026-03-31T13:18:51.772Z</time></trkpt><trkpt lat="44.0908133" lon="9.7843917"><ele>298.8333333333333</ele><time>2026-03-31T13:18:53.772Z</time></trkpt><trkpt lat="44.090795" lon="9.7842917"><ele>299.66666666666663</ele><time>2026-03-31T13:18:55.773Z</time></trkpt><trkpt lat="44.0907883" lon="9.7841633"><ele>300.5</ele><time>2026-03-31T13:18:58.773Z</time></trkpt><trkpt lat="44.0907967" lon="9.784065"><ele>301.3333333333333</ele><time>2026-03-31T13:19:00.772Z</time></trkpt><trkpt lat="44.0908067" lon="9.7839583"><ele>302.1666666666667</ele><time>2026-03-31T13:19:02.772Z</time></trkpt><trkpt lat="44.09082" lon="9.7838533"><ele>303.0</ele><time>2026-03-31T13:19:04.773Z</time></trkpt><trkpt lat="44.090845" lon="9.7837233"><ele>303.0</ele><time>2026-03-31T13:19:06.772Z</time></trkpt><trkpt lat="44.0908917" lon="9.7836033"><ele>303.0</ele><time>2026-03-31T13:19:08.772Z</time></trkpt><trkpt lat="44.0909333" lon="9.7834833"><ele>303.0</ele><time>2026-03-31T13:19:10.772Z</time></trkpt><trkpt lat="44.0909667" lon="9.7833867"><ele>303.0</ele><time>2026-03-31T13:19:12.772Z</time></trkpt><trkpt lat="44.091005" lon="9.78329"><ele>303.0</ele><time>2026-03-31T13:19:14.773Z</time></trkpt><trkpt lat="44.0910417" lon="9.7831767"><ele>303.0</ele><time>2026-03-31T13:19:16.772Z</time></trkpt><trkpt lat="44.0910767" lon="9.7830817"><ele>303.42857142857144</ele><time>2026-03-31T13:19:18.773Z</time></trkpt><trkpt lat="44.0910967" lon="9.782995"><ele>303.85714285714283</ele><time>2026-03-31T13:19:20.773Z</time></trkpt><trkpt lat="44.091105" lon="9.7828933"><ele>304.2857142857143</ele><time>2026-03-31T13:19:22.772Z</time></trkpt><trkpt lat="44.0911117" lon="9.7827817"><ele>304.7142857142857</ele><time>2026-03-31T13:19:24.772Z</time></trkpt><trkpt lat="44.0911217" lon="9.7826833"><ele>305.14285714285717</ele><time>2026-03-31T13:19:26.772Z</time></trkpt><trkpt lat="44.09112" lon="9.78258"><ele>305.57142857142856</ele><time>2026-03-31T13:19:28.773Z</time></trkpt><trkpt lat="44.0911167" lon="9.7824833"><ele>306.0</ele><time>2026-03-31T13:19:30.773Z</time></trkpt><trkpt lat="44.0911083" lon="9.7823883"><ele>307.0</ele><time>2026-03-31T13:19:32.772Z</time></trkpt><trkpt lat="44.0910933" lon="9.7822933"><ele>308.0</ele><time>2026-03-31T13:19:34.772Z</time></trkpt><trkpt lat="44.0910717" lon="9.782185"><ele>309.0</ele><time>2026-03-31T13:19:37.773Z</time></trkpt><trkpt lat="44.0910433" lon="9.782075"><ele>310.0</ele><time>2026-03-31T13:19:40.773Z</time></trkpt><trkpt lat="44.0910217" lon="9.7819733"><ele>311.0</ele><time>2026-03-31T13:19:42.772Z</time></trkpt><trkpt lat="44.0877017" lon="9.7699867"><ele>311.0</ele><time>2026-03-31T13:22:22.772Z</time></trkpt><trkpt lat="44.087645" lon="9.76993"><ele>311.0</ele><time>2026-03-31T13:22:26.772Z</time></trkpt><trkpt lat="44.0875583" lon="9.7698517"><ele>311.0</ele><time>2026-03-31T13:22:28.773Z</time></trkpt><trkpt lat="44.087495" lon="9.7697967"><ele>311.0</ele><time>2026-03-31T13:22:30.772Z</time></trkpt><trkpt lat="44.0874317" lon="9.7698517"><ele>311.0</ele><time>2026-03-31T13:22:34.773Z</time></trkpt><trkpt lat="44.0874967" lon="9.7698167"><ele>311.0</ele><time>2026-03-31T13:23:45.771Z</time></trkpt><trkpt lat="44.08756" lon="9.76984"><ele>311.0</ele><time>2026-03-31T13:23:49.771Z</time></trkpt><trkpt lat="44.08762" lon="9.769795"><ele>311.0</ele><time>2026-03-31T13:24:03.772Z</time></trkpt><trkpt lat="44.0876817" lon="9.769865"><ele>311.0</ele><time>2026-03-31T13:24:06.771Z</time></trkpt><trkpt lat="44.0877283" lon="9.7699633"><ele>311.0</ele><time>2026-03-31T13:24:09.771Z</time></trkpt><trkpt lat="44.087755" lon="9.7700517"><ele>311.0</ele><time>2026-03-31T13:24:11.772Z</time></trkpt><trkpt lat="44.0877883" lon="9.7701433"><ele>311.0</ele><time>2026-03-31T13:24:13.771Z</time></trkpt><trkpt lat="44.0878233" lon="9.7702517"><ele>317.6</ele><time>2026-03-31T13:24:15.772Z</time></trkpt><trkpt lat="44.08786" lon="9.7703583"><ele>324.20000000000005</ele><time>2026-03-31T13:24:17.771Z</time></trkpt><trkpt lat="44.0878917" lon="9.77048"><ele>330.79999999999995</ele><time>2026-03-31T13:24:19.772Z</time></trkpt><trkpt lat="44.0879317" lon="9.7706117"><ele>337.4</ele><time>2026-03-31T13:24:21.772Z</time></trkpt><trkpt lat="44.08797" lon="9.7707633"><ele>344.0</ele><time>2026-03-31T13:24:23.772Z</time></trkpt><trkpt lat="44.08801" lon="9.7709233"><ele>344.00000000000006</ele><time>2026-03-31T13:24:25.772Z</time></trkpt><trkpt lat="44.0880267" lon="9.7710167"><ele>344.0</ele><time>2026-03-31T13:24:26.771Z</time></trkpt><trkpt lat="44.088055" lon="9.7711117"><ele>344.0</ele><time>2026-03-31T13:24:27.772Z</time></trkpt><trkpt lat="44.0880717" lon="9.7712133"><ele>344.0</ele><time>2026-03-31T13:24:28.772Z</time></trkpt><trkpt lat="44.0881" lon="9.7713017"><ele>344.0</ele><time>2026-03-31T13:24:29.771Z</time></trkpt><trkpt lat="44.0881233" lon="9.7713933"><ele>344.00000000000006</ele><time>2026-03-31T13:24:30.772Z</time></trkpt><trkpt lat="44.0881467" lon="9.7714867"><ele>344.0</ele><time>2026-03-31T13:24:31.772Z</time></trkpt><trkpt lat="44.0911583" lon="9.78256"><ele>339.2</ele><time>2026-03-31T13:27:05.771Z</time></trkpt><trkpt lat="44.091235" lon="9.78261"><ele>334.4</ele><time>2026-03-31T13:27:06.771Z</time></trkpt><trkpt lat="44.091255" lon="9.782755"><ele>329.6</ele><time>2026-03-31T13:27:08.771Z</time></trkpt><trkpt lat="44.0912133" lon="9.7829133"><ele>324.8</ele><time>2026-03-31T13:27:10.772Z</time></trkpt><trkpt lat="44.0911667" lon="9.78307"><ele>320.0</ele><time>2026-03-31T13:27:12.772Z</time></trkpt><trkpt lat="44.0911367" lon="9.7831533"><ele>317.6666666666667</ele><time>2026-03-31T13:27:13.771Z</time></trkpt><trkpt lat="44.0911017" lon="9.7832367"><ele>315.33333333333337</ele><time>2026-03-31T13:27:14.771Z</time></trkpt><trkpt lat="44.0910683" lon="9.78332"><ele>313.0</ele><time>2026-03-31T13:27:15.771Z</time></trkpt><trkpt lat="44.0910283" lon="9.7833983"><ele>310.6666666666667</ele><time>2026-03-31T13:27:16.771Z</time></trkpt><trkpt lat="44.0909933" lon="9.7834817"><ele>308.3333333333333</ele><time>2026-03-31T13:27:17.771Z</time></trkpt><trkpt lat="44.0909367" lon="9.7836367"><ele>306.0</ele><time>2026-03-31T13:27:19.771Z</time></trkpt><trkpt lat="44.0909167" lon="9.78372"><ele>305.5</ele><time>2026-03-31T13:27:20.771Z</time></trkpt><trkpt lat="44.0908767" lon="9.7838883"><ele>305.0</ele><time>2026-03-31T13:27:22.771Z</time></trkpt><trkpt lat="44.0908633" lon="9.7839833"><ele>304.5</ele><time>2026-03-31T13:27:23.771Z</time></trkpt><trkpt lat="44.0908583" lon="9.7840717"><ele>304.0</ele><time>2026-03-31T13:27:24.772Z</time></trkpt><trkpt lat="44.09086" lon="9.7841617"><ele>303.5</ele><time>2026-03-31T13:27:25.771Z</time></trkpt><trkpt lat="44.09086" lon="9.7842683"><ele>303.0</ele><time>2026-03-31T13:27:26.772Z</time></trkpt><trkpt lat="44.0908683" lon="9.7843683"><ele>302.2857142857143</ele><time>2026-03-31T13:27:27.771Z</time></trkpt><trkpt lat="44.09088" lon="9.7844683"><ele>301.57142857142856</ele><time>2026-03-31T13:27:28.772Z</time></trkpt><trkpt lat="44.0908983" lon="9.7845667"><ele>300.85714285714283</ele><time>2026-03-31T13:27:29.772Z</time></trkpt><trkpt lat="44.0909183" lon="9.7846683"><ele>300.1428571428571</ele><time>2026-03-31T13:27:30.771Z</time></trkpt><trkpt lat="44.0909433" lon="9.7847617"><ele>299.4285714285714</ele><time>2026-03-31T13:27:31.771Z</time></trkpt><trkpt lat="44.0909767" lon="9.7848517"><ele>298.7142857142857</ele><time>2026-03-31T13:27:32.771Z</time></trkpt><trkpt lat="44.09101" lon="9.784945"><ele>298.0</ele><time>2026-03-31T13:27:33.772Z</time></trkpt><trkpt lat="44.0910683" lon="9.7850333"><ele>298.0</ele><time>2026-03-31T13:27:34.772Z</time></trkpt><trkpt lat="44.0911317" lon="9.78511"><ele>298.0</ele><time>2026-03-31T13:27:35.772Z</time></trkpt><trkpt lat="44.0911983" lon="9.7851783"><ele>298.0</ele><time>2026-03-31T13:27:36.771Z</time></trkpt><trkpt lat="44.0912683" lon="9.7852317"><ele>298.0</ele><time>2026-03-31T13:27:37.772Z</time></trkpt><trkpt lat="44.09134" lon="9.78528"><ele>298.0</ele><time>2026-03-31T13:27:38.772Z</time></trkpt><trkpt lat="44.0914167" lon="9.7853167"><ele>298.0</ele><time>2026-03-31T13:27:39.771Z</time></trkpt><trkpt lat="44.0914933" lon="9.7853533"><ele>300.5</ele><time>2026-03-31T13:27:40.772Z</time></trkpt><trkpt lat="44.0915783" lon="9.785375"><ele>303.0</ele><time>2026-03-31T13:27:41.771Z</time></trkpt><trkpt lat="44.0916617" lon="9.7853933"><ele>305.5</ele><time>2026-03-31T13:27:42.771Z</time></trkpt><trkpt lat="44.09174" lon="9.7854"><ele>308.0</ele><time>2026-03-31T13:27:43.772Z</time></trkpt><trkpt lat="44.09182" lon="9.785405"><ele>310.5</ele><time>2026-03-31T13:27:44.771Z</time></trkpt><trkpt lat="44.0919083" lon="9.78541"><ele>313.0</ele><time>2026-03-31T13:27:45.771Z</time></trkpt><trkpt lat="44.0919967" lon="9.78541"><ele>314.3333333333333</ele><time>2026-03-31T13:27:46.772Z</time></trkpt><trkpt lat="44.092085" lon="9.7854033"><ele>315.66666666666663</ele><time>2026-03-31T13:27:47.771Z</time></trkpt><trkpt lat="44.0921717" lon="9.7853883"><ele>317.0</ele><time>2026-03-31T13:27:48.772Z</time></trkpt><trkpt lat="44.0922517" lon="9.7853717"><ele>318.3333333333333</ele><time>2026-03-31T13:27:49.772Z</time></trkpt><trkpt lat="44.0923367" lon="9.7853617"><ele>319.6666666666667</ele><time>2026-03-31T13:27:50.771Z</time></trkpt><trkpt lat="44.0924233" lon="9.78536"><ele>321.0</ele><time>2026-03-31T13:27:51.772Z</time></trkpt><trkpt lat="44.0925217" lon="9.785365"><ele>322.4</ele><time>2026-03-31T13:27:52.771Z</time></trkpt><trkpt lat="44.09261" lon="9.7853767"><ele>323.8</ele><time>2026-03-31T13:27:53.772Z</time></trkpt><trkpt lat="44.0926917" lon="9.7853833"><ele>325.2</ele><time>2026-03-31T13:27:54.771Z</time></trkpt><trkpt lat="44.092775" lon="9.7854133"><ele>326.59999999999997</ele><time>2026-03-31T13:27:55.771Z</time></trkpt><trkpt lat="44.0928667" lon="9.7854433"><ele>328.0</ele><time>2026-03-31T13:27:56.771Z</time></trkpt><trkpt lat="44.0929633" lon="9.78548"><ele>328.0</ele><time>2026-03-31T13:27:57.771Z</time></trkpt><trkpt lat="44.0930583" lon="9.785505"><ele>328.0</ele><time>2026-03-31T13:27:58.771Z</time></trkpt><trkpt lat="44.0931533" lon="9.7855383"><ele>328.0</ele><time>2026-03-31T13:27:59.772Z</time></trkpt><trkpt lat="44.0932383" lon="9.78557"><ele>328.0</ele><time>2026-03-31T13:28:00.771Z</time></trkpt><trkpt lat="44.093325" lon="9.7856117"><ele>328.0</ele><time>2026-03-31T13:28:01.772Z</time></trkpt><trkpt lat="44.0934133" lon="9.78565"><ele>328.0</ele><time>2026-03-31T13:28:02.772Z</time></trkpt><trkpt lat="44.0934933" lon="9.7856967"><ele>328.0</ele><time>2026-03-31T13:28:03.772Z</time></trkpt><trkpt lat="44.0935717" lon="9.7857817"><ele>328.0</ele><time>2026-03-31T13:28:04.772Z</time></trkpt><trkpt lat="44.0936433" lon="9.7858833"><ele>328.0</ele><time>2026-03-31T13:28:05.772Z</time></trkpt><trkpt lat="44.09371" lon="9.78599"><ele>328.0</ele><time>2026-03-31T13:28:06.771Z</time></trkpt><trkpt lat="44.0937767" lon="9.7861067"><ele>328.0</ele><time>2026-03-31T13:28:07.772Z</time></trkpt><trkpt lat="44.0938483" lon="9.78622"><ele>328.0</ele><time>2026-03-31T13:28:08.772Z</time></trkpt><trkpt lat="44.0939167" lon="9.78632"><ele>328.0</ele><time>2026-03-31T13:28:09.772Z</time></trkpt><trkpt lat="44.0939783" lon="9.786415"><ele>328.0</ele><time>2026-03-31T13:28:10.772Z</time></trkpt><trkpt lat="44.09405" lon="9.7864967"><ele>328.0</ele><time>2026-03-31T13:28:11.771Z</time></trkpt><trkpt lat="44.0941233" lon="9.7865917"><ele>328.2</ele><time>2026-03-31T13:28:12.772Z</time></trkpt><trkpt lat="44.0942133" lon="9.7866583"><ele>328.4</ele><time>2026-03-31T13:28:13.771Z</time></trkpt><trkpt lat="44.094295" lon="9.7867217"><ele>328.59999999999997</ele><time>2026-03-31T13:28:14.772Z</time></trkpt><trkpt lat="44.09439" lon="9.7867683"><ele>328.79999999999995</ele><time>2026-03-31T13:28:15.771Z</time></trkpt><trkpt lat="44.0944933" lon="9.786805"><ele>329.0</ele><time>2026-03-31T13:28:16.771Z</time></trkpt><trkpt lat="44.0945867" lon="9.78685"><ele>329.0</ele><time>2026-03-31T13:28:17.772Z</time></trkpt><trkpt lat="44.0946817" lon="9.7868817"><ele>329.0</ele><time>2026-03-31T13:28:18.772Z</time></trkpt><trkpt lat="44.0947783" lon="9.7869267"><ele>329.0</ele><time>2026-03-31T13:28:19.772Z</time></trkpt><trkpt lat="44.0948717" lon="9.78697"><ele>329.0</ele><time>2026-03-31T13:28:20.771Z</time></trkpt><trkpt lat="44.0949617" lon="9.7870083"><ele>329.0</ele><time>2026-03-31T13:28:21.772Z</time></trkpt><trkpt lat="44.0950567" lon="9.78705"><ele>325.8</ele><time>2026-03-31T13:28:22.771Z</time></trkpt><trkpt lat="44.09515" lon="9.7870883"><ele>322.59999999999997</ele><time>2026-03-31T13:28:23.772Z</time></trkpt><trkpt lat="44.0952467" lon="9.7871133"><ele>319.4</ele><time>2026-03-31T13:28:24.771Z</time></trkpt><trkpt lat="44.0953467" lon="9.7871483"><ele>316.2</ele><time>2026-03-31T13:28:25.772Z</time></trkpt><trkpt lat="44.095445" lon="9.7871883"><ele>313.0</ele><time>2026-03-31T13:28:26.771Z</time></trkpt><trkpt lat="44.09554" lon="9.7872283"><ele>313.0</ele><time>2026-03-31T13:28:27.772Z</time></trkpt><trkpt lat="44.0956367" lon="9.7872567"><ele>313.0</ele><time>2026-03-31T13:28:28.772Z</time></trkpt><trkpt lat="44.095735" lon="9.7872917"><ele>313.0</ele><time>2026-03-31T13:28:29.772Z</time></trkpt><trkpt lat="44.0958333" lon="9.78735"><ele>313.0</ele><time>2026-03-31T13:28:30.771Z</time></trkpt><trkpt lat="44.0959317" lon="9.787405"><ele>313.0</ele><time>2026-03-31T13:28:31.771Z</time></trkpt><trkpt lat="44.096035" lon="9.7874567"><ele>315.4</ele><time>2026-03-31T13:28:32.772Z</time></trkpt><trkpt lat="44.0961317" lon="9.787515"><ele>317.8</ele><time>2026-03-31T13:28:33.772Z</time></trkpt><trkpt lat="44.0962283" lon="9.7875817"><ele>320.2</ele><time>2026-03-31T13:28:34.772Z</time></trkpt><trkpt lat="44.096325" lon="9.787645"><ele>322.6</ele><time>2026-03-31T13:28:35.771Z</time></trkpt><trkpt lat="44.0964233" lon="9.7877133"><ele>325.0</ele><time>2026-03-31T13:28:36.772Z</time></trkpt><trkpt lat="44.09652" lon="9.7877933"><ele>316.2</ele><time>2026-03-31T13:28:37.771Z</time></trkpt><trkpt lat="44.0966133" lon="9.7878783"><ele>307.4</ele><time>2026-03-31T13:28:38.771Z</time></trkpt><trkpt lat="44.0966983" lon="9.7879683"><ele>298.6</ele><time>2026-03-31T13:28:39.772Z</time></trkpt><trkpt lat="44.0967733" lon="9.7880583"><ele>289.8</ele><time>2026-03-31T13:28:40.772Z</time></trkpt><trkpt lat="44.096845" lon="9.788155"><ele>281.0</ele><time>2026-03-31T13:28:41.771Z</time></trkpt><trkpt lat="44.0969117" lon="9.7882533"><ele>281.0</ele><time>2026-03-31T13:28:42.772Z</time></trkpt><trkpt lat="44.0969733" lon="9.7883567"><ele>281.0</ele><time>2026-03-31T13:28:43.771Z</time></trkpt><trkpt lat="44.09703" lon="9.7884617"><ele>281.0</ele><time>2026-03-31T13:28:44.771Z</time></trkpt><trkpt lat="44.0970783" lon="9.7885717"><ele>281.0</ele><time>2026-03-31T13:28:45.771Z</time></trkpt><trkpt lat="44.0971233" lon="9.78869"><ele>281.0</ele><time>2026-03-31T13:28:46.772Z</time></trkpt><trkpt lat="44.0971667" lon="9.78881"><ele>285.6</ele><time>2026-03-31T13:28:47.771Z</time></trkpt><trkpt lat="44.097205" lon="9.7889333"><ele>290.20000000000005</ele><time>2026-03-31T13:28:48.772Z</time></trkpt><trkpt lat="44.0972383" lon="9.7890583"><ele>294.79999999999995</ele><time>2026-03-31T13:28:49.771Z</time></trkpt><trkpt lat="44.09726" lon="9.7891833"><ele>299.4</ele><time>2026-03-31T13:28:50.772Z</time></trkpt><trkpt lat="44.0972717" lon="9.789315"><ele>304.0</ele><time>2026-03-31T13:28:51.772Z</time></trkpt><trkpt lat="44.0972783" lon="9.7894483"><ele>305.8</ele><time>2026-03-31T13:28:52.771Z</time></trkpt><trkpt lat="44.09728" lon="9.7895817"><ele>307.59999999999997</ele><time>2026-03-31T13:28:53.772Z</time></trkpt><trkpt lat="44.09728" lon="9.78971"><ele>309.4</ele><time>2026-03-31T13:28:54.771Z</time></trkpt><trkpt lat="44.09728" lon="9.7898383"><ele>311.2</ele><time>2026-03-31T13:28:55.772Z</time></trkpt><trkpt lat="44.09728" lon="9.7899683"><ele>313.0</ele><time>2026-03-31T13:28:56.772Z</time></trkpt><trkpt lat="44.0972783" lon="9.7900983"><ele>312.2</ele><time>2026-03-31T13:28:57.771Z</time></trkpt><trkpt lat="44.0972767" lon="9.7902283"><ele>311.4</ele><time>2026-03-31T13:28:58.772Z</time></trkpt><trkpt lat="44.097275" lon="9.7903567"><ele>310.59999999999997</ele><time>2026-03-31T13:28:59.771Z</time></trkpt><trkpt lat="44.097275" lon="9.79049"><ele>309.8</ele><time>2026-03-31T13:29:00.771Z</time></trkpt><trkpt lat="44.097275" lon="9.790625"><ele>309.0</ele><time>2026-03-31T13:29:01.771Z</time></trkpt><trkpt lat="44.0972717" lon="9.7907617"><ele>309.0</ele><time>2026-03-31T13:29:02.771Z</time></trkpt><trkpt lat="44.0972667" lon="9.7909033"><ele>309.0</ele><time>2026-03-31T13:29:03.771Z</time></trkpt><trkpt lat="44.0972617" lon="9.7910417"><ele>309.0</ele><time>2026-03-31T13:29:04.771Z</time></trkpt><trkpt lat="44.0972583" lon="9.7911817"><ele>309.0</ele><time>2026-03-31T13:29:05.771Z</time></trkpt><trkpt lat="44.0972533" lon="9.79132"><ele>309.0</ele><time>2026-03-31T13:29:06.772Z</time></trkpt><trkpt lat="44.0972467" lon="9.79146"><ele>307.0</ele><time>2026-03-31T13:29:07.772Z</time></trkpt><trkpt lat="44.097245" lon="9.7916017"><ele>305.0</ele><time>2026-03-31T13:29:08.772Z</time></trkpt><trkpt lat="44.09724" lon="9.7917433"><ele>303.0</ele><time>2026-03-31T13:29:09.771Z</time></trkpt><trkpt lat="44.0972433" lon="9.7918883"><ele>301.0</ele><time>2026-03-31T13:29:10.771Z</time></trkpt><trkpt lat="44.0972483" lon="9.7920333"><ele>299.0</ele><time>2026-03-31T13:29:11.771Z</time></trkpt><trkpt lat="44.0972517" lon="9.79218"><ele>298.4</ele><time>2026-03-31T13:29:12.772Z</time></trkpt><trkpt lat="44.0972533" lon="9.7923267"><ele>297.79999999999995</ele><time>2026-03-31T13:29:13.771Z</time></trkpt><trkpt lat="44.0972517" lon="9.7924767"><ele>297.20000000000005</ele><time>2026-03-31T13:29:14.772Z</time></trkpt><trkpt lat="44.09725" lon="9.7926233"><ele>296.6</ele><time>2026-03-31T13:29:15.771Z</time></trkpt><trkpt lat="44.0972483" lon="9.792775"><ele>296.0</ele><time>2026-03-31T13:29:16.772Z</time></trkpt><trkpt lat="44.0972417" lon="9.792935"><ele>296.0</ele><time>2026-03-31T13:29:17.772Z</time></trkpt><trkpt lat="44.09724" lon="9.7930867"><ele>296.0</ele><time>2026-03-31T13:29:18.771Z</time></trkpt><trkpt lat="44.0972483" lon="9.7932333"><ele>296.0</ele><time>2026-03-31T13:29:19.772Z</time></trkpt><trkpt lat="44.0972617" lon="9.7933783"><ele>296.0</ele><time>2026-03-31T13:29:20.771Z</time></trkpt><trkpt lat="44.0972767" lon="9.7935233"><ele>296.0</ele><time>2026-03-31T13:29:21.771Z</time></trkpt><trkpt lat="44.097295" lon="9.7936683"><ele>296.2</ele><time>2026-03-31T13:29:22.771Z</time></trkpt><trkpt lat="44.097315" lon="9.7938233"><ele>296.40000000000003</ele><time>2026-03-31T13:29:23.772Z</time></trkpt><trkpt lat="44.097335" lon="9.7939767"><ele>296.6</ele><time>2026-03-31T13:29:24.772Z</time></trkpt><trkpt lat="44.097355" lon="9.7941283"><ele>296.8</ele><time>2026-03-31T13:29:25.772Z</time></trkpt><trkpt lat="44.09737" lon="9.794275"><ele>297.0</ele><time>2026-03-31T13:29:26.772Z</time></trkpt><trkpt lat="44.0973917" lon="9.79442"><ele>297.0</ele><time>2026-03-31T13:29:27.772Z</time></trkpt><trkpt lat="44.0974167" lon="9.7945733"><ele>297.0</ele><time>2026-03-31T13:29:28.772Z</time></trkpt><trkpt lat="44.0974483" lon="9.79473"><ele>297.0</ele><time>2026-03-31T13:29:29.772Z</time></trkpt><trkpt lat="44.0974583" lon="9.794885"><ele>297.0</ele><time>2026-03-31T13:29:30.771Z</time></trkpt><trkpt lat="44.0974833" lon="9.79504"><ele>286.25</ele><time>2026-03-31T13:29:31.771Z</time></trkpt><trkpt lat="44.0975183" lon="9.7951917"><ele>275.5</ele><time>2026-03-31T13:29:32.771Z</time></trkpt><trkpt lat="44.0975533" lon="9.795345"><ele>264.75</ele><time>2026-03-31T13:29:33.771Z</time></trkpt><trkpt lat="44.097595" lon="9.7954933"><ele>254.0</ele><time>2026-03-31T13:29:34.771Z</time></trkpt><trkpt lat="44.0976317" lon="9.7956417"><ele>254.0</ele><time>2026-03-31T13:29:35.771Z</time></trkpt><trkpt lat="44.0976667" lon="9.7957917"><ele>253.99999999999997</ele><time>2026-03-31T13:29:36.771Z</time></trkpt><trkpt lat="44.0976983" lon="9.7959467"><ele>253.99999999999997</ele><time>2026-03-31T13:29:37.771Z</time></trkpt><trkpt lat="44.09773" lon="9.7960817"><ele>254.0</ele><time>2026-03-31T13:29:38.771Z</time></trkpt><trkpt lat="44.097765" lon="9.79623"><ele>254.0</ele><time>2026-03-31T13:29:39.772Z</time></trkpt><trkpt lat="44.0978017" lon="9.7963767"><ele>255.2</ele><time>2026-03-31T13:29:40.772Z</time></trkpt><trkpt lat="44.097835" lon="9.7965267"><ele>256.4</ele><time>2026-03-31T13:29:41.771Z</time></trkpt><trkpt lat="44.0978833" lon="9.7966683"><ele>257.6</ele><time>2026-03-31T13:29:42.771Z</time></trkpt><trkpt lat="44.0979317" lon="9.7968083"><ele>258.8</ele><time>2026-03-31T13:29:43.771Z</time></trkpt><trkpt lat="44.0979783" lon="9.796945"><ele>260.0</ele><time>2026-03-31T13:29:44.771Z</time></trkpt><trkpt lat="44.098025" lon="9.797085"><ele>260.0</ele><time>2026-03-31T13:29:45.771Z</time></trkpt><trkpt lat="44.0980667" lon="9.7972317"><ele>260.0</ele><time>2026-03-31T13:29:46.771Z</time></trkpt><trkpt lat="44.0981017" lon="9.7973767"><ele>260.0</ele><time>2026-03-31T13:29:47.77Z</time></trkpt><trkpt lat="44.0981317" lon="9.7975267"><ele>260.0</ele><time>2026-03-31T13:29:48.771Z</time></trkpt><trkpt lat="44.0981483" lon="9.7976767"><ele>260.0</ele><time>2026-03-31T13:29:49.77Z</time></trkpt><trkpt lat="44.0981433" lon="9.7978367"><ele>255.25</ele><time>2026-03-31T13:29:50.77Z</time></trkpt><trkpt lat="44.098125" lon="9.7980017"><ele>250.5</ele><time>2026-03-31T13:29:51.771Z</time></trkpt><trkpt lat="44.0980983" lon="9.798165"><ele>245.75</ele><time>2026-03-31T13:29:52.771Z</time></trkpt><trkpt lat="44.0980417" lon="9.7983133"><ele>241.0</ele><time>2026-03-31T13:29:53.771Z</time></trkpt><trkpt lat="44.0979767" lon="9.7984533"><ele>233.0</ele><time>2026-03-31T13:29:54.77Z</time></trkpt><trkpt lat="44.097895" lon="9.798575"><ele>225.0</ele><time>2026-03-31T13:29:55.771Z</time></trkpt><trkpt lat="44.0977883" lon="9.7986867"><ele>217.0</ele><time>2026-03-31T13:29:56.77Z</time></trkpt><trkpt lat="44.0976783" lon="9.79878"><ele>209.0</ele><time>2026-03-31T13:29:57.77Z</time></trkpt><trkpt lat="44.0975533" lon="9.7988367"><ele>209.0</ele><time>2026-03-31T13:29:58.77Z</time></trkpt><trkpt lat="44.0974267" lon="9.79888"><ele>209.0</ele><time>2026-03-31T13:29:59.77Z</time></trkpt><trkpt lat="44.0972967" lon="9.7989133"><ele>209.0</ele><time>2026-03-31T13:30:00.77Z</time></trkpt><trkpt lat="44.09717" lon="9.7989333"><ele>209.0</ele><time>2026-03-31T13:30:01.77Z</time></trkpt><trkpt lat="44.097045" lon="9.7989383"><ele>211.0</ele><time>2026-03-31T13:30:02.77Z</time></trkpt><trkpt lat="44.096925" lon="9.7989333"><ele>213.0</ele><time>2026-03-31T13:30:03.77Z</time></trkpt><trkpt lat="44.0968067" lon="9.798945"><ele>215.0</ele><time>2026-03-31T13:30:04.771Z</time></trkpt><trkpt lat="44.0966883" lon="9.7989617"><ele>217.0</ele><time>2026-03-31T13:30:05.771Z</time></trkpt><trkpt lat="44.09656" lon="9.79898"><ele>219.25</ele><time>2026-03-31T13:30:06.77Z</time></trkpt><trkpt lat="44.09645" lon="9.7990167"><ele>221.5</ele><time>2026-03-31T13:30:07.77Z</time></trkpt><trkpt lat="44.09633" lon="9.799045"><ele>223.75</ele><time>2026-03-31T13:30:08.77Z</time></trkpt><trkpt lat="44.096215" lon="9.7991017"><ele>226.0</ele><time>2026-03-31T13:30:09.771Z</time></trkpt><trkpt lat="44.09611" lon="9.79918"><ele>226.0</ele><time>2026-03-31T13:30:10.77Z</time></trkpt><trkpt lat="44.096015" lon="9.79928"><ele>226.0</ele><time>2026-03-31T13:30:11.77Z</time></trkpt><trkpt lat="44.09593" lon="9.79939"><ele>226.0</ele><time>2026-03-31T13:30:12.77Z</time></trkpt><trkpt lat="44.0958617" lon="9.799505"><ele>226.0</ele><time>2026-03-31T13:30:13.77Z</time></trkpt><trkpt lat="44.0958017" lon="9.7996417"><ele>235.25</ele><time>2026-03-31T13:30:14.771Z</time></trkpt><trkpt lat="44.095745" lon="9.7997933"><ele>244.5</ele><time>2026-03-31T13:30:15.771Z</time></trkpt><trkpt lat="44.095705" lon="9.7999433"><ele>253.75</ele><time>2026-03-31T13:30:16.771Z</time></trkpt><trkpt lat="44.09568" lon="9.8001"><ele>263.0</ele><time>2026-03-31T13:30:17.771Z</time></trkpt><trkpt lat="44.09567" lon="9.8002617"><ele>263.0</ele><time>2026-03-31T13:30:18.771Z</time></trkpt><trkpt lat="44.095685" lon="9.8004117"><ele>263.0</ele><time>2026-03-31T13:30:19.771Z</time></trkpt><trkpt lat="44.0956967" lon="9.8005617"><ele>263.0</ele><time>2026-03-31T13:30:20.771Z</time></trkpt><trkpt lat="44.0957133" lon="9.8007167"><ele>263.0</ele><time>2026-03-31T13:30:21.77Z</time></trkpt><trkpt lat="44.0957383" lon="9.800875"><ele>263.0</ele><time>2026-03-31T13:30:22.77Z</time></trkpt><trkpt lat="44.0957667" lon="9.80103"><ele>253.0</ele><time>2026-03-31T13:30:23.77Z</time></trkpt><trkpt lat="44.09579" lon="9.8011767"><ele>243.0</ele><time>2026-03-31T13:30:24.77Z</time></trkpt><trkpt lat="44.0958217" lon="9.8013267"><ele>233.0</ele><time>2026-03-31T13:30:25.771Z</time></trkpt><trkpt lat="44.0958483" lon="9.8014733"><ele>223.0</ele><time>2026-03-31T13:30:26.77Z</time></trkpt><trkpt lat="44.0958767" lon="9.80162"><ele>213.0</ele><time>2026-03-31T13:30:27.771Z</time></trkpt><trkpt lat="44.0958983" lon="9.8017717"><ele>213.2</ele><time>2026-03-31T13:30:28.771Z</time></trkpt><trkpt lat="44.09591" lon="9.8019217"><ele>213.4</ele><time>2026-03-31T13:30:29.771Z</time></trkpt><trkpt lat="44.0959233" lon="9.80207"><ele>213.59999999999997</ele><time>2026-03-31T13:30:30.771Z</time></trkpt><trkpt lat="44.0959367" lon="9.8022183"><ele>213.79999999999998</ele><time>2026-03-31T13:30:31.771Z</time></trkpt><trkpt lat="44.0959417" lon="9.8023733"><ele>214.0</ele><time>2026-03-31T13:30:32.77Z</time></trkpt><trkpt lat="44.0959317" lon="9.8025267"><ele>213.2</ele><time>2026-03-31T13:30:33.771Z</time></trkpt><trkpt lat="44.09591" lon="9.8026767"><ele>212.39999999999998</ele><time>2026-03-31T13:30:34.77Z</time></trkpt><trkpt lat="44.0958767" lon="9.8028233"><ele>211.6</ele><time>2026-03-31T13:30:35.77Z</time></trkpt><trkpt lat="44.0958367" lon="9.8029617"><ele>210.8</ele><time>2026-03-31T13:30:36.77Z</time></trkpt><trkpt lat="44.0957783" lon="9.803095"><ele>210.0</ele><time>2026-03-31T13:30:37.771Z</time></trkpt><trkpt lat="44.0957133" lon="9.80322"><ele>210.0</ele><time>2026-03-31T13:30:38.771Z</time></trkpt><trkpt lat="44.09564" lon="9.8033317"><ele>210.0</ele><time>2026-03-31T13:30:39.771Z</time></trkpt><trkpt lat="44.0955667" lon="9.80344"><ele>210.0</ele><time>2026-03-31T13:30:40.77Z</time></trkpt><trkpt lat="44.095485" lon="9.803535"><ele>210.0</ele><time>2026-03-31T13:30:41.77Z</time></trkpt><trkpt lat="44.0953867" lon="9.8036133"><ele>210.0</ele><time>2026-03-31T13:30:42.77Z</time></trkpt><trkpt lat="44.0952867" lon="9.8036767"><ele>205.25</ele><time>2026-03-31T13:30:43.771Z</time></trkpt><trkpt lat="44.09518" lon="9.803725"><ele>200.5</ele><time>2026-03-31T13:30:44.771Z</time></trkpt><trkpt lat="44.0950667" lon="9.80376"><ele>195.75</ele><time>2026-03-31T13:30:45.77Z</time></trkpt><trkpt lat="44.09494" lon="9.803785"><ele>191.0</ele><time>2026-03-31T13:30:46.77Z</time></trkpt><trkpt lat="44.09482" lon="9.8037883"><ele>191.0</ele><time>2026-03-31T13:30:47.771Z</time></trkpt><trkpt lat="44.0947133" lon="9.80378"><ele>191.0</ele><time>2026-03-31T13:30:48.771Z</time></trkpt><trkpt lat="44.094615" lon="9.8037683"><ele>191.0</ele><time>2026-03-31T13:30:49.771Z</time></trkpt><trkpt lat="44.0945133" lon="9.803765"><ele>191.0</ele><time>2026-03-31T13:30:50.77Z</time></trkpt><trkpt lat="44.094405" lon="9.8037517"><ele>191.0</ele><time>2026-03-31T13:30:51.771Z</time></trkpt><trkpt lat="44.0942983" lon="9.80374"><ele>191.0</ele><time>2026-03-31T13:30:52.771Z</time></trkpt><trkpt lat="44.0942" lon="9.8037333"><ele>191.0</ele><time>2026-03-31T13:30:53.77Z</time></trkpt><trkpt lat="44.0941033" lon="9.8037233"><ele>191.0</ele><time>2026-03-31T13:30:54.77Z</time></trkpt><trkpt lat="44.0940083" lon="9.8037217"><ele>191.0</ele><time>2026-03-31T13:30:55.771Z</time></trkpt><trkpt lat="44.0939167" lon="9.80371"><ele>191.0</ele><time>2026-03-31T13:30:56.77Z</time></trkpt><trkpt lat="44.0938267" lon="9.8036967"><ele>189.60000000000002</ele><time>2026-03-31T13:30:57.77Z</time></trkpt><trkpt lat="44.09373" lon="9.80369"><ele>188.2</ele><time>2026-03-31T13:30:58.77Z</time></trkpt><trkpt lat="44.093635" lon="9.8036833"><ele>186.8</ele><time>2026-03-31T13:30:59.771Z</time></trkpt><trkpt lat="44.0935383" lon="9.8036767"><ele>185.39999999999998</ele><time>2026-03-31T13:31:00.771Z</time></trkpt><trkpt lat="44.09343" lon="9.8036683"><ele>184.0</ele><time>2026-03-31T13:31:01.771Z</time></trkpt><trkpt lat="44.0933183" lon="9.80366"><ele>182.0</ele><time>2026-03-31T13:31:02.771Z</time></trkpt><trkpt lat="44.09321" lon="9.803645"><ele>180.0</ele><time>2026-03-31T13:31:03.77Z</time></trkpt><trkpt lat="44.0931017" lon="9.8036283"><ele>178.0</ele><time>2026-03-31T13:31:04.771Z</time></trkpt><trkpt lat="44.0929917" lon="9.8036233"><ele>176.0</ele><time>2026-03-31T13:31:05.771Z</time></trkpt><trkpt lat="44.09288" lon="9.803625"><ele>174.0</ele><time>2026-03-31T13:31:06.771Z</time></trkpt><trkpt lat="44.0927667" lon="9.80362"><ele>174.0</ele><time>2026-03-31T13:31:07.77Z</time></trkpt><trkpt lat="44.0926583" lon="9.8036117"><ele>174.0</ele><time>2026-03-31T13:31:08.77Z</time></trkpt><trkpt lat="44.0925617" lon="9.8035983"><ele>174.0</ele><time>2026-03-31T13:31:09.771Z</time></trkpt><trkpt lat="44.0924583" lon="9.8035783"><ele>174.0</ele><time>2026-03-31T13:31:10.77Z</time></trkpt><trkpt lat="44.0923533" lon="9.8035617"><ele>174.0</ele><time>2026-03-31T13:31:11.77Z</time></trkpt><trkpt lat="44.09224" lon="9.8035483"><ele>172.2</ele><time>2026-03-31T13:31:12.77Z</time></trkpt><trkpt lat="44.0921333" lon="9.80355"><ele>170.39999999999998</ele><time>2026-03-31T13:31:13.77Z</time></trkpt><trkpt lat="44.09203" lon="9.8035433"><ele>168.6</ele><time>2026-03-31T13:31:14.77Z</time></trkpt><trkpt lat="44.09192" lon="9.8035283"><ele>166.8</ele><time>2026-03-31T13:31:15.771Z</time></trkpt><trkpt lat="44.0918083" lon="9.8035133"><ele>165.0</ele><time>2026-03-31T13:31:16.771Z</time></trkpt><trkpt lat="44.0917" lon="9.8035"><ele>166.0</ele><time>2026-03-31T13:31:17.771Z</time></trkpt><trkpt lat="44.0915867" lon="9.80347"><ele>167.0</ele><time>2026-03-31T13:31:18.77Z</time></trkpt><trkpt lat="44.0914767" lon="9.8034217"><ele>168.0</ele><time>2026-03-31T13:31:19.77Z</time></trkpt><trkpt lat="44.09137" lon="9.8033667"><ele>169.0</ele><time>2026-03-31T13:31:20.77Z</time></trkpt><trkpt lat="44.0912683" lon="9.8032833"><ele>169.0</ele><time>2026-03-31T13:31:21.77Z</time></trkpt><trkpt lat="44.091175" lon="9.8032"><ele>169.0</ele><time>2026-03-31T13:31:22.771Z</time></trkpt><trkpt lat="44.0910883" lon="9.8030983"><ele>169.0</ele><time>2026-03-31T13:31:23.77Z</time></trkpt><trkpt lat="44.0910017" lon="9.802995"><ele>169.0</ele><time>2026-03-31T13:31:24.771Z</time></trkpt><trkpt lat="44.0909117" lon="9.8028917"><ele>169.0</ele><time>2026-03-31T13:31:25.771Z</time></trkpt><trkpt lat="44.09082" lon="9.8027833"><ele>169.0</ele><time>2026-03-31T13:31:26.77Z</time></trkpt><trkpt lat="44.09073" lon="9.802675"><ele>169.0</ele><time>2026-03-31T13:31:27.771Z</time></trkpt><trkpt lat="44.0906383" lon="9.8025633"><ele>169.0</ele><time>2026-03-31T13:31:28.77Z</time></trkpt><trkpt lat="44.09055" lon="9.8024467"><ele>169.75</ele><time>2026-03-31T13:31:29.77Z</time></trkpt><trkpt lat="44.0904533" lon="9.802325"><ele>170.5</ele><time>2026-03-31T13:31:30.771Z</time></trkpt><trkpt lat="44.0903533" lon="9.802215"><ele>171.25</ele><time>2026-03-31T13:31:31.771Z</time></trkpt><trkpt lat="44.0902583" lon="9.8021"><ele>172.0</ele><time>2026-03-31T13:31:32.771Z</time></trkpt><trkpt lat="44.090155" lon="9.8020083"><ele>172.0</ele><time>2026-03-31T13:31:33.771Z</time></trkpt><trkpt lat="44.09005" lon="9.8019383"><ele>172.0</ele><time>2026-03-31T13:31:34.771Z</time></trkpt><trkpt lat="44.0899383" lon="9.80189"><ele>172.0</ele><time>2026-03-31T13:31:35.771Z</time></trkpt><trkpt lat="44.089825" lon="9.8018667"><ele>172.0</ele><time>2026-03-31T13:31:36.771Z</time></trkpt><trkpt lat="44.089715" lon="9.8018717"><ele>173.0</ele><time>2026-03-31T13:31:37.771Z</time></trkpt><trkpt lat="44.08961" lon="9.8018933"><ele>174.0</ele><time>2026-03-31T13:31:38.77Z</time></trkpt><trkpt lat="44.0895117" lon="9.8019433"><ele>175.0</ele><time>2026-03-31T13:31:39.77Z</time></trkpt><trkpt lat="44.089425" lon="9.802025"><ele>176.0</ele><time>2026-03-31T13:31:40.771Z</time></trkpt><trkpt lat="44.0893383" lon="9.8021283"><ele>177.0</ele><time>2026-03-31T13:31:41.77Z</time></trkpt><trkpt lat="44.0892583" lon="9.8022333"><ele>177.0</ele><time>2026-03-31T13:31:42.771Z</time></trkpt><trkpt lat="44.089195" lon="9.802355"><ele>177.0</ele><time>2026-03-31T13:31:43.771Z</time></trkpt><trkpt lat="44.0891467" lon="9.8024933"><ele>177.0</ele><time>2026-03-31T13:31:44.771Z</time></trkpt><trkpt lat="44.0891067" lon="9.8026367"><ele>177.0</ele><time>2026-03-31T13:31:45.771Z</time></trkpt><trkpt lat="44.0890783" lon="9.802775"><ele>177.0</ele><time>2026-03-31T13:31:46.771Z</time></trkpt><trkpt lat="44.0890717" lon="9.80293"><ele>178.25</ele><time>2026-03-31T13:31:47.771Z</time></trkpt><trkpt lat="44.0890783" lon="9.8030833"><ele>179.5</ele><time>2026-03-31T13:31:48.771Z</time></trkpt><trkpt lat="44.0891033" lon="9.8032467"><ele>180.75</ele><time>2026-03-31T13:31:49.77Z</time></trkpt><trkpt lat="44.0891533" lon="9.8033917"><ele>182.0</ele><time>2026-03-31T13:31:50.771Z</time></trkpt><trkpt lat="44.08923" lon="9.8035233"><ele>184.0</ele><time>2026-03-31T13:31:51.771Z</time></trkpt><trkpt lat="44.08931" lon="9.8036517"><ele>186.0</ele><time>2026-03-31T13:31:52.77Z</time></trkpt><trkpt lat="44.08939" lon="9.8037733"><ele>188.0</ele><time>2026-03-31T13:31:53.77Z</time></trkpt><trkpt lat="44.0894833" lon="9.8038783"><ele>190.0</ele><time>2026-03-31T13:31:54.77Z</time></trkpt><trkpt lat="44.0895767" lon="9.803995"><ele>190.0</ele><time>2026-03-31T13:31:55.77Z</time></trkpt><trkpt lat="44.0896717" lon="9.8041167"><ele>190.0</ele><time>2026-03-31T13:31:56.771Z</time></trkpt><trkpt lat="44.0897533" lon="9.8042383"><ele>190.0</ele><time>2026-03-31T13:31:57.77Z</time></trkpt><trkpt lat="44.0898217" lon="9.8043883"><ele>190.0</ele><time>2026-03-31T13:31:58.771Z</time></trkpt><trkpt lat="44.0898733" lon="9.8045517"><ele>191.5</ele><time>2026-03-31T13:31:59.771Z</time></trkpt><trkpt lat="44.08991" lon="9.80472"><ele>193.0</ele><time>2026-03-31T13:32:00.77Z</time></trkpt><trkpt lat="44.08993" lon="9.8048917"><ele>194.5</ele><time>2026-03-31T13:32:01.77Z</time></trkpt><trkpt lat="44.0899333" lon="9.8050733"><ele>196.0</ele><time>2026-03-31T13:32:02.77Z</time></trkpt><trkpt lat="44.08993" lon="9.805245"><ele>195.5</ele><time>2026-03-31T13:32:03.77Z</time></trkpt><trkpt lat="44.089915" lon="9.8054117"><ele>195.0</ele><time>2026-03-31T13:32:04.771Z</time></trkpt><trkpt lat="44.0898933" lon="9.8055833"><ele>194.5</ele><time>2026-03-31T13:32:05.77Z</time></trkpt><trkpt lat="44.0898683" lon="9.8057433"><ele>194.0</ele><time>2026-03-31T13:32:06.771Z</time></trkpt><trkpt lat="44.0898583" lon="9.8059083"><ele>192.75</ele><time>2026-03-31T13:32:07.771Z</time></trkpt><trkpt lat="44.0898483" lon="9.8060783"><ele>191.5</ele><time>2026-03-31T13:32:08.771Z</time></trkpt><trkpt lat="44.0898333" lon="9.8062483"><ele>190.25</ele><time>2026-03-31T13:32:09.771Z</time></trkpt><trkpt lat="44.089815" lon="9.806425"><ele>189.0</ele><time>2026-03-31T13:32:10.771Z</time></trkpt><trkpt lat="44.0898067" lon="9.8065967"><ele>189.0</ele><time>2026-03-31T13:32:11.771Z</time></trkpt><trkpt lat="44.0898217" lon="9.8067617"><ele>189.0</ele><time>2026-03-31T13:32:12.771Z</time></trkpt><trkpt lat="44.0898517" lon="9.80692"><ele>189.0</ele><time>2026-03-31T13:32:13.771Z</time></trkpt><trkpt lat="44.0898917" lon="9.8070783"><ele>189.0</ele><time>2026-03-31T13:32:14.77Z</time></trkpt><trkpt lat="44.0899467" lon="9.8072267"><ele>185.0</ele><time>2026-03-31T13:32:15.771Z</time></trkpt><trkpt lat="44.09002" lon="9.8073683"><ele>181.0</ele><time>2026-03-31T13:32:16.771Z</time></trkpt><trkpt lat="44.09009" lon="9.807505"><ele>177.0</ele><time>2026-03-31T13:32:17.771Z</time></trkpt><trkpt lat="44.09016" lon="9.8076283"><ele>173.0</ele><time>2026-03-31T13:32:18.771Z</time></trkpt><trkpt lat="44.09023" lon="9.807755"><ele>173.0</ele><time>2026-03-31T13:32:19.77Z</time></trkpt><trkpt lat="44.0903117" lon="9.8078717"><ele>173.0</ele><time>2026-03-31T13:32:20.771Z</time></trkpt><trkpt lat="44.0903883" lon="9.807985"><ele>173.0</ele><time>2026-03-31T13:32:21.77Z</time></trkpt><trkpt lat="44.0904683" lon="9.8080983"><ele>173.0</ele><time>2026-03-31T13:32:22.771Z</time></trkpt><trkpt lat="44.09056" lon="9.8082067"><ele>173.0</ele><time>2026-03-31T13:32:23.77Z</time></trkpt><trkpt lat="44.0906517" lon="9.808305"><ele>173.0</ele><time>2026-03-31T13:32:24.771Z</time></trkpt><trkpt lat="44.09074" lon="9.80842"><ele>173.0</ele><time>2026-03-31T13:32:25.77Z</time></trkpt><trkpt lat="44.09082" lon="9.8085317"><ele>173.0</ele><time>2026-03-31T13:32:26.771Z</time></trkpt><trkpt lat="44.090895" lon="9.8086317"><ele>169.5</ele><time>2026-03-31T13:32:27.77Z</time></trkpt><trkpt lat="44.090955" lon="9.8087317"><ele>166.0</ele><time>2026-03-31T13:32:28.77Z</time></trkpt><trkpt lat="44.091015" lon="9.80882"><ele>162.5</ele><time>2026-03-31T13:32:29.771Z</time></trkpt><trkpt lat="44.0910717" lon="9.8089083"><ele>159.0</ele><time>2026-03-31T13:32:30.77Z</time></trkpt><trkpt lat="44.0911233" lon="9.8089967"><ele>155.5</ele><time>2026-03-31T13:32:31.77Z</time></trkpt><trkpt lat="44.0911783" lon="9.80909"><ele>152.0</ele><time>2026-03-31T13:32:32.77Z</time></trkpt><trkpt lat="44.0912333" lon="9.8091867"><ele>152.0</ele><time>2026-03-31T13:32:33.771Z</time></trkpt><trkpt lat="44.091285" lon="9.8092867"><ele>152.0</ele><time>2026-03-31T13:32:34.771Z</time></trkpt><trkpt lat="44.0913333" lon="9.8093983"><ele>152.0</ele><time>2026-03-31T13:32:35.77Z</time></trkpt><trkpt lat="44.0913783" lon="9.8095067"><ele>152.0</ele><time>2026-03-31T13:32:36.771Z</time></trkpt><trkpt lat="44.09141" lon="9.8096283"><ele>152.0</ele><time>2026-03-31T13:32:37.771Z</time></trkpt><trkpt lat="44.0914333" lon="9.809755"><ele>152.2</ele><time>2026-03-31T13:32:38.77Z</time></trkpt><trkpt lat="44.09145" lon="9.8098833"><ele>152.39999999999998</ele><time>2026-03-31T13:32:39.77Z</time></trkpt><trkpt lat="44.0914467" lon="9.8100217"><ele>152.60000000000002</ele><time>2026-03-31T13:32:40.77Z</time></trkpt><trkpt lat="44.0914317" lon="9.8101617"><ele>152.8</ele><time>2026-03-31T13:32:41.77Z</time></trkpt><trkpt lat="44.0914167" lon="9.810295"><ele>153.0</ele><time>2026-03-31T13:32:42.77Z</time></trkpt><trkpt lat="44.091395" lon="9.81042"><ele>150.6</ele><time>2026-03-31T13:32:43.77Z</time></trkpt><trkpt lat="44.0913617" lon="9.8105483"><ele>148.20000000000002</ele><time>2026-03-31T13:32:44.771Z</time></trkpt><trkpt lat="44.09132" lon="9.8106717"><ele>145.8</ele><time>2026-03-31T13:32:45.77Z</time></trkpt><trkpt lat="44.0912683" lon="9.81078"><ele>143.4</ele><time>2026-03-31T13:32:46.771Z</time></trkpt><trkpt lat="44.0911933" lon="9.81089"><ele>141.0</ele><time>2026-03-31T13:32:47.77Z</time></trkpt><trkpt lat="44.0911067" lon="9.8109983"><ele>137.2</ele><time>2026-03-31T13:32:48.771Z</time></trkpt><trkpt lat="44.0910133" lon="9.81108"><ele>133.39999999999998</ele><time>2026-03-31T13:32:49.77Z</time></trkpt><trkpt lat="44.0909117" lon="9.8111433"><ele>129.6</ele><time>2026-03-31T13:32:50.771Z</time></trkpt><trkpt lat="44.0908083" lon="9.8111883"><ele>125.8</ele><time>2026-03-31T13:32:51.77Z</time></trkpt><trkpt lat="44.0907067" lon="9.8112233"><ele>122.0</ele><time>2026-03-31T13:32:52.77Z</time></trkpt><trkpt lat="44.0905917" lon="9.8112433"><ele>122.0</ele><time>2026-03-31T13:32:53.77Z</time></trkpt><trkpt lat="44.090485" lon="9.8112567"><ele>121.99999999999999</ele><time>2026-03-31T13:32:54.77Z</time></trkpt><trkpt lat="44.0903833" lon="9.811265"><ele>121.99999999999999</ele><time>2026-03-31T13:32:55.77Z</time></trkpt><trkpt lat="44.0902817" lon="9.8112783"><ele>122.0</ele><time>2026-03-31T13:32:56.77Z</time></trkpt><trkpt lat="44.0901733" lon="9.8113"><ele>122.0</ele><time>2026-03-31T13:32:57.771Z</time></trkpt><trkpt lat="44.09006" lon="9.811335"><ele>122.0</ele><time>2026-03-31T13:32:58.77Z</time></trkpt><trkpt lat="44.0899467" lon="9.8113817"><ele>121.99999999999999</ele><time>2026-03-31T13:32:59.771Z</time></trkpt><trkpt lat="44.0898433" lon="9.81144"><ele>121.99999999999999</ele><time>2026-03-31T13:33:00.77Z</time></trkpt><trkpt lat="44.0897483" lon="9.8115033"><ele>122.0</ele><time>2026-03-31T13:33:01.77Z</time></trkpt><trkpt lat="44.0896567" lon="9.8115783"><ele>122.0</ele><time>2026-03-31T13:33:02.771Z</time></trkpt><trkpt lat="44.0895617" lon="9.8116567"><ele>123.6</ele><time>2026-03-31T13:33:03.77Z</time></trkpt><trkpt lat="44.0894667" lon="9.811735"><ele>125.19999999999999</ele><time>2026-03-31T13:33:04.77Z</time></trkpt><trkpt lat="44.0893733" lon="9.81182"><ele>126.8</ele><time>2026-03-31T13:33:05.77Z</time></trkpt><trkpt lat="44.089285" lon="9.8119167"><ele>128.4</ele><time>2026-03-31T13:33:06.77Z</time></trkpt><trkpt lat="44.0891983" lon="9.8120033"><ele>130.0</ele><time>2026-03-31T13:33:07.77Z</time></trkpt><trkpt lat="44.0891" lon="9.81208"><ele>122.25</ele><time>2026-03-31T13:33:08.77Z</time></trkpt><trkpt lat="44.0889967" lon="9.8121583"><ele>114.5</ele><time>2026-03-31T13:33:09.771Z</time></trkpt><trkpt lat="44.0889" lon="9.812225"><ele>106.75</ele><time>2026-03-31T13:33:10.771Z</time></trkpt><trkpt lat="44.0887933" lon="9.8122817"><ele>99.0</ele><time>2026-03-31T13:33:11.771Z</time></trkpt><trkpt lat="44.088675" lon="9.8123233"><ele>99.0</ele><time>2026-03-31T13:33:12.771Z</time></trkpt><trkpt lat="44.0885667" lon="9.8123683"><ele>99.0</ele><time>2026-03-31T13:33:13.77Z</time></trkpt><trkpt lat="44.0884667" lon="9.8123917"><ele>99.0</ele><time>2026-03-31T13:33:14.771Z</time></trkpt><trkpt lat="44.0883417" lon="9.8123767"><ele>99.0</ele><time>2026-03-31T13:33:15.771Z</time></trkpt><trkpt lat="44.0882167" lon="9.8123567"><ele>101.25</ele><time>2026-03-31T13:33:16.77Z</time></trkpt><trkpt lat="44.0880867" lon="9.8123183"><ele>103.5</ele><time>2026-03-31T13:33:17.771Z</time></trkpt><trkpt lat="44.087965" lon="9.8122967"><ele>105.75</ele><time>2026-03-31T13:33:18.771Z</time></trkpt><trkpt lat="44.0878317" lon="9.8122917"><ele>108.0</ele><time>2026-03-31T13:33:19.771Z</time></trkpt><trkpt lat="44.0877033" lon="9.81231"><ele>108.0</ele><time>2026-03-31T13:33:20.771Z</time></trkpt><trkpt lat="44.0875767" lon="9.8123233"><ele>108.0</ele><time>2026-03-31T13:33:21.771Z</time></trkpt><trkpt lat="44.0874533" lon="9.81234"><ele>108.0</ele><time>2026-03-31T13:33:22.77Z</time></trkpt><trkpt lat="44.087335" lon="9.8123567"><ele>108.0</ele><time>2026-03-31T13:33:23.771Z</time></trkpt><trkpt lat="44.0872133" lon="9.812365"><ele>104.25</ele><time>2026-03-31T13:33:24.771Z</time></trkpt><trkpt lat="44.0870867" lon="9.8123567"><ele>100.5</ele><time>2026-03-31T13:33:25.77Z</time></trkpt><trkpt lat="44.0869617" lon="9.8123217"><ele>96.75</ele><time>2026-03-31T13:33:26.77Z</time></trkpt><trkpt lat="44.0868417" lon="9.8122617"><ele>93.0</ele><time>2026-03-31T13:33:27.771Z</time></trkpt><trkpt lat="44.08673" lon="9.81218"><ele>93.0</ele><time>2026-03-31T13:33:28.77Z</time></trkpt><trkpt lat="44.0866283" lon="9.8120633"><ele>93.0</ele><time>2026-03-31T13:33:29.771Z</time></trkpt><trkpt lat="44.0865417" lon="9.8119317"><ele>93.0</ele><time>2026-03-31T13:33:30.771Z</time></trkpt><trkpt lat="44.0864617" lon="9.8118017"><ele>93.0</ele><time>2026-03-31T13:33:31.77Z</time></trkpt><trkpt lat="44.086385" lon="9.8116783"><ele>95.4</ele><time>2026-03-31T13:33:32.77Z</time></trkpt><trkpt lat="44.08631" lon="9.8115683"><ele>97.80000000000001</ele><time>2026-03-31T13:33:33.771Z</time></trkpt><trkpt lat="44.086245" lon="9.81148"><ele>100.2</ele><time>2026-03-31T13:33:34.771Z</time></trkpt><trkpt lat="44.086155" lon="9.8113917"><ele>102.6</ele><time>2026-03-31T13:33:35.771Z</time></trkpt><trkpt lat="44.08607" lon="9.81136"><ele>105.0</ele><time>2026-03-31T13:33:36.771Z</time></trkpt><trkpt lat="44.0859667" lon="9.8113617"><ele>105.0</ele><time>2026-03-31T13:33:37.77Z</time></trkpt><trkpt lat="44.08587" lon="9.8114033"><ele>105.0</ele><time>2026-03-31T13:33:38.77Z</time></trkpt><trkpt lat="44.0857783" lon="9.811475"><ele>105.0</ele><time>2026-03-31T13:33:39.771Z</time></trkpt><trkpt lat="44.0857117" lon="9.8115683"><ele>105.0</ele><time>2026-03-31T13:33:40.771Z</time></trkpt><trkpt lat="44.0856683" lon="9.811685"><ele>105.0</ele><time>2026-03-31T13:33:41.771Z</time></trkpt><trkpt lat="44.08565" lon="9.811805"><ele>98.8</ele><time>2026-03-31T13:33:42.77Z</time></trkpt><trkpt lat="44.0856567" lon="9.8119183"><ele>92.6</ele><time>2026-03-31T13:33:43.77Z</time></trkpt><trkpt lat="44.0856883" lon="9.8120367"><ele>86.4</ele><time>2026-03-31T13:33:44.77Z</time></trkpt><trkpt lat="44.08574" lon="9.812135"><ele>80.2</ele><time>2026-03-31T13:33:45.771Z</time></trkpt><trkpt lat="44.0858267" lon="9.8122083"><ele>74.0</ele><time>2026-03-31T13:33:46.77Z</time></trkpt><trkpt lat="44.0859183" lon="9.8122433"><ele>74.0</ele><time>2026-03-31T13:33:47.77Z</time></trkpt><trkpt lat="44.0860033" lon="9.8122667"><ele>74.0</ele><time>2026-03-31T13:33:48.77Z</time></trkpt><trkpt lat="44.0860917" lon="9.81227"><ele>74.0</ele><time>2026-03-31T13:33:49.771Z</time></trkpt><trkpt lat="44.0861817" lon="9.812275"><ele>74.0</ele><time>2026-03-31T13:33:50.771Z</time></trkpt><trkpt lat="44.0862733" lon="9.8123017"><ele>74.0</ele><time>2026-03-31T13:33:51.771Z</time></trkpt><trkpt lat="44.0863683" lon="9.8123533"><ele>74.0</ele><time>2026-03-31T13:33:52.77Z</time></trkpt><trkpt lat="44.0864633" lon="9.8124167"><ele>74.0</ele><time>2026-03-31T13:33:53.77Z</time></trkpt><trkpt lat="44.0865683" lon="9.8124833"><ele>74.0</ele><time>2026-03-31T13:33:54.77Z</time></trkpt><trkpt lat="44.0866667" lon="9.8125517"><ele>74.0</ele><time>2026-03-31T13:33:55.771Z</time></trkpt><trkpt lat="44.0867633" lon="9.8126133"><ele>74.0</ele><time>2026-03-31T13:33:56.77Z</time></trkpt><trkpt lat="44.0868583" lon="9.8126633"><ele>71.2</ele><time>2026-03-31T13:33:57.77Z</time></trkpt><trkpt lat="44.0869533" lon="9.8127017"><ele>68.4</ele><time>2026-03-31T13:33:58.77Z</time></trkpt><trkpt lat="44.0870417" lon="9.8127283"><ele>65.6</ele><time>2026-03-31T13:33:59.771Z</time></trkpt><trkpt lat="44.0871233" lon="9.8127333"><ele>62.8</ele><time>2026-03-31T13:34:00.77Z</time></trkpt><trkpt lat="44.0872133" lon="9.8127333"><ele>60.0</ele><time>2026-03-31T13:34:01.77Z</time></trkpt><trkpt lat="44.08732" lon="9.812735"><ele>60.0</ele><time>2026-03-31T13:34:02.77Z</time></trkpt><trkpt lat="44.0874117" lon="9.812715"><ele>60.0</ele><time>2026-03-31T13:34:03.771Z</time></trkpt><trkpt lat="44.0874967" lon="9.8127"><ele>60.0</ele><time>2026-03-31T13:34:04.771Z</time></trkpt><trkpt lat="44.08758" lon="9.8126767"><ele>60.0</ele><time>2026-03-31T13:34:05.77Z</time></trkpt><trkpt lat="44.0876767" lon="9.8126667"><ele>60.0</ele><time>2026-03-31T13:34:06.771Z</time></trkpt><trkpt lat="44.0877683" lon="9.8126517"><ele>67.8</ele><time>2026-03-31T13:34:07.771Z</time></trkpt><trkpt lat="44.08787" lon="9.8126383"><ele>75.6</ele><time>2026-03-31T13:34:08.771Z</time></trkpt><trkpt lat="44.0879833" lon="9.812635"><ele>83.4</ele><time>2026-03-31T13:34:09.771Z</time></trkpt><trkpt lat="44.0880917" lon="9.8126417"><ele>91.2</ele><time>2026-03-31T13:34:10.771Z</time></trkpt><trkpt lat="44.0881917" lon="9.8126433"><ele>99.0</ele><time>2026-03-31T13:34:11.77Z</time></trkpt><trkpt lat="44.088295" lon="9.812655"><ele>87.0</ele><time>2026-03-31T13:34:12.771Z</time></trkpt><trkpt lat="44.0884117" lon="9.812685"><ele>75.0</ele><time>2026-03-31T13:34:13.77Z</time></trkpt><trkpt lat="44.0885167" lon="9.8127067"><ele>63.0</ele><time>2026-03-31T13:34:14.77Z</time></trkpt><trkpt lat="44.0886317" lon="9.8127533"><ele>51.0</ele><time>2026-03-31T13:34:15.771Z</time></trkpt><trkpt lat="44.0887517" lon="9.812805"><ele>51.0</ele><time>2026-03-31T13:34:16.771Z</time></trkpt><trkpt lat="44.0888467" lon="9.8128483"><ele>51.0</ele><time>2026-03-31T13:34:17.771Z</time></trkpt><trkpt lat="44.0889567" lon="9.8129"><ele>51.0</ele><time>2026-03-31T13:34:18.771Z</time></trkpt><trkpt lat="44.0890667" lon="9.8129417"><ele>51.0</ele><time>2026-03-31T13:34:19.77Z</time></trkpt><trkpt lat="44.089185" lon="9.81296"><ele>51.0</ele><time>2026-03-31T13:34:20.77Z</time></trkpt><trkpt lat="44.0892967" lon="9.8129617"><ele>53.5</ele><time>2026-03-31T13:34:21.77Z</time></trkpt><trkpt lat="44.0894117" lon="9.81294"><ele>56.0</ele><time>2026-03-31T13:34:22.77Z</time></trkpt><trkpt lat="44.08952" lon="9.812895"><ele>58.5</ele><time>2026-03-31T13:34:23.77Z</time></trkpt><trkpt lat="44.0896317" lon="9.8128383"><ele>61.0</ele><time>2026-03-31T13:34:24.77Z</time></trkpt><trkpt lat="44.0897333" lon="9.81277"><ele>61.0</ele><time>2026-03-31T13:34:25.77Z</time></trkpt><trkpt lat="44.0898417" lon="9.81269"><ele>61.0</ele><time>2026-03-31T13:34:26.771Z</time></trkpt><trkpt lat="44.0899433" lon="9.8126"><ele>61.0</ele><time>2026-03-31T13:34:27.771Z</time></trkpt><trkpt lat="44.0900517" lon="9.8125233"><ele>61.0</ele><time>2026-03-31T13:34:28.77Z</time></trkpt><trkpt lat="44.0901667" lon="9.81249"><ele>59.25</ele><time>2026-03-31T13:34:29.771Z</time></trkpt><trkpt lat="44.0902917" lon="9.8124883"><ele>57.5</ele><time>2026-03-31T13:34:30.771Z</time></trkpt><trkpt lat="44.0904183" lon="9.8125167"><ele>55.75</ele><time>2026-03-31T13:34:31.771Z</time></trkpt><trkpt lat="44.0905483" lon="9.81258"><ele>54.0</ele><time>2026-03-31T13:34:32.771Z</time></trkpt><trkpt lat="44.09067" lon="9.8126683"><ele>55.25</ele><time>2026-03-31T13:34:33.771Z</time></trkpt><trkpt lat="44.09076" lon="9.8127883"><ele>56.5</ele><time>2026-03-31T13:34:34.771Z</time></trkpt><trkpt lat="44.090845" lon="9.81294"><ele>57.75</ele><time>2026-03-31T13:34:35.771Z</time></trkpt><trkpt lat="44.0909167" lon="9.8130917"><ele>59.0</ele><time>2026-03-31T13:34:36.77Z</time></trkpt><trkpt lat="44.090985" lon="9.8132417"><ele>59.0</ele><time>2026-03-31T13:34:37.771Z</time></trkpt><trkpt lat="44.0910617" lon="9.8133883"><ele>59.0</ele><time>2026-03-31T13:34:38.77Z</time></trkpt><trkpt lat="44.0911367" lon="9.8135333"><ele>59.0</ele><time>2026-03-31T13:34:39.77Z</time></trkpt><trkpt lat="44.0912117" lon="9.8136717"><ele>59.0</ele><time>2026-03-31T13:34:40.771Z</time></trkpt><trkpt lat="44.0912933" lon="9.8138067"><ele>59.75</ele><time>2026-03-31T13:34:41.77Z</time></trkpt><trkpt lat="44.0913683" lon="9.813935"><ele>60.5</ele><time>2026-03-31T13:34:42.771Z</time></trkpt><trkpt lat="44.09145" lon="9.8140583"><ele>61.25</ele><time>2026-03-31T13:34:43.77Z</time></trkpt><trkpt lat="44.0915283" lon="9.8141783"><ele>62.0</ele><time>2026-03-31T13:34:44.77Z</time></trkpt><trkpt lat="44.09161" lon="9.8143083"><ele>57.25</ele><time>2026-03-31T13:34:45.77Z</time></trkpt><trkpt lat="44.0916883" lon="9.814445"><ele>52.5</ele><time>2026-03-31T13:34:46.77Z</time></trkpt><trkpt lat="44.091765" lon="9.8145783"><ele>47.75</ele><time>2026-03-31T13:34:47.771Z</time></trkpt><trkpt lat="44.0918417" lon="9.8147133"><ele>43.0</ele><time>2026-03-31T13:34:48.77Z</time></trkpt><trkpt lat="44.0919217" lon="9.8148383"><ele>43.0</ele><time>2026-03-31T13:34:49.771Z</time></trkpt><trkpt lat="44.0919967" lon="9.8149617"><ele>43.0</ele><time>2026-03-31T13:34:50.771Z</time></trkpt><trkpt lat="44.092075" lon="9.815095"><ele>43.0</ele><time>2026-03-31T13:34:51.771Z</time></trkpt><trkpt lat="44.092165" lon="9.81521"><ele>43.0</ele><time>2026-03-31T13:34:52.77Z</time></trkpt><trkpt lat="44.0922433" lon="9.8153383"><ele>43.25</ele><time>2026-03-31T13:34:53.77Z</time></trkpt><trkpt lat="44.0923167" lon="9.815475"><ele>43.5</ele><time>2026-03-31T13:34:54.77Z</time></trkpt><trkpt lat="44.0923883" lon="9.815605"><ele>43.75</ele><time>2026-03-31T13:34:55.771Z</time></trkpt><trkpt lat="44.09246" lon="9.8157317"><ele>44.0</ele><time>2026-03-31T13:34:56.771Z</time></trkpt><trkpt lat="44.092525" lon="9.815875"><ele>35.75</ele><time>2026-03-31T13:34:57.77Z</time></trkpt><trkpt lat="44.092595" lon="9.8160183"><ele>27.5</ele><time>2026-03-31T13:34:58.77Z</time></trkpt><trkpt lat="44.0926633" lon="9.8161483"><ele>19.25</ele><time>2026-03-31T13:34:59.771Z</time></trkpt><trkpt lat="44.0927383" lon="9.8162667"><ele>11.0</ele><time>2026-03-31T13:35:00.771Z</time></trkpt><trkpt lat="44.092825" lon="9.8163633"><ele>11.0</ele><time>2026-03-31T13:35:01.77Z</time></trkpt><trkpt lat="44.0929183" lon="9.8164433"><ele>11.0</ele><time>2026-03-31T13:35:02.771Z</time></trkpt><trkpt lat="44.093025" lon="9.81651"><ele>11.0</ele><time>2026-03-31T13:35:03.771Z</time></trkpt><trkpt lat="44.0931283" lon="9.8165533"><ele>11.0</ele><time>2026-03-31T13:35:04.771Z</time></trkpt><trkpt lat="44.0932383" lon="9.816575"><ele>11.0</ele><time>2026-03-31T13:35:05.77Z</time></trkpt><trkpt lat="44.093355" lon="9.8165683"><ele>15.200000000000001</ele><time>2026-03-31T13:35:06.771Z</time></trkpt><trkpt lat="44.0934667" lon="9.8165383"><ele>19.400000000000002</ele><time>2026-03-31T13:35:07.77Z</time></trkpt><trkpt lat="44.093565" lon="9.8164833"><ele>23.6</ele><time>2026-03-31T13:35:08.77Z</time></trkpt><trkpt lat="44.0936633" lon="9.8164017"><ele>27.8</ele><time>2026-03-31T13:35:09.771Z</time></trkpt><trkpt lat="44.0937433" lon="9.8162967"><ele>32.0</ele><time>2026-03-31T13:35:10.77Z</time></trkpt><trkpt lat="44.093815" lon="9.816175"><ele>32.0</ele><time>2026-03-31T13:35:11.771Z</time></trkpt><trkpt lat="44.0938783" lon="9.8160567"><ele>32.0</ele><time>2026-03-31T13:35:12.771Z</time></trkpt><trkpt lat="44.0939417" lon="9.8159333"><ele>32.0</ele><time>2026-03-31T13:35:13.771Z</time></trkpt><trkpt lat="44.0940117" lon="9.815815"><ele>32.0</ele><time>2026-03-31T13:35:14.771Z</time></trkpt><trkpt lat="44.0940917" lon="9.8156983"><ele>32.0</ele><time>2026-03-31T13:35:15.771Z</time></trkpt><trkpt lat="44.0941667" lon="9.8155883"><ele>32.75</ele><time>2026-03-31T13:35:16.77Z</time></trkpt><trkpt lat="44.0942483" lon="9.815475"><ele>33.5</ele><time>2026-03-31T13:35:17.77Z</time></trkpt><trkpt lat="44.094335" lon="9.8153767"><ele>34.25</ele><time>2026-03-31T13:35:18.77Z</time></trkpt><trkpt lat="44.0944183" lon="9.8152617"><ele>35.0</ele><time>2026-03-31T13:35:19.771Z</time></trkpt><trkpt lat="44.0945033" lon="9.8151383"><ele>37.75</ele><time>2026-03-31T13:35:20.77Z</time></trkpt><trkpt lat="44.0945767" lon="9.815015"><ele>40.5</ele><time>2026-03-31T13:35:21.771Z</time></trkpt><trkpt lat="44.09463" lon="9.8148817"><ele>43.25</ele><time>2026-03-31T13:35:22.77Z</time></trkpt><trkpt lat="44.0946783" lon="9.8147383"><ele>46.0</ele><time>2026-03-31T13:35:23.77Z</time></trkpt><trkpt lat="44.094715" lon="9.8145917"><ele>46.0</ele><time>2026-03-31T13:35:24.771Z</time></trkpt><trkpt lat="44.0947683" lon="9.814445"><ele>46.0</ele><time>2026-03-31T13:35:25.77Z</time></trkpt><trkpt lat="44.0948183" lon="9.8143"><ele>46.0</ele><time>2026-03-31T13:35:26.771Z</time></trkpt><trkpt lat="44.0948817" lon="9.8141767"><ele>46.0</ele><time>2026-03-31T13:35:27.771Z</time></trkpt><trkpt lat="44.0949717" lon="9.81408"><ele>42.25</ele><time>2026-03-31T13:35:28.77Z</time></trkpt><trkpt lat="44.0950833" lon="9.8140367"><ele>38.5</ele><time>2026-03-31T13:35:29.771Z</time></trkpt><trkpt lat="44.0952017" lon="9.8140367"><ele>34.75</ele><time>2026-03-31T13:35:30.77Z</time></trkpt><trkpt lat="44.09532" lon="9.8140533"><ele>31.0</ele><time>2026-03-31T13:35:31.771Z</time></trkpt><trkpt lat="44.0954317" lon="9.8140667"><ele>31.0</ele><time>2026-03-31T13:35:32.771Z</time></trkpt><trkpt lat="44.0955317" lon="9.814055"><ele>31.0</ele><time>2026-03-31T13:35:33.771Z</time></trkpt><trkpt lat="44.0956367" lon="9.8140267"><ele>31.0</ele><time>2026-03-31T13:35:34.77Z</time></trkpt><trkpt lat="44.09574" lon="9.81399"><ele>31.0</ele><time>2026-03-31T13:35:35.77Z</time></trkpt><trkpt lat="44.0958383" lon="9.8139483"><ele>31.0</ele><time>2026-03-31T13:35:36.77Z</time></trkpt><trkpt lat="44.09593" lon="9.81391"><ele>29.200000000000003</ele><time>2026-03-31T13:35:37.77Z</time></trkpt><trkpt lat="44.0960283" lon="9.8138683"><ele>27.400000000000002</ele><time>2026-03-31T13:35:38.77Z</time></trkpt><trkpt lat="44.0961183" lon="9.813825"><ele>25.6</ele><time>2026-03-31T13:35:39.77Z</time></trkpt><trkpt lat="44.096215" lon="9.8137683"><ele>23.8</ele><time>2026-03-31T13:35:40.771Z</time></trkpt><trkpt lat="44.0963083" lon="9.8137183"><ele>22.0</ele><time>2026-03-31T13:35:41.771Z</time></trkpt><trkpt lat="44.0964067" lon="9.8136717"><ele>22.0</ele><time>2026-03-31T13:35:42.77Z</time></trkpt><trkpt lat="44.096495" lon="9.8136133"><ele>22.0</ele><time>2026-03-31T13:35:43.771Z</time></trkpt><trkpt lat="44.09658" lon="9.8135567"><ele>22.0</ele><time>2026-03-31T13:35:44.771Z</time></trkpt><trkpt lat="44.096655" lon="9.8134717"><ele>22.0</ele><time>2026-03-31T13:35:45.771Z</time></trkpt><trkpt lat="44.0967283" lon="9.8133783"><ele>22.0</ele><time>2026-03-31T13:35:46.77Z</time></trkpt><trkpt lat="44.0967967" lon="9.8132767"><ele>21.400000000000002</ele><time>2026-03-31T13:35:47.771Z</time></trkpt><trkpt lat="44.096865" lon="9.813165"><ele>20.8</ele><time>2026-03-31T13:35:48.771Z</time></trkpt><trkpt lat="44.09692" lon="9.8130467"><ele>20.2</ele><time>2026-03-31T13:35:49.771Z</time></trkpt><trkpt lat="44.0969917" lon="9.812945"><ele>19.6</ele><time>2026-03-31T13:35:50.771Z</time></trkpt><trkpt lat="44.0970767" lon="9.812845"><ele>19.0</ele><time>2026-03-31T13:35:51.77Z</time></trkpt><trkpt lat="44.0971667" lon="9.812755"><ele>19.0</ele><time>2026-03-31T13:35:52.771Z</time></trkpt><trkpt lat="44.09726" lon="9.8126767"><ele>19.0</ele><time>2026-03-31T13:35:53.771Z</time></trkpt><trkpt lat="44.0973533" lon="9.8126083"><ele>19.0</ele><time>2026-03-31T13:35:54.77Z</time></trkpt><trkpt lat="44.0974433" lon="9.81254"><ele>19.0</ele><time>2026-03-31T13:35:55.771Z</time></trkpt><trkpt lat="44.09753" lon="9.8124717"><ele>19.0</ele><time>2026-03-31T13:35:56.77Z</time></trkpt><trkpt lat="44.0976133" lon="9.8124033"><ele>17.599999999999998</ele><time>2026-03-31T13:35:57.77Z</time></trkpt><trkpt lat="44.0976933" lon="9.812325"><ele>16.2</ele><time>2026-03-31T13:35:58.77Z</time></trkpt><trkpt lat="44.0977667" lon="9.8122367"><ele>14.799999999999999</ele><time>2026-03-31T13:35:59.77Z</time></trkpt><trkpt lat="44.097835" lon="9.812135"><ele>13.399999999999999</ele><time>2026-03-31T13:36:00.771Z</time></trkpt><trkpt lat="44.0979" lon="9.81203"><ele>12.0</ele><time>2026-03-31T13:36:01.771Z</time></trkpt><trkpt lat="44.0979633" lon="9.8119283"><ele>12.399999999999999</ele><time>2026-03-31T13:36:02.771Z</time></trkpt><trkpt lat="44.0980267" lon="9.8118217"><ele>12.799999999999999</ele><time>2026-03-31T13:36:03.77Z</time></trkpt><trkpt lat="44.09809" lon="9.8117167"><ele>13.2</ele><time>2026-03-31T13:36:04.77Z</time></trkpt><trkpt lat="44.0981517" lon="9.8116083"><ele>13.6</ele><time>2026-03-31T13:36:05.77Z</time></trkpt><trkpt lat="44.098215" lon="9.8114983"><ele>14.0</ele><time>2026-03-31T13:36:06.77Z</time></trkpt><trkpt lat="44.0982767" lon="9.8113833"><ele>12.399999999999999</ele><time>2026-03-31T13:36:07.77Z</time></trkpt><trkpt lat="44.0983383" lon="9.8112683"><ele>10.799999999999999</ele><time>2026-03-31T13:36:08.77Z</time></trkpt><trkpt lat="44.0983967" lon="9.8111583"><ele>9.2</ele><time>2026-03-31T13:36:09.771Z</time></trkpt><trkpt lat="44.0984583" lon="9.81105"><ele>7.6</ele><time>2026-03-31T13:36:10.77Z</time></trkpt><trkpt lat="44.0985183" lon="9.81094"><ele>6.0</ele><time>2026-03-31T13:36:11.771Z</time></trkpt><trkpt lat="44.0985717" lon="9.8108333"><ele>6.0</ele><time>2026-03-31T13:36:12.771Z</time></trkpt><trkpt lat="44.0986283" lon="9.81073"><ele>6.0</ele><time>2026-03-31T13:36:13.771Z</time></trkpt><trkpt lat="44.0986833" lon="9.8106333"><ele>6.0</ele><time>2026-03-31T13:36:14.77Z</time></trkpt><trkpt lat="44.0987417" lon="9.81054"><ele>6.0</ele><time>2026-03-31T13:36:15.77Z</time></trkpt><trkpt lat="44.0987967" lon="9.810445"><ele>6.0</ele><time>2026-03-31T13:36:16.771Z</time></trkpt><trkpt lat="44.098845" lon="9.81036"><ele>6.0</ele><time>2026-03-31T13:36:17.77Z</time></trkpt><trkpt lat="44.0989033" lon="9.81028"><ele>5.999999999999999</ele><time>2026-03-31T13:36:18.77Z</time></trkpt><trkpt lat="44.0989667" lon="9.8102117"><ele>6.0</ele><time>2026-03-31T13:36:19.771Z</time></trkpt><trkpt lat="44.0990283" lon="9.8101417"><ele>6.0</ele><time>2026-03-31T13:36:20.77Z</time></trkpt><trkpt lat="44.0990817" lon="9.8100733"><ele>6.0</ele><time>2026-03-31T13:36:21.77Z</time></trkpt><trkpt lat="44.09913" lon="9.8099933"><ele>6.0</ele><time>2026-03-31T13:36:22.771Z</time></trkpt><trkpt lat="44.0991767" lon="9.8099167"><ele>5.999999999999999</ele><time>2026-03-31T13:36:23.771Z</time></trkpt><trkpt lat="44.0992167" lon="9.809845"><ele>6.0</ele><time>2026-03-31T13:36:24.771Z</time></trkpt><trkpt lat="44.0992933" lon="9.8096983"><ele>5.571428571428571</ele><time>2026-03-31T13:36:26.771Z</time></trkpt><trkpt lat="44.0993317" lon="9.8096183"><ele>5.142857142857142</ele><time>2026-03-31T13:36:27.771Z</time></trkpt><trkpt lat="44.099365" lon="9.80953"><ele>4.7142857142857135</ele><time>2026-03-31T13:36:28.77Z</time></trkpt><trkpt lat="44.0993967" lon="9.8094483"><ele>4.285714285714286</ele><time>2026-03-31T13:36:29.771Z</time></trkpt><trkpt lat="44.0994317" lon="9.8093683"><ele>3.8571428571428568</ele><time>2026-03-31T13:36:30.771Z</time></trkpt><trkpt lat="44.0994733" lon="9.8092883"><ele>3.4285714285714284</ele><time>2026-03-31T13:36:31.77Z</time></trkpt><trkpt lat="44.0995133" lon="9.8092117"><ele>3.0</ele><time>2026-03-31T13:36:32.77Z</time></trkpt><trkpt lat="44.0995533" lon="9.809135"><ele>6.199999999999999</ele><time>2026-03-31T13:36:33.771Z</time></trkpt><trkpt lat="44.0995883" lon="9.8090617"><ele>9.399999999999999</ele><time>2026-03-31T13:36:34.77Z</time></trkpt><trkpt lat="44.0996617" lon="9.808915"><ele>12.599999999999998</ele><time>2026-03-31T13:36:36.771Z</time></trkpt><trkpt lat="44.0996983" lon="9.8088417"><ele>15.799999999999999</ele><time>2026-03-31T13:36:37.771Z</time></trkpt><trkpt lat="44.09976" lon="9.8086917"><ele>19.0</ele><time>2026-03-31T13:36:39.771Z</time></trkpt><trkpt lat="44.09981" lon="9.8085283"><ele>17.666666666666664</ele><time>2026-03-31T13:36:41.77Z</time></trkpt><trkpt lat="44.099835" lon="9.8084467"><ele>16.333333333333332</ele><time>2026-03-31T13:36:42.771Z</time></trkpt><trkpt lat="44.0999017" lon="9.8082967"><ele>15.0</ele><time>2026-03-31T13:36:44.771Z</time></trkpt><trkpt lat="44.09994" lon="9.8082267"><ele>13.666666666666666</ele><time>2026-03-31T13:36:45.77Z</time></trkpt><trkpt lat="44.0999867" lon="9.8081617"><ele>12.333333333333332</ele><time>2026-03-31T13:36:46.77Z</time></trkpt><trkpt lat="44.1000883" lon="9.8080683"><ele>11.0</ele><time>2026-03-31T13:36:48.771Z</time></trkpt><trkpt lat="44.1001567" lon="9.8080333"><ele>11.0</ele><time>2026-03-31T13:36:49.771Z</time></trkpt><trkpt lat="44.1002283" lon="9.8080017"><ele>11.0</ele><time>2026-03-31T13:36:50.771Z</time></trkpt><trkpt lat="44.1003017" lon="9.807975"><ele>11.0</ele><time>2026-03-31T13:36:51.771Z</time></trkpt><trkpt lat="44.10037" lon="9.80796"><ele>11.0</ele><time>2026-03-31T13:36:52.77Z</time></trkpt><trkpt lat="44.1004367" lon="9.8079517"><ele>11.0</ele><time>2026-03-31T13:36:53.77Z</time></trkpt><trkpt lat="44.1005533" lon="9.8079867"><ele>11.0</ele><time>2026-03-31T13:36:55.771Z</time></trkpt><trkpt lat="44.1006417" lon="9.808065"><ele>11.0</ele><time>2026-03-31T13:36:57.771Z</time></trkpt><trkpt lat="44.1007317" lon="9.8081183"><ele>11.0</ele><time>2026-03-31T13:36:59.77Z</time></trkpt><trkpt lat="44.1008" lon="9.8080883"><ele>11.0</ele><time>2026-03-31T13:37:01.77Z</time></trkpt><trkpt lat="44.10085" lon="9.8080117"><ele>11.0</ele><time>2026-03-31T13:37:03.771Z</time></trkpt><trkpt lat="44.1009083" lon="9.807925"><ele>11.0</ele><time>2026-03-31T13:37:05.771Z</time></trkpt><trkpt lat="44.10098" lon="9.80784"><ele>11.0</ele><time>2026-03-31T13:37:07.771Z</time></trkpt><trkpt lat="44.101055" lon="9.8077517"><ele>10.0</ele><time>2026-03-31T13:37:09.77Z</time></trkpt><trkpt lat="44.101155" lon="9.8076733"><ele>9.0</ele><time>2026-03-31T13:37:11.77Z</time></trkpt><trkpt lat="44.1012583" lon="9.8076267"><ele>8.0</ele><time>2026-03-31T13:37:13.77Z</time></trkpt><trkpt lat="44.1013583" lon="9.8075983"><ele>7.0</ele><time>2026-03-31T13:37:15.771Z</time></trkpt><trkpt lat="44.1014467" lon="9.8075883"><ele>6.0</ele><time>2026-03-31T13:37:17.771Z</time></trkpt><trkpt lat="44.10154" lon="9.80758"><ele>6.199999999999999</ele><time>2026-03-31T13:37:19.77Z</time></trkpt><trkpt lat="44.1016367" lon="9.8075767"><ele>6.3999999999999995</ele><time>2026-03-31T13:37:21.771Z</time></trkpt><trkpt lat="44.1017417" lon="9.8075833"><ele>6.6</ele><time>2026-03-31T13:37:23.771Z</time></trkpt><trkpt lat="44.1018417" lon="9.8075767"><ele>6.8</ele><time>2026-03-31T13:37:25.77Z</time></trkpt><trkpt lat="44.101945" lon="9.807565"><ele>7.0</ele><time>2026-03-31T13:37:27.771Z</time></trkpt><trkpt lat="44.1020383" lon="9.8075533"><ele>7.0</ele><time>2026-03-31T13:37:29.77Z</time></trkpt><trkpt lat="44.1021317" lon="9.8075367"><ele>6.999999999999999</ele><time>2026-03-31T13:37:31.77Z</time></trkpt><trkpt lat="44.1022167" lon="9.8075067"><ele>6.999999999999999</ele><time>2026-03-31T13:37:33.771Z</time></trkpt><trkpt lat="44.1023083" lon="9.8074817"><ele>7.0</ele><time>2026-03-31T13:37:35.771Z</time></trkpt><trkpt lat="44.1023967" lon="9.8074583"><ele>7.0</ele><time>2026-03-31T13:37:37.771Z</time></trkpt><trkpt lat="44.1024817" lon="9.8074383"><ele>7.0</ele><time>2026-03-31T13:37:39.77Z</time></trkpt><trkpt lat="44.1025717" lon="9.8073867"><ele>6.999999999999999</ele><time>2026-03-31T13:37:41.77Z</time></trkpt><trkpt lat="44.102665" lon="9.8073317"><ele>6.999999999999999</ele><time>2026-03-31T13:37:43.77Z</time></trkpt><trkpt lat="44.10274" lon="9.80725"><ele>7.0</ele><time>2026-03-31T13:37:45.771Z</time></trkpt><trkpt lat="44.1028167" lon="9.80717"><ele>7.0</ele><time>2026-03-31T13:37:47.771Z</time></trkpt><trkpt lat="44.1028967" lon="9.8071"><ele>7.000000000000001</ele><time>2026-03-31T13:37:49.77Z</time></trkpt><trkpt lat="44.102975" lon="9.807025"><ele>7.0</ele><time>2026-03-31T13:37:51.771Z</time></trkpt><trkpt lat="44.103035" lon="9.8069567"><ele>7.0</ele><time>2026-03-31T13:37:53.771Z</time></trkpt><trkpt lat="44.103095" lon="9.8068667"><ele>7.0</ele><time>2026-03-31T13:37:55.77Z</time></trkpt><trkpt lat="44.1031533" lon="9.8067967"><ele>7.000000000000001</ele><time>2026-03-31T13:37:57.771Z</time></trkpt><trkpt lat="44.1032167" lon="9.806715"><ele>7.0</ele><time>2026-03-31T13:37:59.771Z</time></trkpt><trkpt lat="44.1032717" lon="9.8066267"><ele>7.833333333333334</ele><time>2026-03-31T13:38:01.77Z</time></trkpt><trkpt lat="44.1033383" lon="9.8065433"><ele>8.666666666666668</ele><time>2026-03-31T13:38:03.771Z</time></trkpt><trkpt lat="44.1034033" lon="9.806465"><ele>9.5</ele><time>2026-03-31T13:38:05.771Z</time></trkpt><trkpt lat="44.1034783" lon="9.8063867"><ele>10.333333333333334</ele><time>2026-03-31T13:38:07.77Z</time></trkpt><trkpt lat="44.10354" lon="9.8063133"><ele>11.166666666666666</ele><time>2026-03-31T13:38:09.77Z</time></trkpt><trkpt lat="44.1036" lon="9.806225"><ele>12.0</ele><time>2026-03-31T13:38:11.77Z</time></trkpt><trkpt lat="44.10367" lon="9.806145"><ele>12.0</ele><time>2026-03-31T13:38:13.771Z</time></trkpt><trkpt lat="44.10374" lon="9.80607"><ele>12.0</ele><time>2026-03-31T13:38:15.77Z</time></trkpt><trkpt lat="44.1038183" lon="9.8059967"><ele>12.0</ele><time>2026-03-31T13:38:17.77Z</time></trkpt><trkpt lat="44.1039017" lon="9.8059317"><ele>12.0</ele><time>2026-03-31T13:38:19.771Z</time></trkpt><trkpt lat="44.10397" lon="9.805855"><ele>12.0</ele><time>2026-03-31T13:38:21.77Z</time></trkpt><trkpt lat="44.1040417" lon="9.8057917"><ele>12.333333333333334</ele><time>2026-03-31T13:38:23.77Z</time></trkpt><trkpt lat="44.1041233" lon="9.8057417"><ele>12.666666666666668</ele><time>2026-03-31T13:38:25.77Z</time></trkpt><trkpt lat="44.1041967" lon="9.8056767"><ele>13.0</ele><time>2026-03-31T13:38:27.771Z</time></trkpt><trkpt lat="44.1042533" lon="9.805595"><ele>13.333333333333334</ele><time>2026-03-31T13:38:29.771Z</time></trkpt><trkpt lat="44.1042983" lon="9.8055083"><ele>13.666666666666668</ele><time>2026-03-31T13:38:31.77Z</time></trkpt><trkpt lat="44.1043667" lon="9.8054183"><ele>14.0</ele><time>2026-03-31T13:38:33.771Z</time></trkpt><trkpt lat="44.1044333" lon="9.8053233"><ele>14.0</ele><time>2026-03-31T13:38:35.771Z</time></trkpt><trkpt lat="44.10449" lon="9.8052267"><ele>13.999999999999998</ele><time>2026-03-31T13:38:37.769Z</time></trkpt><trkpt lat="44.1045517" lon="9.8051233"><ele>13.999999999999998</ele><time>2026-03-31T13:38:39.769Z</time></trkpt><trkpt lat="44.1046183" lon="9.8050317"><ele>14.0</ele><time>2026-03-31T13:38:41.769Z</time></trkpt><trkpt lat="44.1046833" lon="9.8049467"><ele>14.0</ele><time>2026-03-31T13:38:43.769Z</time></trkpt><trkpt lat="44.104735" lon="9.804855"><ele>14.857142857142858</ele><time>2026-03-31T13:38:45.77Z</time></trkpt><trkpt lat="44.1047717" lon="9.8047767"><ele>15.714285714285715</ele><time>2026-03-31T13:38:47.769Z</time></trkpt><trkpt lat="44.1047867" lon="9.8046633"><ele>16.57142857142857</ele><time>2026-03-31T13:38:50.77Z</time></trkpt><trkpt lat="44.1047683" lon="9.80456"><ele>17.42857142857143</ele><time>2026-03-31T13:38:53.769Z</time></trkpt><trkpt lat="44.1047233" lon="9.80449"><ele>18.285714285714285</ele><time>2026-03-31T13:38:56.769Z</time></trkpt><trkpt lat="44.1047183" lon="9.8043983"><ele>19.142857142857142</ele><time>2026-03-31T13:38:59.77Z</time></trkpt><trkpt lat="44.1047683" lon="9.804315"><ele>20.0</ele><time>2026-03-31T13:39:01.77Z</time></trkpt><trkpt lat="44.10482" lon="9.8042383"><ele>20.285714285714285</ele><time>2026-03-31T13:39:03.77Z</time></trkpt><trkpt lat="44.10486" lon="9.8041567"><ele>20.571428571428573</ele><time>2026-03-31T13:39:05.77Z</time></trkpt><trkpt lat="44.1049217" lon="9.8041033"><ele>20.857142857142858</ele><time>2026-03-31T13:39:07.77Z</time></trkpt><trkpt lat="44.1049867" lon="9.8040583"><ele>21.142857142857142</ele><time>2026-03-31T13:39:09.769Z</time></trkpt><trkpt lat="44.1050467" lon="9.8040167"><ele>21.428571428571427</ele><time>2026-03-31T13:39:11.77Z</time></trkpt><trkpt lat="44.1051183" lon="9.80397"><ele>21.714285714285715</ele><time>2026-03-31T13:39:13.769Z</time></trkpt><trkpt lat="44.105175" lon="9.8039283"><ele>22.0</ele><time>2026-03-31T13:39:15.77Z</time></trkpt><trkpt lat="44.1052367" lon="9.8038817"><ele>21.42857142857143</ele><time>2026-03-31T13:39:17.77Z</time></trkpt><trkpt lat="44.1053" lon="9.8038367"><ele>20.857142857142858</ele><time>2026-03-31T13:39:19.77Z</time></trkpt><trkpt lat="44.10536" lon="9.8037833"><ele>20.285714285714285</ele><time>2026-03-31T13:39:21.77Z</time></trkpt><trkpt lat="44.105435" lon="9.8037367"><ele>19.714285714285715</ele><time>2026-03-31T13:39:24.77Z</time></trkpt><trkpt lat="44.105505" lon="9.8037133"><ele>19.142857142857142</ele><time>2026-03-31T13:39:28.769Z</time></trkpt><trkpt lat="44.1055917" lon="9.8036933"><ele>18.571428571428573</ele><time>2026-03-31T13:39:31.769Z</time></trkpt><trkpt lat="44.1056533" lon="9.803665"><ele>18.0</ele><time>2026-03-31T13:39:33.769Z</time></trkpt><trkpt lat="44.105715" lon="9.803635"><ele>18.0</ele><time>2026-03-31T13:39:35.77Z</time></trkpt><trkpt lat="44.1057917" lon="9.8036"><ele>18.0</ele><time>2026-03-31T13:39:37.77Z</time></trkpt><trkpt lat="44.1058833" lon="9.803575"><ele>18.0</ele><time>2026-03-31T13:39:39.77Z</time></trkpt><trkpt lat="44.10597" lon="9.803555"><ele>18.0</ele><time>2026-03-31T13:39:41.77Z</time></trkpt><trkpt lat="44.106045" lon="9.8035167"><ele>18.0</ele><time>2026-03-31T13:39:43.77Z</time></trkpt><trkpt lat="44.10613" lon="9.8034867"><ele>18.0</ele><time>2026-03-31T13:39:45.77Z</time></trkpt><trkpt lat="44.1062117" lon="9.8034683"><ele>18.4</ele><time>2026-03-31T13:39:47.77Z</time></trkpt><trkpt lat="44.10631" lon="9.803455"><ele>18.8</ele><time>2026-03-31T13:39:49.77Z</time></trkpt><trkpt lat="44.1064117" lon="9.8034567"><ele>19.2</ele><time>2026-03-31T13:39:51.77Z</time></trkpt><trkpt lat="44.10651" lon="9.8034733"><ele>19.6</ele><time>2026-03-31T13:39:53.77Z</time></trkpt><trkpt lat="44.1066033" lon="9.8034917"><ele>20.0</ele><time>2026-03-31T13:39:55.77Z</time></trkpt><trkpt lat="44.1067017" lon="9.8035117"><ele>20.0</ele><time>2026-03-31T13:39:57.769Z</time></trkpt><trkpt lat="44.1067933" lon="9.8035483"><ele>20.0</ele><time>2026-03-31T13:39:59.77Z</time></trkpt><trkpt lat="44.1068883" lon="9.8035933"><ele>20.0</ele><time>2026-03-31T13:40:01.77Z</time></trkpt><trkpt lat="44.1069767" lon="9.80364"><ele>20.0</ele><time>2026-03-31T13:40:03.769Z</time></trkpt><trkpt lat="44.10707" lon="9.8036867"><ele>20.0</ele><time>2026-03-31T13:40:05.77Z</time></trkpt><trkpt lat="44.10716" lon="9.8037417"><ele>20.0</ele><time>2026-03-31T13:40:07.77Z</time></trkpt><trkpt lat="44.107245" lon="9.803795"><ele>20.0</ele><time>2026-03-31T13:40:09.769Z</time></trkpt><trkpt lat="44.10733" lon="9.8038583"><ele>20.0</ele><time>2026-03-31T13:40:11.769Z</time></trkpt><trkpt lat="44.1074217" lon="9.8039333"><ele>20.0</ele><time>2026-03-31T13:40:13.77Z</time></trkpt><trkpt lat="44.1075117" lon="9.804025"><ele>20.0</ele><time>2026-03-31T13:40:15.769Z</time></trkpt><trkpt lat="44.107595" lon="9.8041083"><ele>19.6</ele><time>2026-03-31T13:40:17.77Z</time></trkpt><trkpt lat="44.1076867" lon="9.8041917"><ele>19.2</ele><time>2026-03-31T13:40:19.77Z</time></trkpt><trkpt lat="44.1077783" lon="9.8042783"><ele>18.8</ele><time>2026-03-31T13:40:21.77Z</time></trkpt><trkpt lat="44.1078567" lon="9.8043667"><ele>18.4</ele><time>2026-03-31T13:40:23.77Z</time></trkpt><trkpt lat="44.1079433" lon="9.804465"><ele>18.0</ele><time>2026-03-31T13:40:25.77Z</time></trkpt><trkpt lat="44.1080317" lon="9.8045667"><ele>18.0</ele><time>2026-03-31T13:40:27.77Z</time></trkpt><trkpt lat="44.1081183" lon="9.8046683"><ele>18.0</ele><time>2026-03-31T13:40:29.77Z</time></trkpt><trkpt lat="44.1082" lon="9.8047667"><ele>18.0</ele><time>2026-03-31T13:40:31.77Z</time></trkpt><trkpt lat="44.1082783" lon="9.8048733"><ele>18.0</ele><time>2026-03-31T13:40:33.769Z</time></trkpt><trkpt lat="44.1083483" lon="9.804965"><ele>18.0</ele><time>2026-03-31T13:40:35.769Z</time></trkpt><trkpt lat="44.1084217" lon="9.80505"><ele>17.833333333333332</ele><time>2026-03-31T13:40:37.769Z</time></trkpt><trkpt lat="44.1084967" lon="9.8051117"><ele>17.666666666666668</ele><time>2026-03-31T13:40:39.77Z</time></trkpt><trkpt lat="44.108565" lon="9.80518"><ele>17.5</ele><time>2026-03-31T13:40:41.769Z</time></trkpt><trkpt lat="44.1086367" lon="9.80526"><ele>17.333333333333336</ele><time>2026-03-31T13:40:43.77Z</time></trkpt><trkpt lat="44.1086917" lon="9.8053333"><ele>17.166666666666668</ele><time>2026-03-31T13:40:45.769Z</time></trkpt><trkpt lat="44.1087567" lon="9.8054217"><ele>17.0</ele><time>2026-03-31T13:40:48.769Z</time></trkpt><trkpt lat="44.1088183" lon="9.8054983"><ele>16.833333333333336</ele><time>2026-03-31T13:40:51.77Z</time></trkpt><trkpt lat="44.10888" lon="9.8055367"><ele>16.666666666666668</ele><time>2026-03-31T13:40:55.77Z</time></trkpt><trkpt lat="44.1089667" lon="9.80547"><ele>16.5</ele><time>2026-03-31T13:40:58.769Z</time></trkpt><trkpt lat="44.1090217" lon="9.8053817"><ele>16.333333333333332</ele><time>2026-03-31T13:41:00.77Z</time></trkpt><trkpt lat="44.1090917" lon="9.8052883"><ele>16.166666666666664</ele><time>2026-03-31T13:41:02.769Z</time></trkpt><trkpt lat="44.109155" lon="9.8052033"><ele>16.0</ele><time>2026-03-31T13:41:04.77Z</time></trkpt><trkpt lat="44.109205" lon="9.8050933"><ele>15.8</ele><time>2026-03-31T13:41:06.77Z</time></trkpt><trkpt lat="44.10926" lon="9.805005"><ele>15.600000000000001</ele><time>2026-03-31T13:41:08.77Z</time></trkpt><trkpt lat="44.1093167" lon="9.8049267"><ele>15.4</ele><time>2026-03-31T13:41:10.77Z</time></trkpt><trkpt lat="44.1093633" lon="9.8048283"><ele>15.2</ele><time>2026-03-31T13:41:12.77Z</time></trkpt><trkpt lat="44.1094033" lon="9.8047017"><ele>15.0</ele><time>2026-03-31T13:41:14.77Z</time></trkpt><trkpt lat="44.1094867" lon="9.8045883"><ele>15.0</ele><time>2026-03-31T13:41:16.77Z</time></trkpt><trkpt lat="44.109575" lon="9.8044817"><ele>15.0</ele><time>2026-03-31T13:41:18.769Z</time></trkpt><trkpt lat="44.1096333" lon="9.8043933"><ele>15.0</ele><time>2026-03-31T13:41:20.769Z</time></trkpt><trkpt lat="44.1096983" lon="9.804255"><ele>15.0</ele><time>2026-03-31T13:41:22.769Z</time></trkpt><trkpt lat="44.10975" lon="9.8041417"><ele>15.0</ele><time>2026-03-31T13:41:24.77Z</time></trkpt><trkpt lat="44.10981" lon="9.80404"><ele>15.0</ele><time>2026-03-31T13:41:26.769Z</time></trkpt><trkpt lat="44.1098733" lon="9.8039133"><ele>15.0</ele><time>2026-03-31T13:41:28.77Z</time></trkpt><trkpt lat="44.1099233" lon="9.803805"><ele>15.0</ele><time>2026-03-31T13:41:30.769Z</time></trkpt><trkpt lat="44.1099867" lon="9.8036883"><ele>15.0</ele><time>2026-03-31T13:41:32.77Z</time></trkpt><trkpt lat="44.1100583" lon="9.803585"><ele>15.0</ele><time>2026-03-31T13:41:34.77Z</time></trkpt><trkpt lat="44.1101167" lon="9.8034717"><ele>14.833333333333334</ele><time>2026-03-31T13:41:36.77Z</time></trkpt><trkpt lat="44.1101767" lon="9.8033683"><ele>14.666666666666668</ele><time>2026-03-31T13:41:38.77Z</time></trkpt><trkpt lat="44.1102317" lon="9.8032583"><ele>14.5</ele><time>2026-03-31T13:41:40.77Z</time></trkpt><trkpt lat="44.1102733" lon="9.80317"><ele>14.333333333333334</ele><time>2026-03-31T13:41:42.769Z</time></trkpt><trkpt lat="44.110315" lon="9.803065"><ele>14.166666666666668</ele><time>2026-03-31T13:41:44.77Z</time></trkpt><trkpt lat="44.11037" lon="9.802985"><ele>14.0</ele><time>2026-03-31T13:41:46.77Z</time></trkpt><trkpt lat="44.1104167" lon="9.8029033"><ele>14.000000000000002</ele><time>2026-03-31T13:41:48.769Z</time></trkpt><trkpt lat="44.110465" lon="9.8028317"><ele>14.0</ele><time>2026-03-31T13:41:50.769Z</time></trkpt><trkpt lat="44.1105183" lon="9.8027633"><ele>14.0</ele><time>2026-03-31T13:41:52.77Z</time></trkpt><trkpt lat="44.1105733" lon="9.802675"><ele>14.0</ele><time>2026-03-31T13:41:54.77Z</time></trkpt><trkpt lat="44.11061" lon="9.80257"><ele>14.000000000000002</ele><time>2026-03-31T13:41:56.769Z</time></trkpt><trkpt lat="44.1106583" lon="9.8024783"><ele>14.0</ele><time>2026-03-31T13:41:59.77Z</time></trkpt><trkpt lat="44.1107033" lon="9.8023967"><ele>14.666666666666668</ele><time>2026-03-31T13:42:01.77Z</time></trkpt><trkpt lat="44.1107567" lon="9.8023033"><ele>15.333333333333334</ele><time>2026-03-31T13:42:03.77Z</time></trkpt><trkpt lat="44.1108117" lon="9.80222"><ele>16.0</ele><time>2026-03-31T13:42:05.77Z</time></trkpt><trkpt lat="44.11085" lon="9.80214"><ele>16.666666666666668</ele><time>2026-03-31T13:42:07.769Z</time></trkpt><trkpt lat="44.110915" lon="9.8020467"><ele>17.333333333333332</ele><time>2026-03-31T13:42:10.77Z</time></trkpt><trkpt lat="44.1110067" lon="9.8020033"><ele>18.0</ele><time>2026-03-31T13:42:12.77Z</time></trkpt><trkpt lat="44.1110917" lon="9.801955"><ele>18.0</ele><time>2026-03-31T13:42:14.769Z</time></trkpt><trkpt lat="44.111175" lon="9.80192"><ele>18.0</ele><time>2026-03-31T13:42:16.77Z</time></trkpt><trkpt lat="44.1112567" lon="9.80189"><ele>18.0</ele><time>2026-03-31T13:42:18.77Z</time></trkpt><trkpt lat="44.111345" lon="9.8018833"><ele>18.0</ele><time>2026-03-31T13:42:20.769Z</time></trkpt><trkpt lat="44.1114317" lon="9.80189"><ele>18.0</ele><time>2026-03-31T13:42:22.77Z</time></trkpt><trkpt lat="44.1115067" lon="9.8019233"><ele>18.0</ele><time>2026-03-31T13:42:24.77Z</time></trkpt><trkpt lat="44.1115917" lon="9.80196"><ele>18.333333333333332</ele><time>2026-03-31T13:42:26.77Z</time></trkpt><trkpt lat="44.1116717" lon="9.8020033"><ele>18.666666666666668</ele><time>2026-03-31T13:42:28.769Z</time></trkpt><trkpt lat="44.1117533" lon="9.8020417"><ele>19.0</ele><time>2026-03-31T13:42:30.769Z</time></trkpt><trkpt lat="44.111835" lon="9.8020783"><ele>19.333333333333336</ele><time>2026-03-31T13:42:32.769Z</time></trkpt><trkpt lat="44.111915" lon="9.8021283"><ele>19.666666666666668</ele><time>2026-03-31T13:42:34.769Z</time></trkpt><trkpt lat="44.111995" lon="9.8021683"><ele>20.0</ele><time>2026-03-31T13:42:36.77Z</time></trkpt><trkpt lat="44.1120767" lon="9.8022017"><ele>20.0</ele><time>2026-03-31T13:42:38.77Z</time></trkpt><trkpt lat="44.11216" lon="9.8022533"><ele>20.0</ele><time>2026-03-31T13:42:40.769Z</time></trkpt><trkpt lat="44.11224" lon="9.8023067"><ele>20.0</ele><time>2026-03-31T13:42:42.77Z</time></trkpt><trkpt lat="44.1123167" lon="9.8023517"><ele>20.0</ele><time>2026-03-31T13:42:44.769Z</time></trkpt><trkpt lat="44.1123967" lon="9.80239"><ele>20.0</ele><time>2026-03-31T13:42:46.77Z</time></trkpt><trkpt lat="44.112475" lon="9.8024233"><ele>20.0</ele><time>2026-03-31T13:42:48.77Z</time></trkpt><trkpt lat="44.112555" lon="9.8024667"><ele>20.833333333333336</ele><time>2026-03-31T13:42:50.77Z</time></trkpt><trkpt lat="44.1126317" lon="9.80251"><ele>21.666666666666668</ele><time>2026-03-31T13:42:52.769Z</time></trkpt><trkpt lat="44.1127133" lon="9.8025567"><ele>22.5</ele><time>2026-03-31T13:42:54.77Z</time></trkpt><trkpt lat="44.1128017" lon="9.8025917"><ele>23.333333333333336</ele><time>2026-03-31T13:42:56.77Z</time></trkpt><trkpt lat="44.112885" lon="9.8026167"><ele>24.166666666666668</ele><time>2026-03-31T13:42:58.77Z</time></trkpt><trkpt lat="44.112975" lon="9.802635"><ele>25.0</ele><time>2026-03-31T13:43:00.77Z</time></trkpt><trkpt lat="44.1130667" lon="9.80266"><ele>25.000000000000004</ele><time>2026-03-31T13:43:02.769Z</time></trkpt><trkpt lat="44.1131617" lon="9.8026767"><ele>25.0</ele><time>2026-03-31T13:43:04.77Z</time></trkpt><trkpt lat="44.11325" lon="9.8026917"><ele>25.0</ele><time>2026-03-31T13:43:06.77Z</time></trkpt><trkpt lat="44.113325" lon="9.8027017"><ele>25.0</ele><time>2026-03-31T13:43:08.769Z</time></trkpt><trkpt lat="44.11341" lon="9.8027067"><ele>25.000000000000004</ele><time>2026-03-31T13:43:10.77Z</time></trkpt><trkpt lat="44.1134867" lon="9.8027217"><ele>25.0</ele><time>2026-03-31T13:43:12.77Z</time></trkpt><trkpt lat="44.1135983" lon="9.802765"><ele>25.0</ele><time>2026-03-31T13:43:14.769Z</time></trkpt><trkpt lat="44.1137033" lon="9.8027883"><ele>25.0</ele><time>2026-03-31T13:43:16.77Z</time></trkpt><trkpt lat="44.1138267" lon="9.8028217"><ele>25.0</ele><time>2026-03-31T13:43:18.77Z</time></trkpt><trkpt lat="44.1139333" lon="9.8028367"><ele>25.0</ele><time>2026-03-31T13:43:20.769Z</time></trkpt><trkpt lat="44.1140267" lon="9.8028567"><ele>25.0</ele><time>2026-03-31T13:43:22.769Z</time></trkpt><trkpt lat="44.1141283" lon="9.8028767"><ele>25.000000000000004</ele><time>2026-03-31T13:43:24.769Z</time></trkpt><trkpt lat="44.1142117" lon="9.8028933"><ele>25.0</ele><time>2026-03-31T13:43:26.769Z</time></trkpt><trkpt lat="44.1142833" lon="9.802895"><ele>25.0</ele><time>2026-03-31T13:43:28.769Z</time></trkpt><trkpt lat="44.11438" lon="9.8029283"><ele>25.0</ele><time>2026-03-31T13:43:30.77Z</time></trkpt><trkpt lat="44.1144667" lon="9.8029683"><ele>25.000000000000004</ele><time>2026-03-31T13:43:32.77Z</time></trkpt><trkpt lat="44.1145467" lon="9.8029833"><ele>25.0</ele><time>2026-03-31T13:43:34.769Z</time></trkpt><trkpt lat="44.1146233" lon="9.803015"><ele>25.000000000000004</ele><time>2026-03-31T13:43:36.769Z</time></trkpt><trkpt lat="44.1147033" lon="9.80304"><ele>25.0</ele><time>2026-03-31T13:43:38.77Z</time></trkpt><trkpt lat="44.1147783" lon="9.8030833"><ele>25.0</ele><time>2026-03-31T13:43:40.77Z</time></trkpt><trkpt lat="44.114845" lon="9.8031167"><ele>25.0</ele><time>2026-03-31T13:43:42.77Z</time></trkpt><trkpt lat="44.1149167" lon="9.80315"><ele>25.000000000000004</ele><time>2026-03-31T13:43:44.769Z</time></trkpt><trkpt lat="44.1149917" lon="9.8031967"><ele>25.0</ele><time>2026-03-31T13:43:46.77Z</time></trkpt><trkpt lat="44.1150683" lon="9.8032567"><ele>25.333333333333336</ele><time>2026-03-31T13:43:48.77Z</time></trkpt><trkpt lat="44.1151433" lon="9.803295"><ele>25.666666666666668</ele><time>2026-03-31T13:43:50.769Z</time></trkpt><trkpt lat="44.1152117" lon="9.8033283"><ele>26.0</ele><time>2026-03-31T13:43:52.77Z</time></trkpt><trkpt lat="44.115285" lon="9.8033733"><ele>26.333333333333336</ele><time>2026-03-31T13:43:54.77Z</time></trkpt><trkpt lat="44.1153667" lon="9.8034417"><ele>26.666666666666668</ele><time>2026-03-31T13:43:56.77Z</time></trkpt><trkpt lat="44.1154433" lon="9.8034817"><ele>27.0</ele><time>2026-03-31T13:43:58.769Z</time></trkpt><trkpt lat="44.1155183" lon="9.8035183"><ele>27.0</ele><time>2026-03-31T13:44:00.77Z</time></trkpt><trkpt lat="44.1156" lon="9.8035433"><ele>27.0</ele><time>2026-03-31T13:44:02.769Z</time></trkpt><trkpt lat="44.1156867" lon="9.8035683"><ele>27.0</ele><time>2026-03-31T13:44:04.77Z</time></trkpt><trkpt lat="44.115765" lon="9.8035767"><ele>27.0</ele><time>2026-03-31T13:44:06.769Z</time></trkpt><trkpt lat="44.115835" lon="9.8035617"><ele>27.0</ele><time>2026-03-31T13:44:08.769Z</time></trkpt><trkpt lat="44.1159117" lon="9.8035533"><ele>27.0</ele><time>2026-03-31T13:44:10.77Z</time></trkpt><trkpt lat="44.11599" lon="9.803545"><ele>27.333333333333332</ele><time>2026-03-31T13:44:12.77Z</time></trkpt><trkpt lat="44.1160717" lon="9.8035317"><ele>27.666666666666664</ele><time>2026-03-31T13:44:14.769Z</time></trkpt><trkpt lat="44.1161683" lon="9.8035267"><ele>28.0</ele><time>2026-03-31T13:44:16.77Z</time></trkpt><trkpt lat="44.1162517" lon="9.8035317"><ele>28.333333333333332</ele><time>2026-03-31T13:44:18.769Z</time></trkpt><trkpt lat="44.1163283" lon="9.803525"><ele>28.666666666666664</ele><time>2026-03-31T13:44:20.769Z</time></trkpt><trkpt lat="44.1164367" lon="9.8035067"><ele>29.0</ele><time>2026-03-31T13:44:23.769Z</time></trkpt><trkpt lat="44.1165033" lon="9.8034583"><ele>28.999999999999996</ele><time>2026-03-31T13:44:25.769Z</time></trkpt><trkpt lat="44.1165633" lon="9.8033933"><ele>29.0</ele><time>2026-03-31T13:44:27.77Z</time></trkpt><trkpt lat="44.11661" lon="9.8033317"><ele>29.0</ele><time>2026-03-31T13:44:29.77Z</time></trkpt><trkpt lat="44.1166567" lon="9.8032483"><ele>29.0</ele><time>2026-03-31T13:44:31.77Z</time></trkpt><trkpt lat="44.116695" lon="9.8031433"><ele>28.999999999999996</ele><time>2026-03-31T13:44:33.77Z</time></trkpt><trkpt lat="44.11673" lon="9.80307"><ele>29.0</ele><time>2026-03-31T13:44:35.77Z</time></trkpt><trkpt lat="44.11681" lon="9.8030267"><ele>29.666666666666664</ele><time>2026-03-31T13:44:38.77Z</time></trkpt><trkpt lat="44.116875" lon="9.8030683"><ele>30.333333333333332</ele><time>2026-03-31T13:44:40.769Z</time></trkpt><trkpt lat="44.11694" lon="9.8031133"><ele>31.0</ele><time>2026-03-31T13:44:42.77Z</time></trkpt><trkpt lat="44.1170033" lon="9.803185"><ele>31.666666666666664</ele><time>2026-03-31T13:44:44.769Z</time></trkpt><trkpt lat="44.1170767" lon="9.8032633"><ele>32.333333333333336</ele><time>2026-03-31T13:44:46.77Z</time></trkpt><trkpt lat="44.117125" lon="9.8033233"><ele>33.0</ele><time>2026-03-31T13:44:48.77Z</time></trkpt><trkpt lat="44.1172" lon="9.8033433"><ele>33.0</ele><time>2026-03-31T13:44:50.769Z</time></trkpt><trkpt lat="44.1172683" lon="9.803325"><ele>33.0</ele><time>2026-03-31T13:44:52.77Z</time></trkpt><trkpt lat="44.1173433" lon="9.8032967"><ele>33.0</ele><time>2026-03-31T13:44:54.77Z</time></trkpt><trkpt lat="44.1174267" lon="9.8032417"><ele>33.0</ele><time>2026-03-31T13:44:57.77Z</time></trkpt><trkpt lat="44.117495" lon="9.803215"><ele>33.0</ele><time>2026-03-31T13:44:59.77Z</time></trkpt><trkpt lat="44.11755" lon="9.8031717"><ele>33.0</ele><time>2026-03-31T13:45:01.77Z</time></trkpt><trkpt lat="44.1176033" lon="9.8030867"><ele>33.666666666666664</ele><time>2026-03-31T13:45:03.769Z</time></trkpt><trkpt lat="44.11768" lon="9.8030317"><ele>34.333333333333336</ele><time>2026-03-31T13:45:06.77Z</time></trkpt><trkpt lat="44.117745" lon="9.8030083"><ele>35.0</ele><time>2026-03-31T13:45:08.769Z</time></trkpt><trkpt lat="44.117805" lon="9.8029783"><ele>35.66666666666667</ele><time>2026-03-31T13:45:10.769Z</time></trkpt><trkpt lat="44.1178767" lon="9.8028983"><ele>36.333333333333336</ele><time>2026-03-31T13:45:13.769Z</time></trkpt><trkpt lat="44.117935" lon="9.8028483"><ele>37.0</ele><time>2026-03-31T13:45:15.769Z</time></trkpt><trkpt lat="44.118015" lon="9.8028383"><ele>37.0</ele><time>2026-03-31T13:45:19.77Z</time></trkpt><trkpt lat="44.1181033" lon="9.8028733"><ele>37.0</ele><time>2026-03-31T13:45:22.769Z</time></trkpt></trkseg></trk></gpx>